Provisional Data: Chiques Creek near Route 283


Please select a monitoring station.
Please select start date.
Please select start date.

<
Toggle Unit: C/F Toggle Unit: C/F
Sample Time Temperature (C) Temperature (F) Specific Conductivity (mS/cm) pH   Turbidity (NTU+) DO (mg/L)
10/22/2021 12:00:00 AM 14.09 57.362 0.571 8.91 3.7 10.07
10/22/2021 12:15:00 AM 14.12 57.416 0.57 8.91 3.73 10.05
10/22/2021 12:30:00 AM 14.17 57.506 0.561 8.9 5.74 10.06
10/22/2021 12:45:00 AM 14.21 57.578 0.563 8.91 4.85 10.07
10/22/2021 1:00:00 AM 14.25 57.65 0.562 8.9 5.31 10.03
10/22/2021 1:15:00 AM 14.3 57.74 0.562 8.91 3.96 10.05
10/22/2021 1:30:00 AM 14.33 57.794 0.566 8.92 4.64 10.03
10/22/2021 1:45:00 AM 14.36 57.848 0.56 8.93 4.46 10.01
10/22/2021 2:00:00 AM 14.39 57.902 0.561 8.91 4.4 9.98
10/22/2021 2:15:00 AM 14.42 57.956 0.56 8.94 4.25 9.94
10/22/2021 2:30:00 AM 14.45 58.01 0.556 8.93 3.9 9.95
10/22/2021 2:45:00 AM 14.47 58.046 0.552 8.92 3.69 9.89
10/22/2021 3:00:00 AM 14.48 58.064 0.553 8.91 4.17 9.89
10/22/2021 3:15:00 AM 14.49 58.082 0.561 8.91 5.29 9.83
10/22/2021 3:30:00 AM 14.5 58.1 0.558 8.91 5.01 9.82
10/22/2021 3:45:00 AM 14.51 58.118 0.563 8.89 5.71 9.79
10/22/2021 4:00:00 AM 14.53 58.154 0.563 8.9 4.85 9.75
10/22/2021 4:15:00 AM 14.54 58.172 0.566 8.91 9.39 9.75
10/22/2021 4:30:00 AM 14.54 58.172 0.573 8.88 5.38 9.78
10/22/2021 4:45:00 AM 14.54 58.172 0.569 8.89 5.07 9.74
10/22/2021 5:00:00 AM 14.54 58.172 0.57 8.88 4.7 9.74
10/22/2021 5:15:00 AM 14.54 58.172 0.571 8.88 5.11 9.72
10/22/2021 5:30:00 AM 14.54 58.172 0.57 8.87 4.45 9.67
10/22/2021 5:45:00 AM 14.53 58.154 0.574 8.87 4.69 9.66
10/22/2021 6:00:00 AM 14.52 58.136 0.575 8.87 4.8 9.63
10/22/2021 6:15:00 AM 14.51 58.118 0.577 8.88 4.25 9.64
10/22/2021 6:30:00 AM 14.49 58.082 0.578 8.87 4.78 9.62
10/22/2021 6:45:00 AM 14.48 58.064 0.577 8.77 6.06 9.58
10/22/2021 7:00:00 AM 14.47 58.046 0.577 8.82 5.36 9.55
10/22/2021 7:15:00 AM 14.45 58.01 0.579 8.83 5.09 9.52
10/22/2021 7:30:00 AM 14.44 57.992 0.582 8.82 5.08 9.55
10/22/2021 7:45:00 AM 14.43 57.974 0.58 8.84 5.22 9.53
10/22/2021 8:00:00 AM 14.43 57.974 0.581 8.82 4.67 9.55
10/22/2021 8:15:00 AM 14.42 57.956 0.582 8.82 4.99 9.57
10/22/2021 8:30:00 AM 14.43 57.974 0.582 8.83 6.15 9.62
10/22/2021 8:45:00 AM 14.43 57.974 0.585 8.83 4.84 9.65
10/22/2021 9:00:00 AM 14.45 58.01 0.581 8.83 5.69 9.68
10/22/2021 9:15:00 AM 14.48 58.064 0.586 8.83 4.72 9.75
10/22/2021 9:30:00 AM 14.49 58.082 0.587 8.82 5.13 9.77
10/22/2021 9:45:00 AM 14.51 58.118 0.587 8.83 4.82 9.82
10/22/2021 10:00:00 AM 14.48 58.064 0.585 8.83 5.99 9.72
10/22/2021 10:15:00 AM 14.51 58.118 0.585 8.83 4.62 9.82
10/22/2021 10:30:00 AM 14.54 58.172 0.585 8.83 4.5 9.89
10/22/2021 10:45:00 AM 14.56 58.208 0.585 8.84 4.13 9.89
10/22/2021 11:00:00 AM 14.58 58.244 0.568 8.84 4.11 9.88
10/22/2021 11:15:00 AM 14.62 58.316 0.587 8.88 4.32 9.93
10/22/2021 11:30:00 AM 14.63 58.334 0.586 8.85 4.22 9.87
10/22/2021 11:45:00 AM 14.66 58.388 0.587 8.87 3.91 9.95
10/22/2021 12:00:00 PM 14.68 58.424 0.58 8.85 4.85 9.95
10/22/2021 12:15:00 PM 14.66 58.388 0.586 8.86 4.03 9.81
10/22/2021 12:30:00 PM 14.68 58.424 0.58 8.84 4.22 9.87
10/22/2021 12:45:00 PM 14.7 58.46 0.582 8.82 4.92 9.88
10/22/2021 1:00:00 PM 14.79 58.622 0.582 8.85 4 10.03
10/22/2021 1:15:00 PM 14.82 58.676 0.581 8.84 3.71 10
10/22/2021 1:30:00 PM 14.81 58.658 0.581 8.85 4.21 9.94
10/22/2021 1:45:00 PM 14.79 58.622 0.583 8.84 4.28 9.84
10/22/2021 2:00:00 PM 14.79 58.622 0.581 8.84 3.92 9.83
10/22/2021 2:15:00 PM 14.8 58.64 0.583 8.86 4.93 9.77
10/22/2021 2:30:00 PM 14.8 58.64 0.58 8.82 4.65 9.72
10/22/2021 2:45:00 PM 14.81 58.658 0.58 8.84 4.31 9.73
10/22/2021 3:00:00 PM 14.81 58.658 0.582 8.84 3.87 9.76
10/22/2021 3:15:00 PM 14.8 58.64 0.581 8.82 5.11 9.75
10/22/2021 3:30:00 PM 14.81 58.658 0.587 8.83 5.7 9.79
10/22/2021 3:45:00 PM 14.83 58.694 0.578 8.83 4.97 9.83
10/22/2021 4:00:00 PM 14.85 58.73 0.58 8.84 4.77 9.88
10/22/2021 4:15:00 PM 14.85 58.73 0.58 8.85 3.98 9.84
10/22/2021 4:30:00 PM 14.85 58.73 0.577 8.83 4.55 9.84
10/22/2021 4:45:00 PM 14.83 58.694 0.577 8.84 5.19 9.78
10/22/2021 5:00:00 PM 14.82 58.676 0.579 8.83 3.94 9.78
10/22/2021 5:15:00 PM 14.81 58.658 0.579 8.82 3.6 9.76
10/22/2021 5:30:00 PM 14.79 58.622 0.585 8.81 4.59 9.73
10/22/2021 5:45:00 PM 14.76 58.568 0.576 8.82 3.95 9.69
10/22/2021 6:00:00 PM 14.74 58.532 0.579 8.84 3.72 9.69
10/22/2021 6:15:00 PM 14.73 58.514 0.569 8.82 3.84 9.66
10/22/2021 6:30:00 PM 14.71 58.478 0.577 8.81 4.33 9.68
10/22/2021 6:45:00 PM 14.7 58.46 0.584 8.84 4.69 9.7
10/22/2021 7:00:00 PM 14.69 58.442 0.577 8.8 4.64 9.68
10/22/2021 7:15:00 PM 14.68 58.424 0.576 8.81 4.45 9.73
10/22/2021 7:30:00 PM 14.67 58.406 0.582 8.81 3.87 9.75
10/22/2021 7:45:00 PM 14.66 58.388 0.58 8.84 4.24 9.75
10/22/2021 8:00:00 PM 14.65 58.37 0.572 8.83 4.74 9.77
10/22/2021 8:15:00 PM 14.62 58.316 0.567 8.84 3.7 9.79
10/22/2021 8:30:00 PM 14.58 58.244 0.567 8.87 3.67 9.83
10/22/2021 8:45:00 PM 14.55 58.19 0.57 8.87 5.57 9.82
10/22/2021 9:00:00 PM 14.51 58.118 0.572 8.87 4.73 9.89
10/22/2021 9:15:00 PM 14.48 58.064 0.57 8.87 5.49 9.88
10/22/2021 9:30:00 PM 14.47 58.046 0.568 8.86 4.75 9.9
10/22/2021 9:45:00 PM 14.46 58.028 0.574 8.88 4.03 9.93
10/22/2021 10:00:00 PM 14.46 58.028 0.566 8.89 4.54 9.92
10/22/2021 10:15:00 PM 14.46 58.028 0.568 8.88 4.46 9.96
10/22/2021 10:30:00 PM 14.45 58.01 0.566 8.74 5.67 9.96
10/22/2021 10:45:00 PM 14.44 57.992 0.567 8.87 4.21 9.98
10/22/2021 11:00:00 PM 14.43 57.974 0.566 8.89 4.18 9.99
10/22/2021 11:15:00 PM 14.42 57.956 0.564 8.89 4.48 10.02
10/22/2021 11:30:00 PM 14.41 57.938 0.563 8.9 3.75 10.03
10/22/2021 11:45:00 PM 14.4 57.92 0.564 8.94 4.21 10.06
10/23/2021 12:00:00 AM 14.39 57.902 0.563 8.92 3.71 10.09
10/23/2021 12:15:00 AM 14.4 57.92 0.562 8.95 3.81 10.11
10/23/2021 12:30:00 AM 14.4 57.92 0.559 8.94 4.65 10.1
10/23/2021 12:45:00 AM 14.4 57.92 0.56 8.95 3.94 10.08
10/23/2021 1:00:00 AM 14.4 57.92 0.559 8.93 4.21 10.1
10/23/2021 1:15:00 AM 14.41 57.938 0.558 8.94 4.08 10.12
10/23/2021 1:30:00 AM 14.41 57.938 0.558 8.93 5.35 10.1
10/23/2021 1:45:00 AM 14.41 57.938 0.581 8.95 3.96 10.09
10/23/2021 2:00:00 AM 14.41 57.938 0.555 8.94 5.28 10.11
10/23/2021 2:15:00 AM 14.4 57.92 0.556 8.94 4.2 10.1
10/23/2021 2:30:00 AM 14.4 57.92 0.556 8.94 4.69 10.07
10/23/2021 2:45:00 AM 14.4 57.92 0.556 8.91 4.43 10.04
10/23/2021 3:00:00 AM 14.39 57.902 0.555 8.92 4.25 10.04
10/23/2021 3:15:00 AM 14.39 57.902 0.555 8.91 4.44 10.04
10/23/2021 3:30:00 AM 14.38 57.884 0.553 8.92 4.27 9.98
10/23/2021 3:45:00 AM 14.38 57.884 0.556 8.9 5.04 9.99
10/23/2021 4:00:00 AM 14.37 57.866 0.557 8.92 5.05 9.96
10/23/2021 4:15:00 AM 14.36 57.848 0.557 8.9 4.25 9.94
10/23/2021 4:30:00 AM 14.35 57.83 0.558 8.93 4.34 9.89
10/23/2021 4:45:00 AM 14.34 57.812 0.556 8.9 4.38 9.87
10/23/2021 5:00:00 AM 14.33 57.794 0.551 8.9 4.47 9.89
10/23/2021 5:15:00 AM 14.31 57.758 0.566 8.9 4.79 9.86
10/23/2021 5:30:00 AM 14.31 57.758 0.559 8.88 4.91 9.81
10/23/2021 5:45:00 AM 14.3 57.74 0.561 8.89 4.36 9.82
10/23/2021 6:00:00 AM 14.29 57.722 0.56 8.87 4.88 9.79
10/23/2021 6:15:00 AM 14.27 57.686 0.569 8.88 4.55 9.77
10/23/2021 6:30:00 AM 14.25 57.65 0.562 8.86 4.62 9.75
10/23/2021 6:45:00 AM 14.24 57.632 0.565 8.88 5.69 9.73
10/23/2021 7:00:00 AM 14.22 57.596 0.561 8.86 4.49 9.68
10/23/2021 7:15:00 AM 14.2 57.56 0.519 8.86 5.6 9.68
10/23/2021 7:30:00 AM 14.18 57.524 0.563 8.84 4.86 9.67
10/23/2021 7:45:00 AM 14.16 57.488 0.569 8.84 5.1 9.65
10/23/2021 8:00:00 AM 14.15 57.47 0.567 8.83 4.82 9.64
10/23/2021 8:15:00 AM 14.14 57.452 0.57 8.84 10.52 9.65
10/23/2021 8:30:00 AM 14.12 57.416 0.577 8.8 11.56 9.64
10/23/2021 8:45:00 AM 14.11 57.398 0.572 8.83 10.09 9.65
10/23/2021 9:00:00 AM 14.09 57.362 0.57 8.81 9.94 9.66
10/23/2021 9:15:00 AM 14.08 57.344 0.574 8.82 9.72 9.65
10/23/2021 9:30:00 AM 14.07 57.326 0.58 8.82 9.64 9.63
10/23/2021 9:45:00 AM 14.06 57.308 0.581 8.8 10.03 9.69
10/23/2021 10:00:00 AM 14.06 57.308 0.58 8.82 9.78 9.75
10/23/2021 10:15:00 AM 14.06 57.308 0.574 8.8 10.73 9.78
10/23/2021 10:30:00 AM 14.05 57.29 0.577 8.78 10.16 9.78
10/23/2021 10:45:00 AM 14.04 57.272 0.583 8.82 10.05 9.78
10/23/2021 11:00:00 AM 14.04 57.272 0.578 8.82 9.87 9.8
10/23/2021 11:15:00 AM 14.03 57.254 0.579 8.8 10.18 9.78
10/23/2021 11:30:00 AM 14.02 57.236 0.579 8.81 9.93 9.77
10/23/2021 11:45:00 AM 14.01 57.218 0.585 8.81 10.55 9.78
10/23/2021 12:00:00 PM 14.01 57.218 0.578 8.8 9.82 9.76
10/23/2021 12:15:00 PM 14.04 57.272 0.58 8.84 9.83 9.92
10/23/2021 12:30:00 PM 14.06 57.308 0.58 8.83 10.03 9.89
10/23/2021 12:45:00 PM 14.09 57.362 0.58 8.83 9.58 9.98
10/23/2021 1:00:00 PM 14.1 57.38 0.581 8.83 9.52 9.97
10/23/2021 1:15:00 PM 14.09 57.362 0.581 8.82 9.53 9.92
10/23/2021 1:30:00 PM 14.08 57.344 0.582 8.8 9.72 9.88
10/23/2021 1:45:00 PM 14.08 57.344 0.589 8.83 9.75 9.88
10/23/2021 2:00:00 PM 14.08 57.344 0.574 8.84 9.51 9.9
10/23/2021 2:15:00 PM 14.1 57.38 0.589 8.83 9.91 9.99
10/23/2021 2:30:00 PM 14.11 57.398 0.584 8.78 9.44 10
10/23/2021 2:45:00 PM 14.12 57.416 0.581 8.82 9.57 9.97
10/23/2021 3:00:00 PM 14.1 57.38 0.582 8.8 9.14 9.84
10/23/2021 3:15:00 PM 14.09 57.362 0.583 8.78 8.72 9.81
10/23/2021 3:30:00 PM 14.09 57.362 0.524 8.81 8.72 9.87
10/23/2021 3:45:00 PM 14.1 57.38 0.583 8.83 9.19 9.91
10/23/2021 4:00:00 PM 14.09 57.362 0.583 8.81 8.93 9.87
10/23/2021 4:15:00 PM 14.08 57.344 0.584 8.82 8.95 9.89
10/23/2021 4:30:00 PM 14.08 57.344 0.583 8.8 9.34 9.93
10/23/2021 4:45:00 PM 14.07 57.326 0.528 8.84 8.54 9.89
10/23/2021 5:00:00 PM 14.06 57.308 0.585 8.82 8.41 9.88
10/23/2021 5:15:00 PM 14.04 57.272 0.585 8.8 8.83 9.84
10/23/2021 5:30:00 PM 14.03 57.254 0.588 8.81 8.55 9.83
10/23/2021 5:45:00 PM 14.01 57.218 0.586 8.8 8.32 9.79
10/23/2021 6:00:00 PM 13.98 57.164 0.589 8.84 8.92 9.79
10/23/2021 6:15:00 PM 13.96 57.128 0.587 8.81 9.39 9.78
10/23/2021 6:30:00 PM 13.93 57.074 0.586 8.79 8.62 9.76
10/23/2021 6:45:00 PM 13.92 57.056 0.583 8.81 8.51 9.77
10/23/2021 7:00:00 PM 13.9 57.02 0.587 8.79 8.61 9.79
10/23/2021 7:15:00 PM 13.89 57.002 0.589 8.82 8.37 9.79
10/23/2021 7:30:00 PM 13.86 56.948 0.587 8.81 8.46 9.81
10/23/2021 7:45:00 PM 13.83 56.894 0.576 8.8 8.25 9.83
10/23/2021 8:00:00 PM 13.82 56.876 0.586 8.8 8.26 9.84
10/23/2021 8:15:00 PM 13.8 56.84 0.586 8.83 10.34 9.85
10/23/2021 8:30:00 PM 13.78 56.804 0.586 8.81 7.91 9.87
10/23/2021 8:45:00 PM 13.78 56.804 0.587 8.85 8.46 9.86
10/23/2021 9:00:00 PM 13.76 56.768 0.585 8.81 8.51 9.86
10/23/2021 9:15:00 PM 13.75 56.75 0.585 8.82 8.51 9.89
10/23/2021 9:30:00 PM 13.74 56.732 0.585 8.82 8.58 9.88
10/23/2021 9:45:00 PM 13.73 56.714 0.586 8.83 8.58 9.93
10/23/2021 10:00:00 PM 13.7 56.66 0.584 8.84 9.38 9.94
10/23/2021 10:15:00 PM 13.68 56.624 0.585 8.86 8.99 9.94
10/23/2021 10:30:00 PM 13.67 56.606 0.581 8.83 9.73 9.95
10/23/2021 10:45:00 PM 13.65 56.57 0.584 8.86 7.82 9.99
10/23/2021 11:00:00 PM 13.64 56.552 0.581 8.84 9.83 10.01
10/23/2021 11:15:00 PM 13.63 56.534 0.58 8.84 11.38 10.02
10/23/2021 11:30:00 PM 13.62 56.516 0.579 8.85 9.04 10.06
10/23/2021 11:45:00 PM 13.6 56.48 0.58 8.85 10.76 10
10/24/2021 12:00:00 AM 13.6 56.48 0.579 8.87 9.27 10.12
10/24/2021 12:15:00 AM 13.59 56.462 0.575 8.87 8.6 10.1
10/24/2021 12:30:00 AM 13.58 56.444 0.576 8.86 8.26 10.05
10/24/2021 12:45:00 AM 13.57 56.426 0.575 8.89 8.15 10.1
10/24/2021 1:00:00 AM 13.56 56.408 0.574 8.88 8.36 10.1
10/24/2021 1:15:00 AM 13.55 56.39 0.57 8.88 8.11 10.1
10/24/2021 1:30:00 AM 13.54 56.372 0.569 8.91 9.55 10.16
10/24/2021 1:45:00 AM 13.52 56.336 0.57 8.91 8.12 10.16
10/24/2021 2:00:00 AM 13.5 56.3 0.566 8.9 9.97 10.21
10/24/2021 2:15:00 AM 13.48 56.264 0.568 8.9 7.33 10.21
10/24/2021 2:30:00 AM 13.46 56.228 0.566 8.88 4.83 10.17
10/24/2021 2:45:00 AM 13.44 56.192 0.566 8.9 5.04 10.13
10/24/2021 3:00:00 AM 13.42 56.156 0.556 8.9 4.64 10.2
10/24/2021 3:15:00 AM 13.41 56.138 0.569 8.93 5.37 10.2
10/24/2021 3:30:00 AM 13.39 56.102 0.569 8.9 5.24 10.18
10/24/2021 3:45:00 AM 13.37 56.066 0.563 8.93 5.31 10.18
10/24/2021 4:00:00 AM 13.36 56.048 0.563 8.9 4.71 10.16
10/24/2021 4:15:00 AM 13.35 56.03 0.563 8.88 5.07 10.06
10/24/2021 4:30:00 AM 13.33 55.994 0.563 8.9 4.63 10.07
10/24/2021 4:45:00 AM 13.32 55.976 0.569 8.9 4.65 10.06
10/24/2021 5:00:00 AM 13.3 55.94 0.564 8.88 4.82 10.09
10/24/2021 5:15:00 AM 13.29 55.922 0.565 8.9 4.79 10.07
10/24/2021 5:30:00 AM 13.27 55.886 0.564 8.9 5.13 10.07
10/24/2021 5:45:00 AM 13.25 55.85 0.564 8.87 4.97 10.02
10/24/2021 6:00:00 AM 13.23 55.814 0.554 8.87 5.49 10.01
10/24/2021 6:15:00 AM 13.21 55.778 0.569 8.86 5.05 10
10/24/2021 6:30:00 AM 13.18 55.724 0.576 8.85 4.94 9.97
10/24/2021 6:45:00 AM 13.15 55.67 0.576 8.85 4.93 9.94
10/24/2021 7:00:00 AM 13.14 55.652 0.572 8.83 6.25 9.94
10/24/2021 7:15:00 AM 13.11 55.598 0.555 8.86 6.19 9.93
10/24/2021 7:30:00 AM 13.08 55.544 0.58 8.82 5.6 9.92
10/24/2021 7:45:00 AM 13.06 55.508 0.564 8.84 5.03 9.92
10/24/2021 8:00:00 AM 13.04 55.472 0.571 8.83 5.23 9.92
10/24/2021 8:15:00 AM 13.02 55.436 0.584 8.85 5 9.93
10/24/2021 8:30:00 AM 13 55.4 0.579 8.83 5.17 9.96
10/24/2021 8:45:00 AM 13 55.4 0.58 8.83 5.25 10.02
10/24/2021 9:00:00 AM 12.98 55.364 0.58 8.82 5.83 10
10/24/2021 9:15:00 AM 12.98 55.364 0.581 8.82 4.86 10.05
10/24/2021 9:30:00 AM 12.97 55.346 0.588 8.83 4.66 10.05
10/24/2021 9:45:00 AM 12.95 55.31 0.582 8.85 4.94 9.99
10/24/2021 10:00:00 AM 12.94 55.292 0.583 8.78 4.78 10.02
10/24/2021 10:15:00 AM 12.92 55.256 0.584 8.83 4.98 10.03
10/24/2021 10:30:00 AM 12.9 55.22 0.584 8.83 5.29 10.02
10/24/2021 10:45:00 AM 12.88 55.184 0.584 8.85 5.02 10.01
10/24/2021 11:00:00 AM 12.87 55.166 0.578 8.85 4.56 10.02
10/24/2021 11:15:00 AM 12.86 55.148 0.585 8.85 4.69 10.04
10/24/2021 11:30:00 AM 12.85 55.13 0.585 8.85 4.7 10.06
10/24/2021 11:45:00 AM 12.87 55.166 0.585 8.84 4.14 10.22
10/24/2021 12:00:00 PM 12.87 55.166 0.585 8.85 4.45 10.21
10/24/2021 12:15:00 PM 12.84 55.112 0.583 8.84 4.76 10.12
10/24/2021 12:30:00 PM 12.83 55.094 0.585 8.83 137.26 10.15
10/24/2021 12:45:00 PM 12.83 55.094 0.585 8.83 5.23 10.2
10/24/2021 1:00:00 PM 12.83 55.094 0.585 8.81 4.42 10.21
10/24/2021 1:15:00 PM 12.81 55.058 0.581 8.83 5.55 10.18
10/24/2021 1:30:00 PM 12.8 55.04 0.585 8.86 5.89 10.22
10/24/2021 1:45:00 PM 12.82 55.076 0.585 8.84 4.97 10.33
10/24/2021 2:00:00 PM 12.84 55.112 0.585 8.85 4.81 10.37
10/24/2021 2:15:00 PM 12.88 55.184 0.58 8.85 4.39 10.42
10/24/2021 2:30:00 PM 12.92 55.256 0.583 8.85 3.96 10.4
10/24/2021 2:45:00 PM 12.91 55.238 0.585 8.85 4.18 10.39
10/24/2021 3:00:00 PM 12.94 55.292 0.585 8.87 4.38 10.4
10/24/2021 3:15:00 PM 12.93 55.274 0.583 8.85 4.14 10.33
10/24/2021 3:30:00 PM 12.91 55.238 0.591 8.84 3.82 10.31
10/24/2021 3:45:00 PM 12.9 55.22 0.578 8.81 4.5 10.32
10/24/2021 4:00:00 PM 12.9 55.22 0.609 8.85 4.26 10.31
10/24/2021 4:15:00 PM 12.88 55.184 0.583 8.83 3.89 10.29
10/24/2021 4:30:00 PM 12.89 55.202 0.59 8.86 4.07 10.33
10/24/2021 4:45:00 PM 12.88 55.184 0.583 8.83 3.88 10.3
10/24/2021 5:00:00 PM 12.86 55.148 0.586 8.83 4.43 10.26
10/24/2021 5:15:00 PM 12.86 55.148 0.583 8.84 4.17 10.22
10/24/2021 5:30:00 PM 12.86 55.148 0.583 8.82 4.03 10.19
10/24/2021 5:45:00 PM 12.86 55.148 0.584 8.84 4.12 10.18
10/24/2021 6:00:00 PM 12.86 55.148 0.586 8.82 4.16 10.16
10/24/2021 6:15:00 PM 12.87 55.166 0.584 8.83 4.09 10.14
10/24/2021 6:30:00 PM 12.87 55.166 0.586 8.82 4.11 10.17
10/24/2021 6:45:00 PM 12.87 55.166 0.586 8.84 4.5 10.17
10/24/2021 7:00:00 PM 12.86 55.148 0.579 8.87 4.01 10.17
10/24/2021 7:15:00 PM 12.86 55.148 0.585 8.8 4.22 10.19
10/24/2021 7:30:00 PM 12.86 55.148 0.585 8.82 4.2 10.21
10/24/2021 7:45:00 PM 12.86 55.148 0.582 8.83 4.4 10.21
10/24/2021 8:00:00 PM 12.84 55.112 0.591 8.87 4.2 10.23
10/24/2021 8:15:00 PM 12.82 55.076 0.584 8.81 4.34 10.24
10/24/2021 8:30:00 PM 12.79 55.022 0.584 8.88 5.51 10.25
10/24/2021 8:45:00 PM 12.76 54.968 0.579 8.87 4.32 10.26
10/24/2021 9:00:00 PM 12.74 54.932 0.607 8.84 4.98 10.27
10/24/2021 9:15:00 PM 12.72 54.896 0.58 8.84 4.35 10.29
10/24/2021 9:30:00 PM 12.71 54.878 0.582 8.89 4.29 10.31
10/24/2021 9:45:00 PM 12.71 54.878 0.579 8.86 4.92 10.32
10/24/2021 10:00:00 PM 12.71 54.878 0.586 8.86 4.49 10.33
10/24/2021 10:15:00 PM 12.71 54.878 0.578 8.86 6.09 10.33
10/24/2021 10:30:00 PM 12.71 54.878 0.586 8.87 5.82 10.34
10/24/2021 10:45:00 PM 12.72 54.896 0.578 8.86 4.52 10.34
10/24/2021 11:00:00 PM 12.72 54.896 0.578 8.89 4.5 10.37
10/24/2021 11:15:00 PM 12.73 54.914 0.575 8.85 4.84 10.37
10/24/2021 11:30:00 PM 12.74 54.932 0.583 8.89 4.63 10.39
10/24/2021 11:45:00 PM 12.75 54.95 0.574 8.89 4.73 10.4
10/25/2021 12:00:00 AM 12.77 54.986 0.58 8.89 4.26 10.41
10/25/2021 12:15:00 AM 12.78 55.004 0.569 8.88 4.49 10.42
10/25/2021 12:30:00 AM 12.8 55.04 0.573 8.9 4.77 10.44
10/25/2021 12:45:00 AM 12.82 55.076 0.578 8.87 4.69 10.44
10/25/2021 1:00:00 AM 12.84 55.112 0.57 8.92 4.98 10.46
10/25/2021 1:15:00 AM 12.86 55.148 0.576 8.91 4.87 10.46
10/25/2021 1:30:00 AM 12.88 55.184 0.569 8.91 4.91 10.46
10/25/2021 1:45:00 AM 12.9 55.22 0.568 8.95 4.63 10.47
10/25/2021 2:00:00 AM 12.91 55.238 0.567 8.92 4.68 10.48
10/25/2021 2:15:00 AM 12.93 55.274 0.566 8.91 4.94 10.46
10/25/2021 2:30:00 AM 12.95 55.31 0.57 8.97 4.62 10.47
10/25/2021 2:45:00 AM 12.96 55.328 0.564 8.93 4.69 10.47
10/25/2021 3:00:00 AM 12.98 55.364 0.563 8.94 4.42 10.45
10/25/2021 3:15:00 AM 12.98 55.364 0.568 8.94 4.9 10.44
10/25/2021 3:30:00 AM 12.99 55.382 0.562 8.93 4.87 10.43
10/25/2021 3:45:00 AM 13 55.4 0.561 8.92 4.78 10.41
10/25/2021 4:00:00 AM 13.02 55.436 0.561 8.93 5.02 10.4
10/25/2021 4:15:00 AM 13.03 55.454 0.52 8.94 4.93 10.36
10/25/2021 4:30:00 AM 13.04 55.472 0.558 8.93 4.95 10.35
10/25/2021 4:45:00 AM 13.05 55.49 0.565 8.94 4.62 10.32
10/25/2021 5:00:00 AM 13.05 55.49 0.56 8.92 4.72 10.28
10/25/2021 5:15:00 AM 13.06 55.508 0.56 8.94 4.6 10.27
10/25/2021 5:30:00 AM 13.06 55.508 0.561 8.9 4.71 10.22
10/25/2021 5:45:00 AM 13.06 55.508 0.514 8.91 5.76 10.2
10/25/2021 6:00:00 AM 13.06 55.508 0.559 8.89 4.79 10.17
10/25/2021 6:15:00 AM 13.05 55.49 0.567 8.88 4.82 10.15
10/25/2021 6:30:00 AM 13.04 55.472 0.561 8.86 5.04 10.11
10/25/2021 6:45:00 AM 13.03 55.454 0.521 8.91 5.07 10.1
10/25/2021 7:00:00 AM 13.02 55.436 0.562 8.85 5.15 10.06
10/25/2021 7:15:00 AM 13.02 55.436 0.565 8.89 5.03 10.05
10/25/2021 7:30:00 AM 13.01 55.418 0.564 8.84 5.3 10.02
10/25/2021 7:45:00 AM 13.01 55.418 0.568 8.83 5.07 10.02
10/25/2021 8:00:00 AM 13.01 55.418 0.562 8.86 4.7 10.01
10/25/2021 8:15:00 AM 13.02 55.436 0.569 8.83 4.97 10.03
10/25/2021 8:30:00 AM 13.03 55.454 0.568 8.85 4.93 10.04
10/25/2021 8:45:00 AM 13.05 55.49 0.572 8.84 5.13 10.09
10/25/2021 9:00:00 AM 13.09 55.562 0.573 8.83 4.94 10.14
10/25/2021 9:15:00 AM 13.12 55.616 0.579 8.85 4.59 10.19
10/25/2021 9:30:00 AM 13.15 55.67 0.572 8.85 4.6 10.19
10/25/2021 9:45:00 AM 13.18 55.724 0.575 8.83 4.88 10.2
10/25/2021 10:00:00 AM 13.22 55.796 0.575 8.85 4.92 10.21
10/25/2021 10:15:00 AM 13.26 55.868 0.574 8.85 4.77 10.21
10/25/2021 10:30:00 AM 13.27 55.886 0.577 8.83 4.46 10.19
10/25/2021 10:45:00 AM 13.31 55.958 0.576 8.83 4.68 10.22
10/25/2021 11:00:00 AM 13.38 56.084 0.578 8.87 5 10.25
10/25/2021 11:15:00 AM 13.44 56.192 0.576 8.85 4.77 10.24
10/25/2021 11:30:00 AM 13.49 56.282 0.579 8.85 4.83 10.25
10/25/2021 11:45:00 AM 13.55 56.39 0.579 8.84 4.51 10.22
10/25/2021 12:00:00 PM 13.6 56.48 0.579 8.83 4.77 10.21
10/25/2021 12:15:00 PM 13.64 56.552 0.579 8.84 4.75 10.2
10/25/2021 12:30:00 PM 13.69 56.642 0.578 8.85 4.96 10.18
10/25/2021 12:45:00 PM 13.71 56.678 0.577 8.85 5.02 10.18
10/25/2021 1:00:00 PM 13.72 56.696 0.577 8.86 4.86 10.15
10/25/2021 1:15:00 PM 13.76 56.768 0.578 8.84 4.98 10.13
10/25/2021 1:30:00 PM 13.83 56.894 0.576 8.86 4.81 10.1
10/25/2021 1:45:00 PM 13.89 57.002 0.585 8.86 4.73 10.08
10/25/2021 2:00:00 PM 13.93 57.074 0.571 8.87 4.75 10.06
10/25/2021 2:15:00 PM 13.95 57.11 0.578 8.85 4.58 10.06
10/25/2021 2:30:00 PM 14 57.2 0.577 8.85 4.45 10.08
10/25/2021 2:45:00 PM 13.97 57.146 0.574 8.83 4.24 10.02
10/25/2021 3:00:00 PM 13.94 57.092 0.576 8.85 4.57 9.98
10/25/2021 3:15:00 PM 13.9 57.02 0.574 8.81 4.65 9.95
10/25/2021 3:30:00 PM 13.92 57.056 0.573 8.82 4.35 10
10/25/2021 3:45:00 PM 13.92 57.056 0.573 8.84 4.65 9.98
10/25/2021 4:00:00 PM 13.94 57.092 0.574 8.86 4.18 10.01
10/25/2021 4:15:00 PM 14.01 57.218 0.572 8.83 4.37 9.97
10/25/2021 4:30:00 PM 14.11 57.398 0.574 8.85 4.15 9.93
10/25/2021 4:45:00 PM 14.2 57.56 0.571 8.83 4.3 9.9
10/25/2021 5:00:00 PM 14.26 57.668 0.578 8.87 4.09 9.87
10/25/2021 5:15:00 PM 14.26 57.668 0.57 8.83 4.4 9.81
10/25/2021 5:30:00 PM 14.31 57.758 0.572 8.85 4.13 9.78
10/25/2021 5:45:00 PM 14.31 57.758 0.57 8.82 4.57 9.74
10/25/2021 6:00:00 PM 14.31 57.758 0.565 8.84 4.24 9.73
10/25/2021 6:15:00 PM 14.31 57.758 0.571 8.83 4.64 9.74
10/25/2021 6:30:00 PM 14.28 57.704 0.569 8.83 4.25 9.75
10/25/2021 6:45:00 PM 14.26 57.668 0.542 8.85 4.51 9.73
10/25/2021 7:00:00 PM 14.24 57.632 0.568 8.82 5.66 9.75
10/25/2021 7:15:00 PM 14.2 57.56 0.571 8.85 4.08 9.8
10/25/2021 7:30:00 PM 14.18 57.524 0.569 8.81 4.29 9.81
10/25/2021 7:45:00 PM 14.18 57.524 0.569 8.85 4.6 9.83
10/25/2021 8:00:00 PM 14.23 57.614 0.553 8.85 5.55 9.83
10/25/2021 8:15:00 PM 14.22 57.596 0.56 8.88 4.98 9.84
10/25/2021 8:30:00 PM 14.21 57.578 0.559 8.85 4.84 9.83
10/25/2021 8:45:00 PM 14.15 57.47 0.563 8.8 4.54 9.87
10/25/2021 9:00:00 PM 14.12 57.416 0.562 8.84 4.73 9.88
10/25/2021 9:15:00 PM 14.15 57.47 0.56 8.84 4.36 9.88
10/25/2021 9:30:00 PM 14.2 57.56 0.561 8.84 4.87 9.92
10/25/2021 9:45:00 PM 14.21 57.578 0.559 8.87 4.45 9.9
10/25/2021 10:00:00 PM 14.25 57.65 0.563 8.89 4.46 9.92
10/25/2021 10:15:00 PM 14.29 57.722 0.56 8.89 6.34 9.93
10/25/2021 10:30:00 PM 14.32 57.776 0.554 8.88 5.52 9.95
10/25/2021 10:45:00 PM 14.33 57.794 0.554 8.92 6.82 9.9
10/25/2021 11:00:00 PM 14.36 57.848 0.553 8.88 5.39 9.95
10/25/2021 11:15:00 PM 14.4 57.92 0.552 8.89 6 9.93
10/25/2021 11:30:00 PM 14.45 58.01 0.549 8.9 6.2 9.93
10/25/2021 11:45:00 PM 14.49 58.082 0.547 8.9 5.94 9.89
10/26/2021 12:00:00 AM 14.52 58.136 0.549 8.93 7.49 9.93
10/26/2021 12:15:00 AM 14.54 58.172 0.547 8.91 5.81 9.93
10/26/2021 12:30:00 AM 14.56 58.208 0.549 8.88 6.27 9.87
10/26/2021 12:45:00 AM 14.58 58.244 0.549 8.92 6.32 9.87
10/26/2021 1:00:00 AM 14.61 58.298 0.546 8.9 6.81 9.85
10/26/2021 1:15:00 AM 14.64 58.352 0.525 8.93 7.06 9.87
10/26/2021 1:30:00 AM 14.68 58.424 0.545 8.89 9.12 9.84
10/26/2021 1:45:00 AM 14.71 58.478 0.55 8.93 8.19 9.86
10/26/2021 2:00:00 AM 14.74 58.532 0.544 8.91 9.05 9.83
10/26/2021 2:15:00 AM 14.78 58.604 0.541 8.88 7.39 9.82
10/26/2021 2:30:00 AM 14.81 58.658 0.536 8.89 9.32 9.78
10/26/2021 2:45:00 AM 14.85 58.73 0.537 8.86 7.12 9.7
10/26/2021 3:00:00 AM 14.88 58.784 0.534 8.85 9.67 9.69
10/26/2021 3:15:00 AM 14.9 58.82 0.535 8.84 10.53 9.66
10/26/2021 3:30:00 AM 14.93 58.874 0.532 8.83 10.91 9.58
10/26/2021 3:45:00 AM 14.94 58.892 0.532 8.81 11.96 9.51
10/26/2021 4:00:00 AM 14.96 58.928 0.533 8.77 12.65 9.45
10/26/2021 4:15:00 AM 14.97 58.946 0.537 8.77 15.33 9.44
10/26/2021 4:30:00 AM 14.99 58.982 0.54 8.74 15.51 9.38
10/26/2021 4:45:00 AM 15.02 59.036 0.54 8.73 16.53 9.35
10/26/2021 5:00:00 AM 15.06 59.108 0.533 8.71 15.24 9.34
10/26/2021 5:15:00 AM 15.11 59.198 0.525 8.72 10.61 9.32
10/26/2021 5:30:00 AM 15.14 59.252 0.517 8.69 11.64 9.29
10/26/2021 5:45:00 AM 15.16 59.288 0.516 8.68 9.87 9.27
10/26/2021 6:00:00 AM 15.16 59.288 0.515 8.68 11.87 9.28
10/26/2021 6:15:00 AM 15.14 59.252 0.516 8.67 10.26 9.22
10/26/2021 6:30:00 AM 15.11 59.198 0.494 8.67 9.48 9.21
10/26/2021 6:45:00 AM 15.09 59.162 0.523 8.67 9.27 9.28
10/26/2021 7:00:00 AM 15.06 59.108 0.519 8.67 10.95 9.29
10/26/2021 7:15:00 AM 15.03 59.054 0.519 8.67 11.42 9.28
10/26/2021 7:30:00 AM 15.01 59.018 0.519 8.67 10.83 9.28
10/26/2021 7:45:00 AM 14.99 58.982 0.524 8.67 11.73 9.33
10/26/2021 8:00:00 AM 14.98 58.964 0.518 8.68 12.84 9.35
10/26/2021 8:15:00 AM 14.98 58.964 0.521 8.69 10.58 9.37
10/26/2021 8:30:00 AM 14.98 58.964 0.512 8.7 10.1 9.39
10/26/2021 8:45:00 AM 15 59 0.513 8.7 11.09 9.42
10/26/2021 9:00:00 AM 15.02 59.036 0.485 8.71 10.18 9.4
10/26/2021 9:15:00 AM 15.06 59.108 0.499 8.71 10.38 9.42
10/26/2021 9:30:00 AM 15.1 59.18 0.5 8.7 10.16 9.41
10/26/2021 9:45:00 AM 15.16 59.288 0.499 8.71 11.85 9.41
10/26/2021 10:00:00 AM 15.21 59.378 0.504 8.71 8.53 9.41
10/26/2021 10:15:00 AM 15.27 59.486 0.504 8.72 11.11 9.4
10/26/2021 10:30:00 AM 15.33 59.594 0.508 8.71 11.14 9.39
10/26/2021 10:45:00 AM 15.39 59.702 0.507 8.7 11.38 9.37
10/26/2021 11:00:00 AM 15.45 59.81 0.502 8.73 11.62 9.37
10/26/2021 11:15:00 AM 15.5 59.9 0.495 8.69 11.06 9.32
10/26/2021 11:30:00 AM 15.56 60.008 0.49 8.69 10.82 9.33
10/26/2021 11:45:00 AM 15.62 60.116 0.473 8.69 11.16 9.33
10/26/2021 12:00:00 PM 15.67 60.206 0.48 8.71 10.98 9.29
10/26/2021 12:15:00 PM 15.71 60.278 0.446 8.67 11.37 9.27
10/26/2021 12:30:00 PM 15.73 60.314 0.453 8.63 10.9 9.24
10/26/2021 12:45:00 PM 15.75 60.35 0.442 8.65 10.79 9.24
10/26/2021 1:00:00 PM 15.77 60.386 0.479 8.64 10.71 9.25
10/26/2021 1:15:00 PM 15.77 60.386 0.471 8.64 11.23 9.26
10/26/2021 1:30:00 PM 15.76 60.368 0.368 8.63 11.47 9.25
10/26/2021 1:45:00 PM 15.75 60.35 0.367 8.64 11.22 9.24
10/26/2021 2:00:00 PM 15.74 60.332 0.195 8.63 11.33 9.25
10/26/2021 2:15:00 PM 15.73 60.314 0.295 8.61 11.85 9.24
10/26/2021 2:30:00 PM 15.71 60.278 0.258 8.64 11.38 9.23
10/26/2021 2:45:00 PM 15.69 60.242 0.294 8.61 12.33 9.27
10/26/2021 3:00:00 PM 15.66 60.188 0.264 8.63 12.37 9.26
10/26/2021 3:15:00 PM 15.64 60.152 0.298 8.63 12.58 9.28
10/26/2021 3:30:00 PM 15.61 60.098 0.29 8.61 12.19 9.25
10/26/2021 3:45:00 PM 15.59 60.062 0.301 8.62 12.69 9.27
10/26/2021 4:00:00 PM 15.55 59.99 0.216 8.65 13.23 9.28
10/26/2021 4:15:00 PM 15.52 59.936 0.304 8.63 13.02 9.26
10/26/2021 4:30:00 PM 15.49 59.882 0.284 8.64 11.27 9.27
10/26/2021 4:45:00 PM 15.45 59.81 0.295 8.62 12.83 9.28
10/26/2021 5:00:00 PM 15.41 59.738 0.218 8.65 12.74 9.3
10/26/2021 5:15:00 PM 15.36 59.648 0.273 8.65 12.55 9.29
10/26/2021 5:30:00 PM 15.32 59.576 0.242 8.63 12 9.29
10/26/2021 5:45:00 PM 15.27 59.486 0.268 8.63 13.04 9.29
10/26/2021 6:00:00 PM 15.22 59.396 0.219 8.65 14.99 9.32
10/26/2021 6:15:00 PM 15.16 59.288 0.3 8.62 12.67 9.31
10/26/2021 6:30:00 PM 15.11 59.198 0.372 8.66 13.27 9.31
10/26/2021 6:45:00 PM 15.06 59.108 0.291 8.61 12.65 9.31
10/26/2021 7:00:00 PM 15.01 59.018 0.287 8.66 12.25 9.31
10/26/2021 7:15:00 PM 14.95 58.91 0.194 8.64 12.55 9.33
10/26/2021 7:30:00 PM 14.9 58.82 0.255 8.63 12.96 9.35
10/26/2021 7:45:00 PM 14.84 58.712 0.26 8.65 12.41 9.35
10/26/2021 8:00:00 PM 14.79 58.622 0.253 8.61 12.18 9.35
10/26/2021 8:15:00 PM 14.74 58.532 0.282 8.65 12.63 9.35
10/26/2021 8:30:00 PM 14.68 58.424 0.239 8.65 12.13 9.37
10/26/2021 8:45:00 PM 14.63 58.334 0.197 8.64 18.34 9.37
10/26/2021 9:00:00 PM 14.58 58.244 0.28 8.64 17.04 9.37
10/26/2021 9:15:00 PM 14.54 58.172 0.282 8.65 23.32 9.4
10/26/2021 9:30:00 PM 14.49 58.082 0.245 8.63 13.32 9.4
10/26/2021 9:45:00 PM 14.45 58.01 0.227 8.63 12.97 9.4
10/26/2021 10:00:00 PM 14.4 57.92 0.231 8.65 12.12 9.42
10/26/2021 10:15:00 PM 14.36 57.848 0.187 8.63 11.4 9.4
10/26/2021 10:30:00 PM 14.31 57.758 0.297 8.62 13.04 9.42
10/26/2021 10:45:00 PM 14.26 57.668 0.261 8.65 14.13 9.42
10/26/2021 11:00:00 PM 14.21 57.578 0.26 8.6 13.27 9.44
10/26/2021 11:15:00 PM 14.17 57.506 0.258 8.63 12.26 9.43
10/26/2021 11:30:00 PM 14.13 57.434 0.305 8.61 12.68 9.44
10/26/2021 11:45:00 PM 14.08 57.344 0.251 8.62 13.57 9.44
10/27/2021 12:00:00 AM 14.04 57.272 0.296 8.59 13.1 9.44
10/27/2021 12:15:00 AM 13.99 57.182 0.194 8.62 13.01 9.43
10/27/2021 12:30:00 AM 13.95 57.11 0.261 8.62 13.34 9.45
10/27/2021 12:45:00 AM 13.91 57.038 0.222 8.63 13.07 9.44
10/27/2021 1:00:00 AM 13.87 56.966 0.301 8.66 12.49 9.47
10/27/2021 1:15:00 AM 13.83 56.894 0.2 8.61 12.47 9.44
10/27/2021 1:30:00 AM 13.79 56.822 0.273 8.64 13.26 9.45
10/27/2021 1:45:00 AM 13.75 56.75 0.225 8.63 13.44 9.46
10/27/2021 2:00:00 AM 13.72 56.696 0.2 8.63 13.6 9.47
10/27/2021 2:15:00 AM 13.69 56.642 0.273 8.64 12.94 9.48
10/27/2021 2:30:00 AM 13.65 56.57 0.275 8.63 13.09 9.48
10/27/2021 2:45:00 AM 13.62 56.516 0.287 8.63 13.21 9.49
10/27/2021 3:00:00 AM 13.59 56.462 0.41 8.63 12.39 9.49
10/27/2021 3:15:00 AM 13.57 56.426 0.256 8.57 12.97 9.49
10/27/2021 3:30:00 AM 13.54 56.372 0.267 8.63 12.85 9.5
10/27/2021 3:45:00 AM 13.51 56.318 0.308 8.59 13.35 9.49
10/27/2021 4:00:00 AM 13.49 56.282 0.285 8.63 14.24 9.51
10/27/2021 4:15:00 AM 13.46 56.228 0.251 8.6 12.39 9.52
10/27/2021 4:30:00 AM 13.43 56.174 0.279 8.6 13.73 9.52
10/27/2021 4:45:00 AM 13.41 56.138 0.278 8.62 13.63 9.52
10/27/2021 5:00:00 AM 13.39 56.102 0.319 8.61 12.97 9.53
10/27/2021 5:15:00 AM 13.37 56.066 0.299 8.62 13.1 9.53
10/27/2021 5:30:00 AM 13.35 56.03 0.275 8.63 13.13 9.54
10/27/2021 5:45:00 AM 13.34 56.012 0.221 8.63 13.75 9.53
10/27/2021 6:00:00 AM 13.32 55.976 0.283 8.62 13.91 9.55
10/27/2021 6:15:00 AM 13.3 55.94 0.267 8.6 12.26 9.54
10/27/2021 6:30:00 AM 13.28 55.904 0.258 8.6 13.05 9.55
10/27/2021 6:45:00 AM 13.27 55.886 0.288 8.62 11.88 9.56
10/27/2021 7:00:00 AM 13.26 55.868 0.299 8.61 12.08 9.56
10/27/2021 7:15:00 AM 13.25 55.85 0.243 8.59 12.52 9.56
10/27/2021 7:30:00 AM 13.24 55.832 0.314 8.62 12.51 9.56
10/27/2021 7:45:00 AM 13.23 55.814 0.238 8.59 13.32 9.56
10/27/2021 8:00:00 AM 13.23 55.814 0.319 8.6 12.55 9.57
10/27/2021 8:15:00 AM 13.23 55.814 0.38 8.63 12.09 9.61
10/27/2021 8:30:00 AM 13.25 55.85 0.334 8.61 11.43 9.65
10/27/2021 8:45:00 AM 13.25 55.85 0.304 8.64 11.3 9.66
10/27/2021 9:00:00 AM 13.27 55.886 0.334 8.62 11.37 9.68
10/27/2021 9:15:00 AM 13.3 55.94 0.287 8.64 11.59 9.7
10/27/2021 9:30:00 AM 13.29 55.922 0.288 8.6 11.08 9.67
10/27/2021 9:45:00 AM 13.29 55.922 0.283 8.62 11.1 9.66
10/27/2021 10:00:00 AM 13.3 55.94 0.311 8.61 12.27 9.67
10/27/2021 10:15:00 AM 13.31 55.958 0.382 8.64 10.97 9.67
10/27/2021 10:30:00 AM 13.33 55.994 0.3 8.67 10.67 9.7
10/27/2021 10:45:00 AM 13.4 56.12 0.247 8.64 10.62 9.76
10/27/2021 11:00:00 AM 13.46 56.228 0.28 8.66 11.05 9.78
10/27/2021 11:15:00 AM 13.49 56.282 0.308 8.66 10.14 9.77
10/27/2021 11:30:00 AM 13.52 56.336 0.221 8.67 10.1 9.75
10/27/2021 11:45:00 AM 13.55 56.39 0.295 8.67 10.85 9.74
10/27/2021 12:00:00 PM 13.53 56.354 0.304 8.66 9.6 9.68
10/27/2021 12:15:00 PM 13.53 56.354 0.305 8.67 9.75 9.73
10/27/2021 12:30:00 PM 13.57 56.426 0.302 8.68 9.55 9.75
10/27/2021 12:45:00 PM 13.65 56.57 0.206 8.67 8.03 9.77
10/27/2021 1:00:00 PM 13.68 56.624 0.284 8.67 10.6 9.76
10/27/2021 1:15:00 PM 13.69 56.642 0.543 8.68 9.22 9.73
10/27/2021 1:30:00 PM 13.72 56.696 0.262 8.66 9.36 9.7
10/27/2021 1:45:00 PM 13.74 56.732 0.283 8.69 8.81 9.71
10/27/2021 2:00:00 PM 13.75 56.75 0.287 8.68 9.17 9.71
10/27/2021 2:15:00 PM 13.78 56.804 0.325 8.69 8.97 9.75
10/27/2021 2:30:00 PM 13.83 56.894 0.347 8.68 9.42 9.78
10/27/2021 2:45:00 PM 13.87 56.966 0.286 8.69 11.93 9.78
10/27/2021 3:00:00 PM 13.91 57.038 0.34 8.66 9.33 9.76
10/27/2021 3:15:00 PM 13.95 57.11 0.284 8.69 8.87 9.69
10/27/2021 3:30:00 PM 13.99 57.182 0.503 8.69 9.09 9.64
10/27/2021 3:45:00 PM 14.03 57.254 0.263 8.7 8.64 9.69
10/27/2021 4:00:00 PM 14.09 57.362 0.487 8.7 8.62 9.62
10/27/2021 4:15:00 PM 14.12 57.416 0.504 8.7 8.37 9.64
10/27/2021 4:30:00 PM 14.16 57.488 0.488 8.67 8.89 9.6
10/27/2021 4:45:00 PM 14.19 57.542 0.332 8.71 7.84 9.62
10/27/2021 5:00:00 PM 14.22 57.596 0.273 8.71 8.43 9.63
10/27/2021 5:15:00 PM 14.24 57.632 0.327 8.72 8.04 9.6
10/27/2021 5:30:00 PM 14.24 57.632 0.193 8.7 8.78 9.65
10/27/2021 5:45:00 PM 14.24 57.632 0.235 8.74 8.66 9.66
10/27/2021 6:00:00 PM 14.22 57.596 0.196 8.72 8.34 9.61
10/27/2021 6:15:00 PM 14.19 57.542 0.215 8.74 8.07 9.7
10/27/2021 6:30:00 PM 14.16 57.488 0.232 8.73 9.71 9.61
10/27/2021 6:45:00 PM 14.13 57.434 0.298 8.73 8.68 9.64
10/27/2021 7:00:00 PM 14.09 57.362 0.276 8.72 9.59 9.7
10/27/2021 7:15:00 PM 14.07 57.326 0.335 8.72 8.64 9.72
10/27/2021 7:30:00 PM 14.05 57.29 0.279 8.72 8.24 9.68
10/27/2021 7:45:00 PM 14.05 57.29 0.305 8.72 8.38 9.71
10/27/2021 8:00:00 PM 14.05 57.29 0.266 8.72 8.61 9.7
10/27/2021 8:15:00 PM 14.05 57.29 0.363 8.72 8.41 9.69
10/27/2021 8:30:00 PM 14.06 57.308 0.23 8.73 8.7 9.67
10/27/2021 8:45:00 PM 14.07 57.326 0.301 8.72 9.09 9.71
10/27/2021 9:00:00 PM 14.07 57.326 0.213 8.73 8.54 9.69
10/27/2021 9:15:00 PM 14.07 57.326 0.294 8.72 9.68 9.71
10/27/2021 9:30:00 PM 14.07 57.326 0.278 8.73 7.89 9.73
10/27/2021 9:45:00 PM 14.08 57.344 0.289 8.72 8.5 9.7
10/27/2021 10:00:00 PM 14.08 57.344 0.504 8.74 9.57 9.7
10/27/2021 10:15:00 PM 14.08 57.344 0.281 8.72 9.23 9.73
10/27/2021 10:30:00 PM 14.08 57.344 0.298 8.75 8.59 9.7
10/27/2021 10:45:00 PM 14.08 57.344 0.265 8.76 8.46 9.68
10/27/2021 11:00:00 PM 14.07 57.326 0.277 8.74 8.27 9.67
10/27/2021 11:15:00 PM 14.07 57.326 0.33 8.74 8.83 9.67
10/27/2021 11:30:00 PM 14.06 57.308 0.295 8.75 8.35 9.65
10/27/2021 11:45:00 PM 14.06 57.308 0.37 8.73 8.54 9.65
10/28/2021 12:00:00 AM 14.05 57.29 0.241 8.74 8.53 9.63
10/28/2021 12:15:00 AM 14.04 57.272 0.335 8.71 9.03 9.65
10/28/2021 12:30:00 AM 14.03 57.254 0.306 8.74 8.74 9.64
10/28/2021 12:45:00 AM 14.02 57.236 0.556 8.72 11.73 9.64
10/28/2021 1:00:00 AM 14 57.2 0.33 8.71 9.57 9.63
10/28/2021 1:15:00 AM 13.99 57.182 0.305 8.73 9.86 9.61
10/28/2021 1:30:00 AM 13.98 57.164 0.334 8.73 7.97 9.62
10/28/2021 1:45:00 AM 13.96 57.128 0.331 8.73 8.7 9.61
10/28/2021 2:00:00 AM 13.94 57.092 0.298 8.73 8.12 9.56
10/28/2021 2:15:00 AM 13.92 57.056 0.222 8.71 7.68 9.58
10/28/2021 2:30:00 AM 13.9 57.02 0.301 8.71 9.78 9.59
10/28/2021 2:45:00 AM 13.88 56.984 0.506 8.71 8.63 9.58
10/28/2021 3:00:00 AM 13.85 56.93 0.223 8.71 9.65 9.59
10/28/2021 3:15:00 AM 13.82 56.876 0.304 8.72 9.01 9.54
10/28/2021 3:30:00 AM 13.79 56.822 0.56 8.71 7.73 9.59
10/28/2021 3:45:00 AM 13.77 56.786 0.505 8.72 7.89 9.54
10/28/2021 4:00:00 AM 13.74 56.732 0.303 8.7 7.87 9.54
10/28/2021 4:15:00 AM 13.71 56.678 0.224 8.71 8.04 9.51
10/28/2021 4:30:00 AM 13.68 56.624 0.22 8.71 8.93 9.56
10/28/2021 4:45:00 AM 13.65 56.57 0.558 8.71 7.86 9.55
10/28/2021 5:00:00 AM 13.63 56.534 0.291 8.69 7.99 9.53
10/28/2021 5:15:00 AM 13.59 56.462 0.178 8.68 9.13 9.52
10/28/2021 5:30:00 AM 13.56 56.408 0.27 8.69 8.15 9.58
10/28/2021 5:45:00 AM 13.53 56.354 0.281 8.67 9.01 9.54
10/28/2021 6:00:00 AM 13.49 56.282 0.329 8.69 8.16 9.55
10/28/2021 6:15:00 AM 13.46 56.228 0.302 8.68 7.78 9.58
10/28/2021 6:30:00 AM 13.42 56.156 0.325 8.68 9.05 9.58
10/28/2021 6:45:00 AM 13.39 56.102 0.304 8.68 9.02 9.54
10/28/2021 7:00:00 AM 13.35 56.03 0.22 8.67 7.79 9.59
10/28/2021 7:15:00 AM 13.32 55.976 0.317 8.67 8.02 9.58
10/28/2021 7:30:00 AM 13.28 55.904 0.325 8.67 8.96 9.59
10/28/2021 7:45:00 AM 13.25 55.85 0.302 8.67 8.04 9.62
10/28/2021 8:00:00 AM 13.22 55.796 0.279 8.66 7.92 9.63
10/28/2021 8:15:00 AM 13.19 55.742 0.325 8.67 7.43 9.61
10/28/2021 8:30:00 AM 13.17 55.706 0.255 8.67 7.33 9.62
10/28/2021 8:45:00 AM 13.15 55.67 0.223 8.68 7.22 9.67
10/28/2021 9:00:00 AM 13.15 55.67 0.167 8.64 7.91 9.69
10/28/2021 9:15:00 AM 13.15 55.67 0.322 8.71 7.38 9.76
10/28/2021 9:30:00 AM 13.15 55.67 0.195 8.67 7.34 9.77
10/28/2021 9:45:00 AM 13.15 55.67 0.338 8.7 7.52 9.83
10/28/2021 10:00:00 AM 13.15 55.67 0.553 8.71 7.58 9.84
10/28/2021 10:15:00 AM 13.16 55.688 0.328 8.71 7.19 9.86
10/28/2021 10:30:00 AM 13.16 55.688 0.315 8.7 7.24 9.9
10/28/2021 10:45:00 AM 13.17 55.706 0.324 8.73 7.21 9.92
10/28/2021 11:00:00 AM 13.19 55.742 0.319 8.7 7.66 9.93
10/28/2021 11:15:00 AM 13.2 55.76 0.297 8.71 7.55 9.93
10/28/2021 11:30:00 AM 13.22 55.796 0.326 8.7 7.69 9.96
10/28/2021 11:45:00 AM 13.22 55.796 0.549 8.71 7.26 9.93
10/28/2021 12:00:00 PM 13.24 55.832 0.494 8.7 7.12 9.95
10/28/2021 12:15:00 PM 13.24 55.832 0.287 8.71 8.52 9.96
10/28/2021 12:30:00 PM 13.25 55.85 0.252 8.7 8.46 9.93
10/28/2021 12:45:00 PM 13.27 55.886 0.323 8.74 7.47 9.96
10/28/2021 1:00:00 PM 13.26 55.868 0.265 8.7 7.74 9.95
10/28/2021 1:15:00 PM 13.25 55.85 0.314 8.71 7.21 9.96
10/28/2021 1:30:00 PM 13.26 55.868 0.394 8.7 6.87 9.94
10/28/2021 1:45:00 PM 13.27 55.886 0.321 8.75 6.88 9.97
10/28/2021 2:00:00 PM 13.26 55.868 0.545 8.72 6.63 9.95
10/28/2021 2:15:00 PM 13.22 55.796 0.341 8.67 7.3 9.91
10/28/2021 2:30:00 PM 13.21 55.778 0.275 8.72 7.1 9.93
10/28/2021 2:45:00 PM 13.22 55.796 0.362 8.72 7 9.95
10/28/2021 3:00:00 PM 13.24 55.832 0.295 8.71 6.8 9.95
10/28/2021 3:15:00 PM 13.27 55.886 0.282 8.68 6.79 9.93
10/28/2021 3:30:00 PM 13.29 55.922 0.28 8.74 6.66 9.94
10/28/2021 3:45:00 PM 13.3 55.94 0.268 8.73 6.84 9.89
10/28/2021 4:00:00 PM 13.33 55.994 0.277 8.71 6.77 9.85
10/28/2021 4:15:00 PM 13.35 56.03 0.263 8.72 6.82 9.85
10/28/2021 4:30:00 PM 13.36 56.048 0.223 8.73 6.89 9.89
10/28/2021 4:45:00 PM 13.37 56.066 0.5 8.75 6.64 9.88
10/28/2021 5:00:00 PM 13.39 56.102 0.5 8.72 6.63 9.88
10/28/2021 5:15:00 PM 13.42 56.156 0.294 8.75 6.82 9.92
10/28/2021 5:30:00 PM 13.44 56.192 0.277 8.73 7.02 9.93
10/28/2021 5:45:00 PM 13.45 56.21 0.324 8.76 6.8 9.88
10/28/2021 6:00:00 PM 13.44 56.192 0.329 8.74 6.75 9.87
10/28/2021 6:15:00 PM 13.44 56.192 0.559 8.73 6.24 9.85
10/28/2021 6:30:00 PM 13.43 56.174 0.507 8.73 6.42 9.85
10/28/2021 6:45:00 PM 13.42 56.156 0.199 8.74 6.48 9.87
10/28/2021 7:00:00 PM 13.4 56.12 0.342 8.77 6.74 9.89
10/28/2021 7:15:00 PM 13.39 56.102 0.217 8.75 6.73 9.91
10/28/2021 7:30:00 PM 13.37 56.066 0.319 8.75 6.71 9.92
10/28/2021 7:45:00 PM 13.37 56.066 0.292 8.75 6.67 9.92
10/28/2021 8:00:00 PM 13.36 56.048 0.352 8.75 7.1 9.9
10/28/2021 8:15:00 PM 13.37 56.066 0.293 8.77 6.32 9.94
10/28/2021 8:30:00 PM 13.39 56.102 0.353 8.75 6.59 9.95
10/28/2021 8:45:00 PM 13.4 56.12 0.243 8.77 7.14 9.95
10/28/2021 9:00:00 PM 13.42 56.156 0.277 8.78 6.28 9.94
10/28/2021 9:15:00 PM 13.44 56.192 0.302 8.79 6.33 9.96
10/28/2021 9:30:00 PM 13.47 56.246 0.303 8.77 6.51 9.96
10/28/2021 9:45:00 PM 13.5 56.3 0.235 8.8 7.06 9.98
10/28/2021 10:00:00 PM 13.52 56.336 0.319 8.81 6.51 9.98
10/28/2021 10:15:00 PM 13.55 56.39 0.524 8.8 6.13 9.98
10/28/2021 10:30:00 PM 13.58 56.444 0.208 8.79 6.46 9.99
10/28/2021 10:45:00 PM 13.61 56.498 0.325 8.76 7.91 10
10/28/2021 11:00:00 PM 13.64 56.552 0.299 8.85 6.98 9.96
10/28/2021 11:15:00 PM 13.66 56.588 0.529 8.82 6.4 10
10/28/2021 11:30:00 PM 13.68 56.624 0.514 8.8 7.07 9.97
10/28/2021 11:45:00 PM 13.7 56.66 0.336 8.83 7.01 9.97
10/29/2021 12:00:00 AM 13.72 56.696 0.301 8.77 6.74 9.96
10/29/2021 12:15:00 AM 13.74 56.732 0.236 8.83 6.49 9.95
10/29/2021 12:30:00 AM 13.75 56.75 0.293 8.83 6.71 9.89
10/29/2021 12:45:00 AM 13.76 56.768 0.536 8.83 6.48 9.91
10/29/2021 1:00:00 AM 13.77 56.786 0.222 8.82 6.8 9.87
10/29/2021 1:15:00 AM 13.77 56.786 0.362 8.83 6.52 9.89
10/29/2021 1:30:00 AM 13.77 56.786 0.337 8.82 6.6 9.85
10/29/2021 1:45:00 AM 13.78 56.804 0.325 8.84 6.66 9.84
10/29/2021 2:00:00 AM 13.78 56.804 0.304 8.82 6.51 9.86
10/29/2021 2:15:00 AM 13.78 56.804 0.305 8.82 6.75 9.86
10/29/2021 2:30:00 AM 13.77 56.786 0.523 8.83 6.12 9.84
10/29/2021 2:45:00 AM 13.77 56.786 0.317 8.82 7.14 9.77
10/29/2021 3:00:00 AM 13.77 56.786 0.298 8.84 7.59 9.79
10/29/2021 3:15:00 AM 13.76 56.768 0.242 8.83 6.48 9.78
10/29/2021 3:30:00 AM 13.75 56.75 0.257 8.81 6.48 9.76
10/29/2021 3:45:00 AM 13.74 56.732 0.243 8.81 7.19 9.75
10/29/2021 4:00:00 AM 13.73 56.714 0.336 8.82 6.57 9.76
10/29/2021 4:15:00 AM 13.72 56.696 0.336 8.81 6.51 9.74
10/29/2021 4:30:00 AM 13.71 56.678 0.341 8.8 6.83 9.73
10/29/2021 4:45:00 AM 13.69 56.642 0.33 8.81 7.41 9.68
10/29/2021 5:00:00 AM 13.68 56.624 0.526 8.79 7 9.7
10/29/2021 5:15:00 AM 13.67 56.606 0.27 8.77 6.89 9.68
10/29/2021 5:30:00 AM 13.66 56.588 0.278 8.76 6.98 9.68
10/29/2021 5:45:00 AM 13.64 56.552 0.267 8.78 6.9 9.66
10/29/2021 6:00:00 AM 13.63 56.534 0.308 8.77 6.8 9.63
10/29/2021 6:15:00 AM 13.61 56.498 0.234 8.76 6.7 9.57
10/29/2021 6:30:00 AM 13.6 56.48 0.527 8.77 6.31 9.62
10/29/2021 6:45:00 AM 13.58 56.444 0.279 8.77 6.58 9.62
10/29/2021 7:00:00 AM 13.57 56.426 0.256 8.77 6.9 9.6
10/29/2021 7:15:00 AM 13.55 56.39 0.266 8.76 7.07 9.56
10/29/2021 7:30:00 AM 13.53 56.354 0.354 8.75 6.75 9.57
10/29/2021 7:45:00 AM 13.51 56.318 0.339 8.76 6.85 9.59
10/29/2021 8:00:00 AM 13.49 56.282 0.306 8.75 6.72 9.57
10/29/2021 8:15:00 AM 13.47 56.246 0.351 8.78 6.45 9.6
10/29/2021 8:30:00 AM 13.45 56.21 0.532 8.76 6.61 9.59
10/29/2021 8:45:00 AM 13.45 56.21 0.284 8.76 6.88 9.62
10/29/2021 9:00:00 AM 13.44 56.192 0.235 8.74 6.68 9.6
10/29/2021 9:15:00 AM 13.43 56.174 0.376 8.78 6.38 9.69
10/29/2021 9:30:00 AM 13.42 56.156 0.265 8.77 6.56 9.7
10/29/2021 9:45:00 AM 13.42 56.156 0.33 8.77 6.74 9.72
10/29/2021 10:00:00 AM 13.41 56.138 0.234 8.76 6.74 9.67
10/29/2021 10:15:00 AM 13.39 56.102 0.282 8.74 6.99 9.66
10/29/2021 10:30:00 AM 13.39 56.102 0.555 8.77 6.61 9.71
10/29/2021 10:45:00 AM 13.37 56.066 0.538 8.77 6.97 9.69
10/29/2021 11:00:00 AM 13.36 56.048 0.539 8.76 6.89 9.64
10/29/2021 11:15:00 AM 13.36 56.048 0.36 8.76 6.25 9.71
10/29/2021 11:30:00 AM 13.38 56.084 0.359 8.74 6.66 9.78
10/29/2021 11:45:00 AM 13.38 56.084 0.316 8.74 6.82 9.75
10/29/2021 12:00:00 PM 13.37 56.066 0.356 8.78 6.55 9.74
10/29/2021 12:15:00 PM 13.35 56.03 0.258 8.76 6.57 9.66
10/29/2021 12:30:00 PM 13.35 56.03 0.295 8.79 6.92 9.67
10/29/2021 12:45:00 PM 13.35 56.03 0.282 8.78 8.46 9.77
10/29/2021 1:00:00 PM 13.39 56.102 0.263 8.78 6.58 9.81
10/29/2021 1:15:00 PM 13.38 56.084 0.24 8.78 6.43 9.76
10/29/2021 1:30:00 PM 13.38 56.084 0.358 8.78 6.3 9.78
10/29/2021 1:45:00 PM 13.36 56.048 0.543 8.79 6.52 9.73
10/29/2021 2:00:00 PM 13.33 55.994 0.347 8.77 6.4 9.7
10/29/2021 2:15:00 PM 13.3 55.94 0.318 8.77 7.19 9.7
10/29/2021 2:30:00 PM 13.29 55.922 0.328 8.78 7.12 9.74
10/29/2021 2:45:00 PM 13.27 55.886 0.245 8.78 6.9 9.76
10/29/2021 3:00:00 PM 13.26 55.868 0.344 8.78 6.77 9.74
10/29/2021 3:15:00 PM 13.24 55.832 0.269 8.78 6.52 9.71
10/29/2021 3:30:00 PM 13.23 55.814 0.344 8.78 6.27 9.7
10/29/2021 3:45:00 PM 13.21 55.778 0.358 8.78 6.54 9.67
10/29/2021 4:00:00 PM 13.19 55.742 0.316 8.76 7.27 9.67
10/29/2021 4:15:00 PM 13.16 55.688 0.349 8.82 7.47 9.71
10/29/2021 4:30:00 PM 13.14 55.652 0.372 8.81 6.89 9.7
10/29/2021 4:45:00 PM 13.13 55.634 0.318 8.78 6.72 9.68
10/29/2021 5:00:00 PM 13.1 55.58 0.337 8.81 7.75 9.72
10/29/2021 5:15:00 PM 13.1 55.58 0.329 8.78 8.83 9.76
10/29/2021 5:30:00 PM 13.08 55.544 0.244 8.79 7.93 9.78
10/29/2021 5:45:00 PM 13.05 55.49 0.299 8.78 8.27 9.77
10/29/2021 6:00:00 PM 13.02 55.436 0.321 8.8 7.41 9.79
10/29/2021 6:15:00 PM 13 55.4 0.31 8.78 7.84 9.84
10/29/2021 6:30:00 PM 12.97 55.346 0.311 8.78 7.55 9.89
10/29/2021 6:45:00 PM 12.95 55.31 0.257 8.8 7.82 9.92
10/29/2021 7:00:00 PM 12.95 55.31 0.312 8.8 7.57 9.95
10/29/2021 7:15:00 PM 12.94 55.292 0.332 8.79 7.97 9.95
10/29/2021 7:30:00 PM 12.93 55.274 0.364 8.85 7.67 9.94
10/29/2021 7:45:00 PM 12.93 55.274 0.364 8.82 7.22 10
10/29/2021 8:00:00 PM 12.94 55.292 0.352 8.83 8 10.01
10/29/2021 8:15:00 PM 12.95 55.31 0.3 8.86 7.9 10.01
10/29/2021 8:30:00 PM 12.95 55.31 0.313 8.83 8.19 10.04
10/29/2021 8:45:00 PM 12.95 55.31 0.207 8.83 8.2 10.03
10/29/2021 9:00:00 PM 12.95 55.31 0.241 8.83 8.68 10.08
10/29/2021 9:15:00 PM 12.94 55.292 0.296 8.85 9.79 10.07
10/29/2021 9:30:00 PM 12.93 55.274 0.25 8.81 10.15 10.05
10/29/2021 9:45:00 PM 12.92 55.256 0.33 8.76 13.32 10
10/29/2021 10:00:00 PM 12.92 55.256 0.324 8.76 13.02 10.01
10/29/2021 10:15:00 PM 12.94 55.292 0.506 8.72 14.28 9.99
10/29/2021 10:30:00 PM 12.94 55.292 0.294 8.69 13.92 9.99
10/29/2021 10:45:00 PM 12.92 55.256 0.251 8.68 13.74 9.97
10/29/2021 11:00:00 PM 12.9 55.22 0.526 8.67 13.95 9.98
10/29/2021 11:15:00 PM 12.88 55.184 0.196 8.65 17.59 10
10/29/2021 11:30:00 PM 12.83 55.094 0.281 8.65 17.41 10.02
10/29/2021 11:45:00 PM 12.78 55.004 0.221 8.63 26.15 10.04
10/30/2021 12:00:00 AM 12.75 54.95 0.211 8.52 45.94 10.04
10/30/2021 12:15:00 AM 12.75 54.95 0.265 8.53 37.47 10.04
10/30/2021 12:30:00 AM 12.75 54.95 0.192 8.57 46.31 10.05
10/30/2021 12:45:00 AM 12.76 54.968 0.219 8.61 49.43 10.05
10/30/2021 1:00:00 AM 12.8 55.04 0.255 8.6 54.03 10.05
10/30/2021 1:15:00 AM 12.83 55.094 0.226 8.58 64.92 10.02
10/30/2021 1:30:00 AM 12.87 55.166 0.272 8.6 115.2 10.02
10/30/2021 1:45:00 AM 12.89 55.202 0.282 8.55 73.57 10.01
10/30/2021 2:00:00 AM 12.88 55.184 0.232 8.52 100.17 10
10/30/2021 2:15:00 AM 12.86 55.148 0.239 8.43 102.91 10.01
10/30/2021 2:30:00 AM 12.81 55.058 0.194 8.47 108.9 10.03
10/30/2021 2:45:00 AM 12.77 54.986 0.216 8.43 163.84 10.06
10/30/2021 3:00:00 AM 12.75 54.95 0.167 8.43 156.67 10.05
10/30/2021 3:15:00 AM 12.72 54.896 0.266 8.44 107.05 10.06
10/30/2021 3:30:00 AM 12.69 54.842 0.207 8.44 105.23 10.07
10/30/2021 3:45:00 AM 12.66 54.788 0.209 8.36 148.45 10.08
10/30/2021 4:00:00 AM 12.64 54.752 0.207 8.42 142.24 10.08
10/30/2021 4:15:00 AM 12.62 54.716 0.161 8.38 122.18 10.08
10/30/2021 4:30:00 AM 12.61 54.698 0.193 8.4 114.89 10.09
10/30/2021 4:45:00 AM 12.59 54.662 0.255 8.39 151.36 10.07
10/30/2021 5:00:00 AM 12.58 54.644 0.199 8.39 148.91 10.07
10/30/2021 5:15:00 AM 12.57 54.626 0.212 8.35 117.03 10.06
10/30/2021 5:30:00 AM 12.56 54.608 0.193 8.34 116.15 10.05
10/30/2021 5:45:00 AM 12.55 54.59 0.195 8.38 108.92 10.05
10/30/2021 6:00:00 AM 12.55 54.59 0.215 8.32 119.84 10.05
10/30/2021 6:15:00 AM 12.55 54.59 0.257 8.38 113.19 10.05
10/30/2021 6:30:00 AM 12.54 54.572 0.216 8.33 102.47 10.06
10/30/2021 6:45:00 AM 12.54 54.572 0.203 8.37 89.53 10.06
10/30/2021 7:00:00 AM 12.54 54.572 0.211 8.37 103.69 10.06
10/30/2021 7:15:00 AM 12.54 54.572 0.156 8.34 85.3 10.06
10/30/2021 7:30:00 AM 12.54 54.572 0.253 8.38 83.95 10.06
10/30/2021 7:45:00 AM 12.55 54.59 0.185 8.32 83.08 10.07
10/30/2021 8:00:00 AM 12.55 54.59 0.216 8.3 87.36 10.07
10/30/2021 8:15:00 AM 12.55 54.59 0.201 8.32 84.54 10.07
10/30/2021 8:30:00 AM 12.55 54.59 0.217 8.31 82.45 10.09
10/30/2021 8:45:00 AM 12.56 54.608 0.214 8.27 77.66 10.09
10/30/2021 9:00:00 AM 12.56 54.608 0.26 8.38 90.67 10.09
10/30/2021 9:15:00 AM 12.57 54.626 0.263 8.35 75.37 10.1
10/30/2021 9:30:00 AM 12.58 54.644 0.191 8.32 64.85 10.11
10/30/2021 9:45:00 AM 12.59 54.662 0.217 8.28 80.43 10.11
10/30/2021 10:00:00 AM 12.6 54.68 0.27 8.33 70.18 10.12
10/30/2021 10:15:00 AM 12.61 54.698 0.221 8.29 66.88 10.12
10/30/2021 10:30:00 AM 12.63 54.734 0.216 8.34 59.82 10.11
10/30/2021 10:45:00 AM 12.66 54.788 0.169 8.35 55.98 10.1
10/30/2021 11:00:00 AM 12.68 54.824 0.195 8.34 65.61 10.1
10/30/2021 11:15:00 AM 12.73 54.914 0.213 8.35 57.34 10.08
10/30/2021 11:30:00 AM 12.75 54.95 0.197 8.32 52.11 10.08
10/30/2021 11:45:00 AM 12.78 55.004 0.185 8.35 61.91 10.08
10/30/2021 12:00:00 PM 12.81 55.058 0.189 8.35 49.07 10.08
10/30/2021 12:15:00 PM 12.85 55.13 0.19 8.36 58.61 10.07
10/30/2021 12:30:00 PM 12.89 55.202 0.181 8.35 52.28 10.06
10/30/2021 12:45:00 PM 12.93 55.274 0.203 8.36 40.13 10.06
10/30/2021 1:00:00 PM 12.97 55.346 0.229 8.3 74.34 10.05
10/30/2021 1:15:00 PM 13 55.4 0.198 8.36 43.18 10.04
10/30/2021 1:30:00 PM 13.05 55.49 0.202 8.33 52.49 10.04
10/30/2021 1:45:00 PM 13.09 55.562 0.226 8.37 35.86 10.03
10/30/2021 2:00:00 PM 13.14 55.652 0.183 8.39 40.63 10.02
10/30/2021 2:15:00 PM 13.2 55.76 0.23 8.37 40.65 10.02
10/30/2021 2:30:00 PM 13.27 55.886 0.212 8.37 33.88 10.01
10/30/2021 2:45:00 PM 13.3 55.94 0.215 8.38 42.77 10
10/30/2021 3:00:00 PM 13.35 56.03 0.199 8.45 34.7 10.01
10/30/2021 3:15:00 PM 13.37 56.066 0.224 8.42 35.04 10
10/30/2021 3:30:00 PM 13.4 56.12 0.2 8.41 40.21 10
10/30/2021 3:45:00 PM 13.43 56.174 0.196 8.42 32.29 9.99
10/30/2021 4:00:00 PM 13.45 56.21 0.223 8.43 29.78 9.99
10/30/2021 4:15:00 PM 13.47 56.246 0.196 8.42 32.55 9.98
10/30/2021 4:30:00 PM 13.48 56.264 0.191 8.42 33.39 9.98
10/30/2021 4:45:00 PM 13.49 56.282 0.201 8.44 26.79 9.97
10/30/2021 5:00:00 PM 13.5 56.3 0.227 8.43 30.22 9.97
10/30/2021 5:15:00 PM 13.51 56.318 0.229 8.44 33.3 9.97
10/30/2021 5:30:00 PM 13.52 56.336 0.233 8.44 36 9.96
10/30/2021 5:45:00 PM 13.53 56.354 0.229 8.43 25.61 9.96
10/30/2021 6:00:00 PM 13.55 56.39 0.223 8.43 25.02 9.95
10/30/2021 6:15:00 PM 13.56 56.408 0.229 8.44 24.67 9.95
10/30/2021 6:30:00 PM 13.58 56.444 0.225 8.43 24.22 9.95
10/30/2021 6:45:00 PM 13.59 56.462 0.226 8.43 21.83 9.95
10/30/2021 7:00:00 PM 13.6 56.48 0.309 8.46 21.65 9.93
10/30/2021 7:15:00 PM 13.6 56.48 0.232 8.48 25.5 9.94
10/30/2021 7:30:00 PM 13.61 56.498 0.312 8.46 20.27 9.94
10/30/2021 7:45:00 PM 13.61 56.498 0.262 8.45 22.67 9.93
10/30/2021 8:00:00 PM 13.61 56.498 0.237 8.45 18.17 9.93
10/30/2021 8:15:00 PM 13.61 56.498 0.217 8.46 20.4 9.92
10/30/2021 8:30:00 PM 13.61 56.498 0.192 8.45 17.59 9.92
10/30/2021 8:45:00 PM 13.6 56.48 0.241 8.49 17.93 9.92
10/30/2021 9:00:00 PM 13.6 56.48 0.191 8.45 19.75 9.92
10/30/2021 9:15:00 PM 13.59 56.462 0.24 8.43 17.32 9.92
10/30/2021 9:30:00 PM 13.59 56.462 0.235 8.45 17.21 9.91
10/30/2021 9:45:00 PM 13.58 56.444 0.274 8.45 16.24 9.91
10/30/2021 10:00:00 PM 13.58 56.444 0.246 8.47 18.65 9.91
10/30/2021 10:15:00 PM 13.58 56.444 0.249 8.51 17.36 9.91
10/30/2021 10:30:00 PM 13.58 56.444 0.233 8.44 16.68 9.9
10/30/2021 10:45:00 PM 13.58 56.444 0.276 8.45 15.87 9.91
10/30/2021 11:00:00 PM 13.57 56.426 0.266 8.48 14.66 9.9
10/30/2021 11:15:00 PM 13.57 56.426 0.261 8.47 15.93 9.9
10/30/2021 11:30:00 PM 13.56 56.408 0.334 8.49 16.86 9.88
10/30/2021 11:45:00 PM 13.56 56.408 0.336 8.52 21.03 9.89
10/31/2021 12:00:00 AM 13.55 56.39 0.257 8.49 14.82 9.89
10/31/2021 12:15:00 AM 13.54 56.372 0.236 8.46 14.72 9.88
10/31/2021 12:30:00 AM 13.53 56.354 0.221 8.5 15.63 9.89
10/31/2021 12:45:00 AM 13.52 56.336 0.225 8.5 13.56 9.89
10/31/2021 1:00:00 AM 13.51 56.318 0.279 8.5 13.01 9.89
10/31/2021 1:15:00 AM 13.49 56.282 0.28 8.49 14.77 9.88
10/31/2021 1:30:00 AM 13.48 56.264 0.264 8.51 17.23 9.88
10/31/2021 1:45:00 AM 13.46 56.228 0.257 8.54 15.71 9.89
10/31/2021 2:00:00 AM 13.44 56.192 0.248 8.5 12.66 9.9
10/31/2021 2:15:00 AM 13.42 56.156 0.285 8.48 14.14 9.89
10/31/2021 2:30:00 AM 13.4 56.12 0.285 8.47 14.22 9.89
10/31/2021 2:45:00 AM 13.37 56.066 0.351 8.5 13.98 9.89
10/31/2021 3:00:00 AM 13.35 56.03 0.263 8.5 13.1 9.9
10/31/2021 3:15:00 AM 13.32 55.976 0.351 8.52 12.46 9.9
10/31/2021 3:30:00 AM 13.29 55.922 0.281 8.51 13.48 9.92
10/31/2021 3:45:00 AM 13.27 55.886 0.282 8.51 12.19 9.91
10/31/2021 4:00:00 AM 13.24 55.832 0.249 8.5 12.59 9.92
10/31/2021 4:15:00 AM 13.22 55.796 0.294 8.46 11.55 9.92
10/31/2021 4:30:00 AM 13.2 55.76 0.269 8.5 13.94 9.93
10/31/2021 4:45:00 AM 13.18 55.724 0.273 8.51 12.85 9.94
10/31/2021 5:00:00 AM 13.16 55.688 0.261 8.49 12.35 9.95
10/31/2021 5:15:00 AM 13.14 55.652 0.302 8.53 12.17 9.94
10/31/2021 5:30:00 AM 13.11 55.598 0.281 8.52 13.24 9.95
10/31/2021 5:45:00 AM 13.09 55.562 0.306 8.49 12.82 9.95
10/31/2021 6:00:00 AM 13.07 55.526 0.264 8.52 12.32 9.95
10/31/2021 6:15:00 AM 13.05 55.49 0.307 8.52 13.17 9.96
10/31/2021 6:30:00 AM 13.03 55.454 0.293 8.54 13.09 9.97
10/31/2021 6:45:00 AM 13 55.4 0.221 8.51 12.49 9.97
10/31/2021 7:00:00 AM 12.98 55.364 0.301 8.52 13.48 9.97
10/31/2021 7:15:00 AM 12.96 55.328 0.304 8.56 12.72 9.98
10/31/2021 7:30:00 AM 12.94 55.292 0.276 8.53 13.27 9.99
10/31/2021 7:45:00 AM 12.93 55.274 0.322 8.51 13.31 9.99
10/31/2021 8:00:00 AM 12.92 55.256 0.26 8.55 13.24 9.99
10/31/2021 8:15:00 AM 12.91 55.238 0.318 8.55 13.25 10
10/31/2021 8:30:00 AM 12.91 55.238 0.319 8.56 13.3 10.03
10/31/2021 8:45:00 AM 12.9 55.22 0.293 8.56 12.63 10.03
10/31/2021 9:00:00 AM 12.89 55.202 0.299 8.58 12.71 10.02
10/31/2021 9:15:00 AM 12.89 55.202 0.316 8.54 11.25 10.03
10/31/2021 9:30:00 AM 12.88 55.184 0.38 8.56 11.76 10.02
10/31/2021 9:45:00 AM 12.88 55.184 0.381 8.56 12.1 10.03
10/31/2021 10:00:00 AM 12.87 55.166 0.381 8.55 12.45 10.03
10/31/2021 10:15:00 AM 12.87 55.166 0.302 8.56 12.26 10.03
10/31/2021 10:30:00 AM 12.86 55.148 0.238 8.56 12.48 10.03
10/31/2021 10:45:00 AM 12.86 55.148 0.311 8.59 11.88 10.04
10/31/2021 11:00:00 AM 12.87 55.166 0.382 8.57 11.61 10.05
10/31/2021 11:15:00 AM 12.89 55.202 0.311 8.61 12.21 10.08
10/31/2021 11:30:00 AM 12.91 55.238 0.32 8.59 11.28 10.07
10/31/2021 11:45:00 AM 12.94 55.292 0.295 8.58 11.32 10.09
10/31/2021 12:00:00 PM 12.95 55.31 0.3 8.57 11.49 10.08
10/31/2021 12:15:00 PM 13.01 55.418 0.388 8.6 10.97 10.1
10/31/2021 12:30:00 PM 13.03 55.454 0.297 8.6 11.92 10.1
10/31/2021 12:45:00 PM 13.05 55.49 0.23 8.59 10.98 10.08
10/31/2021 1:00:00 PM 13.13 55.634 0.196 8.61 10.62 10.1
10/31/2021 1:15:00 PM 13.12 55.616 0.307 8.58 10.84 10.08
10/31/2021 1:30:00 PM 13.14 55.652 0.265 8.61 11.3 10.08
10/31/2021 1:45:00 PM 13.15 55.67 0.303 8.57 10.94 10.07
10/31/2021 2:00:00 PM 13.18 55.724 0.305 8.62 11.55 10.08
10/31/2021 2:15:00 PM 13.22 55.796 0.391 8.61 10.3 10.09
10/31/2021 2:30:00 PM 13.22 55.796 0.313 8.61 10.28 10.08
10/31/2021 2:45:00 PM 13.28 55.904 0.269 8.63 10.29 10.13
10/31/2021 3:00:00 PM 13.28 55.904 0.298 8.64 10.34 10.1
10/31/2021 3:15:00 PM 13.3 55.94 0.302 8.61 10.24 10.09
10/31/2021 3:30:00 PM 13.33 55.994 0.271 8.64 10.48 10.13
10/31/2021 3:45:00 PM 13.35 56.03 0.302 8.62 9.97 10.11
10/31/2021 4:00:00 PM 13.38 56.084 0.386 8.66 9.79 10.12
10/31/2021 4:15:00 PM 13.39 56.102 0.278 8.66 9.8 10.12
10/31/2021 4:30:00 PM 13.4 56.12 0.307 8.64 9.67 10.13
10/31/2021 4:45:00 PM 13.4 56.12 0.214 8.66 9.7 10.12
10/31/2021 5:00:00 PM 13.4 56.12 0.271 8.63 9.43 10.12
10/31/2021 5:15:00 PM 13.4 56.12 0.261 8.66 9.32 10.12
10/31/2021 5:30:00 PM 13.41 56.138 0.315 8.64 9.49 10.12
10/31/2021 5:45:00 PM 13.41 56.138 0.187 8.65 10.03 10.12
10/31/2021 6:00:00 PM 13.4 56.12 0.26 8.64 9.63 10.11
10/31/2021 6:15:00 PM 13.39 56.102 0.265 8.66 9.04 10.11
10/31/2021 6:30:00 PM 13.39 56.102 0.305 8.69 9.96 10.13
10/31/2021 6:45:00 PM 13.39 56.102 0.195 8.66 13.13 10.13
10/31/2021 7:00:00 PM 13.38 56.084 0.284 8.65 8.83 10.11
10/31/2021 7:15:00 PM 13.37 56.066 0.391 8.67 9.87 10.12
10/31/2021 7:30:00 PM 13.37 56.066 0.307 8.66 11.04 10.12
10/31/2021 7:45:00 PM 13.36 56.048 0.266 8.67 8.98 10.12
10/31/2021 8:00:00 PM 13.35 56.03 0.321 8.66 8.27 10.13
10/31/2021 8:15:00 PM 13.34 56.012 0.223 8.67 9.07 10.12
10/31/2021 8:30:00 PM 13.33 55.994 0.268 8.63 9.99 10.11
10/31/2021 8:45:00 PM 13.31 55.958 0.279 8.68 8.52 10.12
10/31/2021 9:00:00 PM 13.3 55.94 0.392 8.68 9.57 10.11
10/31/2021 9:15:00 PM 13.28 55.904 0.258 8.66 9.13 10.11
10/31/2021 9:30:00 PM 13.26 55.868 0.394 8.66 8.57 10.1
10/31/2021 9:45:00 PM 13.24 55.832 0.276 8.67 9.85 10.1
10/31/2021 10:00:00 PM 13.22 55.796 0.394 8.66 8.58 10.1
10/31/2021 10:15:00 PM 13.2 55.76 0.306 8.7 10.76 10.1
10/31/2021 10:30:00 PM 13.18 55.724 0.207 8.65 8.93 10.08
10/31/2021 10:45:00 PM 13.15 55.67 0.281 8.63 8.65 10.1
10/31/2021 11:00:00 PM 13.13 55.634 0.256 8.65 8.65 10.1
10/31/2021 11:15:00 PM 13.11 55.598 0.286 8.64 8.82 10.08
10/31/2021 11:30:00 PM 13.08 55.544 0.233 8.65 8.68 10.09
10/31/2021 11:45:00 PM 13.07 55.526 0.235 8.63 8.8 10.09
11/1/2021 12:00:00 AM 13.04 55.472 0.263 8.64 8.22 10.08
11/1/2021 12:15:00 AM 13.02 55.436 0.255 8.65 7.85 10.08
11/1/2021 12:30:00 AM 13 55.4 0.388 8.65 7.83 10.08
11/1/2021 12:45:00 AM 12.98 55.364 0.16 8.63 9.55 10.08
11/1/2021 1:00:00 AM 12.95 55.31 0.305 8.63 8.73 10.09
11/1/2021 1:15:00 AM 12.93 55.274 0.269 8.63 8.65 10.09
11/1/2021 1:30:00 AM 12.91 55.238 0.275 8.67 8.75 10.09
11/1/2021 1:45:00 AM 12.9 55.22 0.311 8.63 7.89 10.08
11/1/2021 2:00:00 AM 12.88 55.184 0.266 8.66 7.6 10.09
11/1/2021 2:15:00 AM 12.86 55.148 0.214 8.65 8.54 10.09
11/1/2021 2:30:00 AM 12.85 55.13 0.39 8.63 8.5 10.1
11/1/2021 2:45:00 AM 12.84 55.112 0.27 8.64 8.98 10.09
11/1/2021 3:00:00 AM 12.83 55.094 0.279 8.62 8.45 10.1
11/1/2021 3:15:00 AM 12.81 55.058 0.206 8.65 8.85 10.1
11/1/2021 3:30:00 AM 12.8 55.04 0.271 8.63 8.64 10.1
11/1/2021 3:45:00 AM 12.79 55.022 0.207 8.64 7.96 10.1
11/1/2021 4:00:00 AM 12.77 54.986 0.399 8.65 8.5 10.11
11/1/2021 4:15:00 AM 12.75 54.95 0.244 8.64 8.19 10.11
11/1/2021 4:30:00 AM 12.74 54.932 0.289 8.65 8.46 10.11
11/1/2021 4:45:00 AM 12.72 54.896 0.199 8.65 8.15 10.11
11/1/2021 5:00:00 AM 12.71 54.878 0.252 8.68 8.37 10.11
11/1/2021 5:15:00 AM 12.69 54.842 0.26 8.64 8.26 10.12
11/1/2021 5:30:00 AM 12.68 54.824 0.394 8.65 8.58 10.12
11/1/2021 5:45:00 AM 12.66 54.788 0.214 8.64 8.3 10.13
11/1/2021 6:00:00 AM 12.65 54.77 0.304 8.64 8.47 10.13
11/1/2021 6:15:00 AM 12.64 54.752 0.389 8.65 7.73 10.13
11/1/2021 6:30:00 AM 12.64 54.752 0.527 8.64 7.97 10.13
11/1/2021 6:45:00 AM 12.63 54.734 0.193 8.64 8.21 10.14
11/1/2021 7:00:00 AM 12.62 54.716 0.267 8.64 9.3 10.14
11/1/2021 7:15:00 AM 12.61 54.698 0.272 8.65 8.46 10.15
11/1/2021 7:30:00 AM 12.59 54.662 0.533 8.67 8.51 10.16
11/1/2021 7:45:00 AM 12.57 54.626 0.27 8.64 7.99 10.16
11/1/2021 8:00:00 AM 12.54 54.572 0.34 8.65 8.23 10.18
11/1/2021 8:15:00 AM 12.52 54.536 0.277 8.65 7.88 10.19
11/1/2021 8:30:00 AM 12.5 54.5 0.323 8.65 7.94 10.2
11/1/2021 8:45:00 AM 12.48 54.464 0.319 8.64 7.71 10.23
11/1/2021 9:00:00 AM 12.46 54.428 0.323 8.62 7.95 10.25
11/1/2021 9:15:00 AM 12.44 54.392 0.321 8.65 7.77 10.28
11/1/2021 9:30:00 AM 12.43 54.374 0.261 8.65 7.35 10.31
11/1/2021 9:45:00 AM 12.41 54.338 0.237 8.69 7.57 10.31
11/1/2021 10:00:00 AM 12.4 54.32 0.539 8.67 7.29 10.33
11/1/2021 10:15:00 AM 12.39 54.302 0.279 8.67 7.81 10.35
11/1/2021 10:30:00 AM 12.38 54.284 0.541 8.67 7.79 10.35
11/1/2021 10:45:00 AM 12.38 54.284 0.191 8.67 7.29 10.37
11/1/2021 11:00:00 AM 12.38 54.284 0.344 8.68 7.34 10.38
11/1/2021 11:15:00 AM 12.38 54.284 0.283 8.69 7.03 10.39
11/1/2021 11:30:00 AM 12.38 54.284 0.345 8.66 7.33 10.4
11/1/2021 11:45:00 AM 12.39 54.302 0.205 8.69 7.18 10.41
11/1/2021 12:00:00 PM 12.39 54.302 0.347 8.68 7.3 10.41
11/1/2021 12:15:00 PM 12.4 54.32 0.393 8.7 7.02 10.42
11/1/2021 12:30:00 PM 12.41 54.338 0.31 8.69 6.94 10.44
11/1/2021 12:45:00 PM 12.42 54.356 0.261 8.69 6.75 10.44
11/1/2021 1:00:00 PM 12.44 54.392 0.31 8.68 6.61 10.44
11/1/2021 1:15:00 PM 12.46 54.428 0.315 8.69 6.75 10.45
11/1/2021 1:30:00 PM 12.5 54.5 0.322 8.68 6.79 10.45
11/1/2021 1:45:00 PM 12.53 54.554 0.329 8.78 6.53 10.46
11/1/2021 2:00:00 PM 12.57 54.626 0.314 8.72 6.48 10.46
11/1/2021 2:15:00 PM 12.6 54.68 0.281 8.72 6.18 10.47
11/1/2021 2:30:00 PM 12.63 54.734 0.24 8.73 6.52 10.48
11/1/2021 2:45:00 PM 12.65 54.77 0.31 8.74 6.39 10.48
11/1/2021 3:00:00 PM 12.67 54.806 0.309 8.74 6.8 10.48
11/1/2021 3:15:00 PM 12.68 54.824 0.296 8.74 6.33 10.47
11/1/2021 3:30:00 PM 12.68 54.824 0.282 8.74 6.51 10.47
11/1/2021 3:45:00 PM 12.69 54.842 0.191 8.75 7.24 10.48
11/1/2021 4:00:00 PM 12.69 54.842 0.389 8.76 6.47 10.48
11/1/2021 4:15:00 PM 12.68 54.824 0.336 8.78 6.69 10.49
11/1/2021 4:30:00 PM 12.68 54.824 0.321 8.75 5.86 10.51
11/1/2021 4:45:00 PM 12.66 54.788 0.336 8.73 6.37 10.5
11/1/2021 5:00:00 PM 12.64 54.752 0.244 8.78 6.37 10.5
11/1/2021 5:15:00 PM 12.62 54.716 0.306 8.78 6.16 10.51
11/1/2021 5:30:00 PM 12.6 54.68 0.313 8.78 6.35 10.5
11/1/2021 5:45:00 PM 12.57 54.626 0.299 8.78 5.85 10.51
11/1/2021 6:00:00 PM 12.54 54.572 0.21 8.78 6.08 10.51
11/1/2021 6:15:00 PM 12.51 54.518 0.238 8.77 5.9 10.51
11/1/2021 6:30:00 PM 12.49 54.482 0.314 8.77 4.96 10.5
11/1/2021 6:45:00 PM 12.47 54.446 0.235 8.78 6.09 10.5
11/1/2021 7:00:00 PM 12.45 54.41 0.282 8.75 7.93 10.51
11/1/2021 7:15:00 PM 12.43 54.374 0.308 8.77 6.19 10.51
11/1/2021 7:30:00 PM 12.41 54.338 0.247 8.76 6.09 10.5
11/1/2021 7:45:00 PM 12.4 54.32 0.323 8.76 6.4 10.5
11/1/2021 8:00:00 PM 12.38 54.284 0.306 8.76 6.45 10.49
11/1/2021 8:15:00 PM 12.36 54.248 0.317 8.75 6.09 10.48
11/1/2021 8:30:00 PM 12.35 54.23 0.304 8.76 6.51 10.48
11/1/2021 8:45:00 PM 12.33 54.194 0.265 8.75 6.62 10.49
11/1/2021 9:00:00 PM 12.31 54.158 0.247 8.76 6.88 10.48
11/1/2021 9:15:00 PM 12.3 54.14 0.31 8.76 7.02 10.48
11/1/2021 9:30:00 PM 12.28 54.104 0.305 8.76 6.6 10.49
11/1/2021 9:45:00 PM 12.27 54.086 0.291 8.76 7.65 10.48
11/1/2021 10:00:00 PM 12.25 54.05 0.285 8.75 6.86 10.47
11/1/2021 10:15:00 PM 12.23 54.014 0.287 8.74 7 10.47
11/1/2021 10:30:00 PM 12.2 53.96 0.315 8.74 7.74 10.47
11/1/2021 10:45:00 PM 12.17 53.906 0.274 8.73 7.12 10.47
11/1/2021 11:00:00 PM 12.14 53.852 0.545 8.73 6.62 10.46
11/1/2021 11:15:00 PM 12.11 53.798 0.194 8.74 7 10.45
11/1/2021 11:30:00 PM 12.08 53.744 0.544 8.71 7.53 10.45
11/1/2021 11:45:00 PM 12.04 53.672 0.277 8.72 9.64 10.45
11/2/2021 12:00:00 AM 12 53.6 0.545 8.71 7.32 10.45
11/2/2021 12:15:00 AM 11.96 53.528 0.311 8.73 7.65 10.45
11/2/2021 12:30:00 AM 11.92 53.456 0.307 8.71 7.19 10.44
11/2/2021 12:45:00 AM 11.88 53.384 0.27 8.73 7.12 10.45
11/2/2021 1:00:00 AM 11.84 53.312 0.318 8.7 6.51 10.45
11/2/2021 1:15:00 AM 11.8 53.24 0.403 8.72 6.53 10.46
11/2/2021 1:30:00 AM 11.77 53.186 0.263 8.68 7.05 10.46
11/2/2021 1:45:00 AM 11.73 53.114 0.303 8.71 7 10.46
11/2/2021 2:00:00 AM 11.7 53.06 0.279 8.71 7.23 10.46
11/2/2021 2:15:00 AM 11.67 53.006 0.406 8.71 6.3 10.46
11/2/2021 2:30:00 AM 11.64 52.952 0.261 8.7 6.51 10.46
11/2/2021 2:45:00 AM 11.61 52.898 0.276 8.69 6.45 10.46
11/2/2021 3:00:00 AM 11.58 52.844 0.547 8.68 7.86 10.46
11/2/2021 3:15:00 AM 11.55 52.79 0.545 8.68 5.92 10.47
11/2/2021 3:30:00 AM 11.52 52.736 0.365 8.69 6.63 10.46
11/2/2021 3:45:00 AM 11.5 52.7 0.253 8.7 6.65 10.47
11/2/2021 4:00:00 AM 11.47 52.646 0.494 8.7 6.82 10.48
11/2/2021 4:15:00 AM 11.45 52.61 0.245 8.7 6.52 10.49
11/2/2021 4:30:00 AM 11.42 52.556 0.369 8.7 6.35 10.48
11/2/2021 4:45:00 AM 11.4 52.52 0.329 8.67 6.63 10.49
11/2/2021 5:00:00 AM 11.38 52.484 0.322 8.69 7.05 10.49
11/2/2021 5:15:00 AM 11.36 52.448 0.305 8.7 6.73 10.5
11/2/2021 5:30:00 AM 11.34 52.412 0.247 8.7 7.27 10.5
11/2/2021 5:45:00 AM 11.33 52.394 0.265 8.68 6.59 10.51
11/2/2021 6:00:00 AM 11.31 52.358 0.32 8.7 6.74 10.51
11/2/2021 6:15:00 AM 11.3 52.34 0.294 8.7 6.56 10.51
11/2/2021 6:30:00 AM 11.29 52.322 0.262 8.67 6.94 10.51
11/2/2021 6:45:00 AM 11.28 52.304 0.333 8.68 7.21 10.5
11/2/2021 7:00:00 AM 11.27 52.286 0.311 8.7 7.66 10.5
11/2/2021 7:15:00 AM 11.26 52.268 0.371 8.69 6.62 10.52
11/2/2021 7:30:00 AM 11.26 52.268 0.26 8.66 6.65 10.52
11/2/2021 7:45:00 AM 11.26 52.268 0.353 8.67 6.87 10.5
11/2/2021 8:00:00 AM 11.26 52.268 0.327 8.7 7.22 10.53
11/2/2021 8:15:00 AM 11.26 52.268 0.348 8.65 7.15 10.54
11/2/2021 8:30:00 AM 11.26 52.268 0.306 8.71 6.94 10.54
11/2/2021 8:45:00 AM 11.26 52.268 0.3 8.7 6.9 10.53
11/2/2021 9:00:00 AM 11.27 52.286 0.355 8.69 6.92 10.55
11/2/2021 9:15:00 AM 11.27 52.286 0.355 8.69 6.65 10.54
11/2/2021 9:30:00 AM 11.28 52.304 0.295 8.71 7.34 10.55
11/2/2021 9:45:00 AM 11.29 52.322 0.522 8.7 6.63 10.57
11/2/2021 10:00:00 AM 11.3 52.34 0.523 8.71 6.5 10.57
11/2/2021 10:15:00 AM 11.31 52.358 0.366 8.73 6.56 10.6
11/2/2021 10:30:00 AM 11.32 52.376 0.287 8.71 5.99 10.59
11/2/2021 10:45:00 AM 11.32 52.376 0.314 8.71 6.94 10.59
11/2/2021 11:00:00 AM 11.33 52.394 0.331 8.74 6.12 10.59
11/2/2021 11:15:00 AM 11.34 52.412 0.307 8.73 6.35 10.61
11/2/2021 11:30:00 AM 11.36 52.448 0.347 8.72 6.13 10.61
11/2/2021 11:45:00 AM 11.37 52.466 0.317 8.74 6.58 10.63
11/2/2021 12:00:00 PM 11.37 52.466 0.318 8.74 6.12 10.63
11/2/2021 12:15:00 PM 11.38 52.484 0.31 8.73 6.08 10.63
11/2/2021 12:30:00 PM 11.39 52.502 0.346 8.73 6.06 10.65
11/2/2021 12:45:00 PM 11.4 52.52 0.523 8.74 6.35 10.65
11/2/2021 1:00:00 PM 11.41 52.538 0.235 8.75 5.91 10.66
11/2/2021 1:15:00 PM 11.42 52.556 0.313 8.73 5.55 10.68
11/2/2021 1:30:00 PM 11.42 52.556 0.581 8.75 5.83 10.69
11/2/2021 1:45:00 PM 11.43 52.574 0.371 8.74 5.74 10.69
11/2/2021 2:00:00 PM 11.42 52.556 0.317 8.76 5.65 10.69
11/2/2021 2:15:00 PM 11.42 52.556 0.338 8.76 6.29 10.7
11/2/2021 2:30:00 PM 11.42 52.556 0.584 8.76 6.15 10.69
11/2/2021 2:45:00 PM 11.41 52.538 0.315 8.77 6.69 10.71
11/2/2021 3:00:00 PM 11.42 52.556 0.372 8.75 5.75 10.72
11/2/2021 3:15:00 PM 11.42 52.556 0.365 8.78 7.29 10.72
11/2/2021 3:30:00 PM 11.42 52.556 0.528 8.76 6.35 10.72
11/2/2021 3:45:00 PM 11.42 52.556 0.318 8.78 5.82 10.74
11/2/2021 4:00:00 PM 11.41 52.538 0.528 8.8 5.64 10.74
11/2/2021 4:15:00 PM 11.41 52.538 0.314 8.81 5.79 10.76
11/2/2021 4:30:00 PM 11.41 52.538 0.322 8.79 5.7 10.77
11/2/2021 4:45:00 PM 11.4 52.52 0.393 8.79 6.02 10.78
11/2/2021 5:00:00 PM 11.4 52.52 0.582 8.79 5.48 10.78
11/2/2021 5:15:00 PM 11.4 52.52 0.36 8.8 5.38 10.78
11/2/2021 5:30:00 PM 11.39 52.502 0.337 8.8 5.3 10.78
11/2/2021 5:45:00 PM 11.38 52.484 0.34 8.81 5.39 10.79
11/2/2021 6:00:00 PM 11.37 52.466 0.33 8.81 5.53 10.79
11/2/2021 6:15:00 PM 11.35 52.43 0.305 8.8 5.54 10.8
11/2/2021 6:30:00 PM 11.34 52.412 0.525 8.81 5.33 10.8
11/2/2021 6:45:00 PM 11.32 52.376 0.343 8.82 5.27 10.81
11/2/2021 7:00:00 PM 11.3 52.34 0.346 8.82 5.9 10.82
11/2/2021 7:15:00 PM 11.28 52.304 0.294 8.81 5.4 10.82
11/2/2021 7:30:00 PM 11.25 52.25 0.321 8.81 5.91 10.84
11/2/2021 7:45:00 PM 11.23 52.214 0.283 8.79 5.61 10.83
11/2/2021 8:00:00 PM 11.2 52.16 0.283 8.8 5.48 10.84
11/2/2021 8:15:00 PM 11.18 52.124 0.342 8.81 5.5 10.84
11/2/2021 8:30:00 PM 11.15 52.07 0.338 8.81 5.62 10.84
11/2/2021 8:45:00 PM 11.12 52.016 0.583 8.81 5.68 10.84
11/2/2021 9:00:00 PM 11.1 51.98 0.282 8.78 5.55 10.83
11/2/2021 9:15:00 PM 11.07 51.926 0.582 8.79 5.67 10.83
11/2/2021 9:30:00 PM 11.05 51.89 0.527 8.8 6.36 10.83
11/2/2021 9:45:00 PM 11.02 51.836 0.352 8.81 6.11 10.82
11/2/2021 10:00:00 PM 10.99 51.782 0.334 8.8 5.85 10.83
11/2/2021 10:15:00 PM 10.96 51.728 0.39 8.79 5.76 10.82
11/2/2021 10:30:00 PM 10.93 51.674 0.383 8.78 5.53 10.82
11/2/2021 10:45:00 PM 10.91 51.638 0.343 8.79 6.38 10.82
11/2/2021 11:00:00 PM 10.88 51.584 0.308 8.76 6.24 10.82
11/2/2021 11:15:00 PM 10.84 51.512 0.348 8.75 6.14 10.82
11/2/2021 11:30:00 PM 10.81 51.458 0.303 8.77 5.95 10.82
11/2/2021 11:45:00 PM 10.77 51.386 0.334 8.79 6.15 10.81
11/3/2021 12:00:00 AM 10.74 51.332 0.338 8.77 6.67 10.81
11/3/2021 12:15:00 AM 10.7 51.26 0.307 8.75 6.64 10.81
11/3/2021 12:30:00 AM 10.67 51.206 0.228 8.77 52.91 10.79
11/3/2021 12:45:00 AM 10.63 51.134 0.348 8.75 8.77 10.8
11/3/2021 1:00:00 AM 10.59 51.062 0.521 8.77 6.52 10.8
11/3/2021 1:15:00 AM 10.56 51.008 0.258 8.77 6.86 10.8
11/3/2021 1:30:00 AM 10.52 50.936 0.305 8.73 6.77 10.81
11/3/2021 1:45:00 AM 10.48 50.864 0.303 8.77 7.86 10.8
11/3/2021 2:00:00 AM 10.43 50.774 0.296 8.74 6.92 10.81
11/3/2021 2:15:00 AM 10.39 50.702 0.233 8.76 6.5 10.82
11/3/2021 2:30:00 AM 10.36 50.648 0.575 8.75 6.43 10.82
11/3/2021 2:45:00 AM 10.32 50.576 0.212 8.74 6.3 10.82
11/3/2021 3:00:00 AM 10.28 50.504 0.343 8.75 6.05 10.83
11/3/2021 3:15:00 AM 10.24 50.432 0.406 8.74 5.63 10.83
11/3/2021 3:30:00 AM 10.19 50.342 0.335 8.72 6.98 10.84
11/3/2021 3:45:00 AM 10.16 50.288 0.207 8.74 6.52 10.85
11/3/2021 4:00:00 AM 10.12 50.216 0.309 8.72 6.02 10.85
11/3/2021 4:15:00 AM 10.08 50.144 0.275 8.74 5.77 10.86
11/3/2021 4:30:00 AM 10.04 50.072 0.379 8.74 5.81 10.87
11/3/2021 4:45:00 AM 10 50 0.311 8.76 5.87 10.87
11/3/2021 5:00:00 AM 9.96 49.928 0.365 8.72 6.26 10.87
11/3/2021 5:15:00 AM 9.92 49.856 0.244 8.75 6.19 10.89
11/3/2021 5:30:00 AM 9.88 49.784 0.315 8.73 6.19 10.9
11/3/2021 5:45:00 AM 9.84 49.712 0.275 8.73 5.52 10.91
11/3/2021 6:00:00 AM 9.81 49.658 0.361 8.7 5.97 10.92
11/3/2021 6:15:00 AM 9.77 49.586 0.292 8.74 5.94 10.93
11/3/2021 6:30:00 AM 9.73 49.514 0.575 8.74 5.6 10.94
11/3/2021 6:45:00 AM 9.7 49.46 0.286 8.75 5.97 10.95
11/3/2021 7:00:00 AM 9.66 49.388 0.574 8.72 5.91 10.95
11/3/2021 7:15:00 AM 9.63 49.334 0.341 8.72 6.07 10.97
11/3/2021 7:30:00 AM 9.6 49.28 0.394 8.74 6.34 10.97
11/3/2021 7:45:00 AM 9.57 49.226 0.375 8.77 5.74 10.98
11/3/2021 8:00:00 AM 9.54 49.172 0.388 8.75 6.3 10.99
11/3/2021 8:15:00 AM 9.51 49.118 0.359 8.76 5.4 11.01
11/3/2021 8:30:00 AM 9.49 49.082 0.339 8.76 5.52 11.04
11/3/2021 8:45:00 AM 9.46 49.028 0.332 8.76 5.28 11.06
11/3/2021 9:00:00 AM 9.45 49.01 0.294 8.7 5.58 11.09
11/3/2021 9:15:00 AM 9.44 48.992 0.3 8.74 5.45 11.11
11/3/2021 9:30:00 AM 9.44 48.992 0.423 8.76 5.78 11.12
11/3/2021 9:45:00 AM 9.44 48.992 0.328 8.74 5.67 11.15
11/3/2021 10:00:00 AM 9.44 48.992 0.357 8.75 5.48 11.15
11/3/2021 10:15:00 AM 9.44 48.992 0.357 8.77 5.76 11.18
11/3/2021 10:30:00 AM 9.45 49.01 0.357 8.77 5.47 11.18
11/3/2021 10:45:00 AM 9.45 49.01 0.39 8.77 5.44 11.19
11/3/2021 11:00:00 AM 9.46 49.028 0.24 8.78 5.69 11.22
11/3/2021 11:15:00 AM 9.45 49.01 0.365 8.77 5.73 11.22
11/3/2021 11:30:00 AM 9.47 49.046 0.288 8.78 5.23 11.24
11/3/2021 11:45:00 AM 9.47 49.046 0.307 8.81 5.21 11.24
11/3/2021 12:00:00 PM 9.48 49.064 0.309 8.78 5.43 11.25
11/3/2021 12:15:00 PM 9.49 49.082 0.297 8.78 5.3 11.24
11/3/2021 12:30:00 PM 9.5 49.1 0.323 8.79 5.29 11.27
11/3/2021 12:45:00 PM 9.51 49.118 0.325 8.78 5.54 11.26
11/3/2021 1:00:00 PM 9.53 49.154 0.37 8.8 5.34 11.27
11/3/2021 1:15:00 PM 9.56 49.208 0.379 8.8 5.65 11.28
11/3/2021 1:30:00 PM 9.59 49.262 0.365 8.79 5.47 11.28
11/3/2021 1:45:00 PM 9.56 49.208 0.416 8.8 5.73 11.25
11/3/2021 2:00:00 PM 9.61 49.298 0.311 8.78 5.36 11.27
11/3/2021 2:15:00 PM 9.61 49.298 0.432 8.78 5.08 11.24
11/3/2021 2:30:00 PM 9.69 49.442 0.224 8.81 5.4 11.29
11/3/2021 2:45:00 PM 9.77 49.586 0.275 8.83 5.31 11.3
11/3/2021 3:00:00 PM 9.84 49.712 0.351 8.83 5.34 11.3
11/3/2021 3:15:00 PM 9.86 49.748 0.345 8.84 5.41 11.26
11/3/2021 3:30:00 PM 9.88 49.784 0.323 8.84 5.07 11.29
11/3/2021 3:45:00 PM 9.88 49.784 0.369 8.81 5.24 11.27
11/3/2021 4:00:00 PM 9.9 49.82 0.352 8.84 5.57 11.28
11/3/2021 4:15:00 PM 9.93 49.874 0.364 8.85 5.17 11.32
11/3/2021 4:30:00 PM 9.93 49.874 0.398 8.84 5.13 11.3
11/3/2021 4:45:00 PM 9.91 49.838 0.319 8.86 5.34 11.29
11/3/2021 5:00:00 PM 9.9 49.82 0.367 8.82 5.42 11.3
11/3/2021 5:15:00 PM 9.89 49.802 0.207 8.84 5.17 11.3
11/3/2021 5:30:00 PM 9.88 49.784 0.351 8.87 5.07 11.31
11/3/2021 5:45:00 PM 9.88 49.784 0.266 8.86 5.25 11.31
11/3/2021 6:00:00 PM 9.88 49.784 0.591 8.86 5.51 11.32
11/3/2021 6:15:00 PM 9.86 49.748 0.348 8.88 4.88 11.32
11/3/2021 6:30:00 PM 9.85 49.73 0.307 8.84 5.19 11.32
11/3/2021 6:45:00 PM 9.84 49.712 0.262 8.87 5.4 11.32
11/3/2021 7:00:00 PM 9.83 49.694 0.296 8.84 5 11.32
11/3/2021 7:15:00 PM 9.81 49.658 0.352 8.85 5.1 11.33
11/3/2021 7:30:00 PM 9.8 49.64 0.237 8.86 5.2 11.32
11/3/2021 7:45:00 PM 9.8 49.64 0.344 8.87 5.18 11.32
11/3/2021 8:00:00 PM 9.79 49.622 0.284 8.87 5.19 11.32
11/3/2021 8:15:00 PM 9.78 49.604 0.348 8.86 5.41 11.32
11/3/2021 8:30:00 PM 9.77 49.586 0.35 8.87 5.77 11.33
11/3/2021 8:45:00 PM 9.76 49.568 0.354 8.87 5.23 11.32
11/3/2021 9:00:00 PM 9.75 49.55 0.353 8.88 5.55 11.33
11/3/2021 9:15:00 PM 9.74 49.532 0.351 8.86 5.46 11.33
11/3/2021 9:30:00 PM 9.73 49.514 0.361 8.85 6.69 11.33
11/3/2021 9:45:00 PM 9.72 49.496 0.343 8.86 5.29 11.31
11/3/2021 10:00:00 PM 9.7 49.46 0.271 8.87 5.73 11.31
11/3/2021 10:15:00 PM 9.69 49.442 0.229 8.87 5.61 11.31
11/3/2021 10:30:00 PM 9.67 49.406 0.218 8.85 5.75 11.31
11/3/2021 10:45:00 PM 9.65 49.37 0.591 8.86 5.26 11.3
11/3/2021 11:00:00 PM 9.64 49.352 0.228 8.85 5.53 11.3
11/3/2021 11:15:00 PM 9.62 49.316 0.378 8.91 6 11.28
11/3/2021 11:30:00 PM 9.6 49.28 0.353 8.84 5.87 11.27
11/3/2021 11:45:00 PM 9.58 49.244 0.591 8.84 5.82 11.26
11/4/2021 12:00:00 AM 9.55 49.19 0.235 8.84 5.68 11.26
11/4/2021 12:15:00 AM 9.52 49.136 0.255 8.84 3.76 11.25
11/4/2021 12:30:00 AM 9.49 49.082 0.27 8.84 6.05 11.25
11/4/2021 12:45:00 AM 9.46 49.028 0.267 8.84 6.19 11.24
11/4/2021 1:00:00 AM 9.43 48.974 0.342 8.83 5.92 11.23
11/4/2021 1:15:00 AM 9.4 48.92 0.593 8.83 5.67 11.22
11/4/2021 1:30:00 AM 9.37 48.866 0.313 8.81 6.01 11.23
11/4/2021 1:45:00 AM 9.33 48.794 0.329 8.82 5.8 11.21
11/4/2021 2:00:00 AM 9.29 48.722 0.332 8.81 7.78 11.22
11/4/2021 2:15:00 AM 9.26 48.668 0.264 8.81 6.28 11.22
11/4/2021 2:30:00 AM 9.22 48.596 0.282 8.8 5.98 11.22
11/4/2021 2:45:00 AM 9.19 48.542 0.291 8.78 6.11 11.22
11/4/2021 3:00:00 AM 9.15 48.47 0.225 8.79 5.81 11.22
11/4/2021 3:15:00 AM 9.11 48.398 0.215 8.81 6.08 11.22
11/4/2021 3:30:00 AM 9.08 48.344 0.437 8.82 5.76 11.21
11/4/2021 3:45:00 AM 9.04 48.272 0.337 8.79 6.06 11.22
11/4/2021 4:00:00 AM 9.01 48.218 0.587 8.77 5.83 11.22
11/4/2021 4:15:00 AM 8.97 48.146 0.375 8.79 5.99 11.23
11/4/2021 4:30:00 AM 8.93 48.074 0.343 8.77 5.93 11.24
11/4/2021 4:45:00 AM 8.9 48.02 0.348 8.76 6.07 11.23
11/4/2021 5:00:00 AM 8.86 47.948 0.385 8.75 6.59 11.25
11/4/2021 5:15:00 AM 8.83 47.894 0.358 8.78 6.25 11.25
11/4/2021 5:30:00 AM 8.79 47.822 0.314 8.74 6.03 11.25
11/4/2021 5:45:00 AM 8.76 47.768 0.194 8.75 6.48 11.27
11/4/2021 6:00:00 AM 8.72 47.696 0.29 8.76 6.4 11.28
11/4/2021 6:15:00 AM 8.68 47.624 0.325 8.78 6.37 11.28
11/4/2021 6:30:00 AM 8.65 47.57 0.395 8.77 6.66 11.29
11/4/2021 6:45:00 AM 8.61 47.498 0.287 8.76 5.99 11.3
11/4/2021 7:00:00 AM 8.58 47.444 0.587 8.77 5.93 11.3
11/4/2021 7:15:00 AM 8.54 47.372 0.341 8.77 5.87 11.31
11/4/2021 7:30:00 AM 8.51 47.318 0.584 8.78 6.11 11.31
11/4/2021 7:45:00 AM 8.48 47.264 0.274 8.77 6.94 11.31
11/4/2021 8:00:00 AM 8.45 47.21 0.328 8.77 6.31 11.33
11/4/2021 8:15:00 AM 8.42 47.156 0.585 8.78 5.84 11.35
11/4/2021 8:30:00 AM 8.39 47.102 0.282 8.77 6.03 11.37
11/4/2021 8:45:00 AM 8.36 47.048 0.381 8.75 6.32 11.4
11/4/2021 9:00:00 AM 8.34 47.012 0.294 8.76 6.32 11.43
11/4/2021 9:15:00 AM 8.33 46.994 0.587 8.79 5.97 11.44
11/4/2021 9:30:00 AM 8.33 46.994 0.336 8.76 6.37 11.47
11/4/2021 9:45:00 AM 8.32 46.976 0.318 8.76 6.58 11.48
11/4/2021 10:00:00 AM 8.32 46.976 0.446 8.79 5.93 11.49
11/4/2021 10:15:00 AM 8.33 46.994 0.439 8.8 6.58 11.52
11/4/2021 10:30:00 AM 8.33 46.994 0.446 8.79 5.76 11.52
11/4/2021 10:45:00 AM 8.35 47.03 0.59 8.8 6.47 11.54
11/4/2021 11:00:00 AM 8.37 47.066 0.59 8.67 5.75 11.55
11/4/2021 11:15:00 AM 8.38 47.084 0.266 8.81 6.06 11.55
11/4/2021 11:30:00 AM 8.39 47.102 0.288 8.79 5.79 11.56
11/4/2021 11:45:00 AM 8.41 47.138 0.356 8.8 5.81 11.56
11/4/2021 12:00:00 PM 8.41 47.138 0.345 8.81 6.02 11.56
11/4/2021 12:15:00 PM 8.43 47.174 0.36 8.8 5.36 11.54
11/4/2021 12:30:00 PM 8.42 47.156 0.381 8.79 5.63 11.55
11/4/2021 12:45:00 PM 8.44 47.192 0.599 8.81 5.61 11.58
11/4/2021 1:00:00 PM 8.44 47.192 0.339 8.79 5.82 11.59
11/4/2021 1:15:00 PM 8.47 47.246 0.542 8.81 5.71 11.6
11/4/2021 1:30:00 PM 8.51 47.318 0.371 8.84 5.31 11.58
11/4/2021 1:45:00 PM 8.53 47.354 0.389 8.83 5.82 11.59
11/4/2021 2:00:00 PM 8.57 47.426 0.322 8.82 5.92 11.59
11/4/2021 2:15:00 PM 8.6 47.48 0.365 8.82 5.63 11.6
11/4/2021 2:30:00 PM 8.63 47.534 0.347 8.82 5.73 11.59
11/4/2021 2:45:00 PM 8.67 47.606 0.365 8.83 5.37 11.59
11/4/2021 3:00:00 PM 8.71 47.678 0.376 8.83 5.86 11.58
11/4/2021 3:15:00 PM 8.75 47.75 0.277 8.86 5.81 11.59
11/4/2021 3:30:00 PM 8.8 47.84 0.325 8.82 5.89 11.58
11/4/2021 3:45:00 PM 8.83 47.894 0.285 8.85 5.31 11.59
11/4/2021 4:00:00 PM 8.87 47.966 0.324 8.87 5.35 11.58
11/4/2021 4:15:00 PM 8.89 48.002 0.549 8.86 5.5 11.58
11/4/2021 4:30:00 PM 8.91 48.038 0.382 8.86 5.43 11.58
11/4/2021 4:45:00 PM 8.93 48.074 0.365 8.84 5.91 11.59
11/4/2021 5:00:00 PM 8.95 48.11 0.232 8.87 5.66 11.59
11/4/2021 5:15:00 PM 8.97 48.146 0.359 8.87 5.58 11.58
11/4/2021 5:30:00 PM 8.99 48.182 0.376 8.86 5.61 11.59
11/4/2021 5:45:00 PM 9.01 48.218 0.398 8.88 5.8 11.59
11/4/2021 6:00:00 PM 9.01 48.218 0.367 8.87 5.43 11.59
11/4/2021 6:15:00 PM 9 48.2 0.373 8.88 6.05 11.58
11/4/2021 6:30:00 PM 9 48.2 0.549 8.89 5.28 11.59
11/4/2021 6:45:00 PM 9 48.2 0.354 8.89 5.68 11.59
11/4/2021 7:00:00 PM 9 48.2 0.413 8.89 5.62 11.59
11/4/2021 7:15:00 PM 9 48.2 0.325 8.85 5.81 11.59
11/4/2021 7:30:00 PM 9.01 48.218 0.289 8.88 5.3 11.59
11/4/2021 7:45:00 PM 9.01 48.218 0.36 8.87 5.5 11.6
11/4/2021 8:00:00 PM 9.02 48.236 0.353 8.88 5.69 11.59
11/4/2021 8:15:00 PM 9.02 48.236 0.265 8.89 5.4 11.57
11/4/2021 8:30:00 PM 9.02 48.236 0.242 8.9 5.61 11.6
11/4/2021 8:45:00 PM 9.03 48.254 0.353 8.88 5.87 11.58
11/4/2021 9:00:00 PM 9.03 48.254 0.603 8.75 5.24 11.59
11/4/2021 9:15:00 PM 9.03 48.254 0.604 8.89 5.29 11.59
11/4/2021 9:30:00 PM 9.03 48.254 0.367 8.9 6.01 11.58
11/4/2021 9:45:00 PM 9.03 48.254 0.327 8.85 63.16 11.56
11/4/2021 10:00:00 PM 9.03 48.254 0.293 8.85 5.5 11.55
11/4/2021 10:15:00 PM 9.02 48.236 0.338 8.86 6.26 11.54
11/4/2021 10:30:00 PM 9.01 48.218 0.346 8.88 5.69 11.52
11/4/2021 10:45:00 PM 9 48.2 0.355 8.87 5.86 11.52
11/4/2021 11:00:00 PM 8.99 48.182 0.32 8.88 5.76 11.52
11/4/2021 11:15:00 PM 8.98 48.164 0.308 8.85 6.5 11.51
11/4/2021 11:30:00 PM 8.96 48.128 0.177 8.84 5.55 11.49
11/4/2021 11:45:00 PM 8.94 48.092 0.364 8.86 6.47 11.48
11/5/2021 12:00:00 AM 8.92 48.056 0.292 8.85 5.64 11.45
11/5/2021 12:15:00 AM 8.9 48.02 0.391 8.84 6.63 11.46
11/5/2021 12:30:00 AM 8.87 47.966 0.344 8.86 6.5 11.44
11/5/2021 12:45:00 AM 8.84 47.912 0.369 8.86 6.43 11.44
11/5/2021 1:00:00 AM 8.82 47.876 0.294 8.83 6 11.43
11/5/2021 1:15:00 AM 8.79 47.822 0.342 8.84 6.23 11.42
11/5/2021 1:30:00 AM 8.75 47.75 0.314 8.84 5.92 11.41
11/5/2021 1:45:00 AM 8.71 47.678 0.359 8.82 6.17 11.39
11/5/2021 2:00:00 AM 8.68 47.624 0.351 8.84 5.92 11.39
11/5/2021 2:15:00 AM 8.64 47.552 0.243 8.82 5.74 11.38
11/5/2021 2:30:00 AM 8.61 47.498 0.445 8.83 5.87 11.39
11/5/2021 2:45:00 AM 8.57 47.426 0.283 8.81 6.4 11.38
11/5/2021 3:00:00 AM 8.52 47.336 0.398 8.8 6.12 11.39
11/5/2021 3:15:00 AM 8.49 47.282 0.364 8.8 5.71 11.39
11/5/2021 3:30:00 AM 8.45 47.21 0.401 8.8 6.08 11.4
11/5/2021 3:45:00 AM 8.41 47.138 0.301 8.8 6.14 11.4
11/5/2021 4:00:00 AM 8.37 47.066 0.542 8.81 5.87 11.4
11/5/2021 4:15:00 AM 8.33 46.994 0.376 8.77 6 11.4
11/5/2021 4:30:00 AM 8.29 46.922 0.367 8.79 5.66 11.41
11/5/2021 4:45:00 AM 8.25 46.85 0.343 8.81 6.04 11.42
11/5/2021 5:00:00 AM 8.21 46.778 0.599 8.8 5.47 11.42
11/5/2021 5:15:00 AM 8.17 46.706 0.297 8.79 6.24 11.42
11/5/2021 5:30:00 AM 8.13 46.634 0.393 8.8 6.28 11.44
11/5/2021 5:45:00 AM 8.09 46.562 0.268 8.79 6.26 11.44
11/5/2021 6:00:00 AM 8.05 46.49 0.326 8.73 6.69 11.46
11/5/2021 6:15:00 AM 8.01 46.418 0.302 8.76 6.43 11.46
11/5/2021 6:30:00 AM 7.97 46.346 0.38 8.76 5.99 11.47
11/5/2021 6:45:00 AM 7.93 46.274 0.355 8.78 6.32 11.47
11/5/2021 7:00:00 AM 7.89 46.202 0.307 8.77 6.01 11.47
11/5/2021 7:15:00 AM 7.86 46.148 0.396 8.77 6.23 11.5
11/5/2021 7:30:00 AM 7.82 46.076 0.382 8.75 5.91 11.51
11/5/2021 7:45:00 AM 7.78 46.004 0.41 8.78 6.4 11.53
11/5/2021 8:00:00 AM 7.75 45.95 0.386 8.81 6.32 11.53
11/5/2021 8:15:00 AM 7.72 45.896 0.36 8.79 6.44 11.56
11/5/2021 8:30:00 AM 7.7 45.86 0.218 8.78 5.94 11.57
11/5/2021 8:45:00 AM 7.68 45.824 0.302 8.77 6.11 11.61
11/5/2021 9:00:00 AM 7.66 45.788 0.282 8.79 5.97 11.63
11/5/2021 9:15:00 AM 7.65 45.77 0.363 8.77 6.57 11.66
11/5/2021 9:30:00 AM 7.65 45.77 0.35 8.8 5.96 11.68
11/5/2021 9:45:00 AM 7.66 45.788 0.362 8.77 5.89 11.7
11/5/2021 10:00:00 AM 7.66 45.788 0.366 8.77 6.37 11.71
11/5/2021 10:15:00 AM 7.67 45.806 0.284 8.81 6.78 11.73
11/5/2021 10:30:00 AM 7.68 45.824 0.338 8.82 6.15 11.74
11/5/2021 10:45:00 AM 7.7 45.86 0.24 8.81 5.77 11.74
11/5/2021 11:00:00 AM 7.72 45.896 0.31 8.78 6.21 11.76
11/5/2021 11:15:00 AM 7.73 45.914 0.259 8.88 5.83 11.75
11/5/2021 11:30:00 AM 7.75 45.95 0.404 8.81 6.19 11.76
11/5/2021 11:45:00 AM 7.77 45.986 0.36 8.82 5.97 11.76
11/5/2021 12:00:00 PM 7.79 46.022 0.401 8.82 6.03 11.75
11/5/2021 12:15:00 PM 7.82 46.076 0.311 8.82 5.66 11.77
11/5/2021 12:30:00 PM 7.84 46.112 0.393 8.81 5.71 11.76
11/5/2021 12:45:00 PM 7.85 46.13 0.266 8.83 5.88 11.76
11/5/2021 1:00:00 PM 7.87 46.166 0.548 8.83 5.64 11.76
11/5/2021 1:15:00 PM 7.91 46.238 0.304 8.82 5.5 11.76
11/5/2021 1:30:00 PM 7.94 46.292 0.552 8.82 5.77 11.77
11/5/2021 1:45:00 PM 7.99 46.382 0.289 8.83 5.37 11.78
11/5/2021 2:00:00 PM 8.04 46.472 0.403 8.82 5.65 11.77
11/5/2021 2:15:00 PM 8.07 46.526 0.398 8.87 5.85 11.76
11/5/2021 2:30:00 PM 8.12 46.616 0.361 8.83 5.87 11.74
11/5/2021 2:45:00 PM 8.16 46.688 0.371 8.83 5.45 11.74
11/5/2021 3:00:00 PM 8.22 46.796 0.42 8.85 5.79 11.73
11/5/2021 3:15:00 PM 8.3 46.94 0.409 8.84 5.76 11.74
11/5/2021 3:30:00 PM 8.36 47.048 0.281 8.87 5.75 11.73
11/5/2021 3:45:00 PM 8.42 47.156 0.424 8.86 6.11 11.7
11/5/2021 4:00:00 PM 8.48 47.264 0.562 8.86 5.57 11.7
11/5/2021 4:15:00 PM 8.53 47.354 0.544 8.86 5.74 11.68
11/5/2021 4:30:00 PM 8.56 47.408 0.359 8.85 5.61 11.69
11/5/2021 4:45:00 PM 8.58 47.444 0.367 8.88 6.01 11.7
11/5/2021 5:00:00 PM 8.6 47.48 0.563 8.86 5.77 11.7
11/5/2021 5:15:00 PM 8.62 47.516 0.379 8.84 5.99 11.7
11/5/2021 5:30:00 PM 8.62 47.516 0.416 8.87 5.77 11.7
11/5/2021 5:45:00 PM 8.63 47.534 0.564 8.87 6.06 11.69
11/5/2021 6:00:00 PM 8.63 47.534 0.417 8.87 5.46 11.67
11/5/2021 6:15:00 PM 8.62 47.516 0.293 8.88 5.71 11.66
11/5/2021 6:30:00 PM 8.61 47.498 0.279 8.88 5.64 11.69
11/5/2021 6:45:00 PM 8.6 47.48 0.393 8.89 5.75 11.72
11/5/2021 7:00:00 PM 8.59 47.462 0.285 8.89 5.74 11.73
11/5/2021 7:15:00 PM 8.59 47.462 0.239 8.89 5.39 11.72
11/5/2021 7:30:00 PM 8.59 47.462 0.357 8.9 5.81 11.73
11/5/2021 7:45:00 PM 8.61 47.498 0.56 8.88 5.34 11.73
11/5/2021 8:00:00 PM 8.62 47.516 0.373 8.87 5.71 11.73
11/5/2021 8:15:00 PM 8.63 47.534 0.298 8.88 5.57 11.73
11/5/2021 8:30:00 PM 8.64 47.552 0.336 8.89 5.38 11.73
11/5/2021 8:45:00 PM 8.65 47.57 0.376 8.87 5.8 11.73
11/5/2021 9:00:00 PM 8.65 47.57 0.351 8.87 5.72 11.73
11/5/2021 9:15:00 PM 8.65 47.57 0.303 8.89 5.49 11.72
11/5/2021 9:30:00 PM 8.65 47.57 0.289 8.92 5.37 11.71
11/5/2021 9:45:00 PM 8.64 47.552 0.303 8.88 5.28 11.7
11/5/2021 10:00:00 PM 8.64 47.552 0.305 8.88 5.53 11.7
11/5/2021 10:15:00 PM 8.63 47.534 0.365 8.89 5.39 11.7
11/5/2021 10:30:00 PM 8.62 47.516 0.376 8.88 5.46 11.69
11/5/2021 10:45:00 PM 8.6 47.48 0.282 8.9 5.74 11.68
11/5/2021 11:00:00 PM 8.59 47.462 0.32 8.91 5.69 11.67
11/5/2021 11:15:00 PM 8.57 47.426 0.348 8.9 5.83 11.66
11/5/2021 11:30:00 PM 8.55 47.39 0.294 8.9 6 11.65
11/5/2021 11:45:00 PM 8.54 47.372 0.306 8.86 6.11 11.64
11/6/2021 12:00:00 AM 8.51 47.318 0.332 8.89 5.82 11.63
11/6/2021 12:15:00 AM 8.49 47.282 0.362 8.87 5.73 11.62
11/6/2021 12:30:00 AM 8.47 47.246 0.374 8.89 5.75 11.61
11/6/2021 12:45:00 AM 8.44 47.192 0.313 8.84 5.79 11.6
11/6/2021 1:00:00 AM 8.42 47.156 0.613 8.86 5.78 11.58
11/6/2021 1:15:00 AM 8.39 47.102 0.377 8.85 5.82 11.58
11/6/2021 1:30:00 AM 8.36 47.048 0.613 8.85 5.7 11.57
11/6/2021 1:45:00 AM 8.33 46.994 0.613 8.86 5.47 11.57
11/6/2021 2:00:00 AM 8.29 46.922 0.613 8.83 5.62 11.56
11/6/2021 2:15:00 AM 8.26 46.868 0.61 8.85 5.89 11.56
11/6/2021 2:30:00 AM 8.22 46.796 0.381 8.81 9.22 11.55
11/6/2021 2:45:00 AM 8.18 46.724 0.368 8.81 5.49 11.56
11/6/2021 3:00:00 AM 8.14 46.652 0.396 8.82 6.41 11.54
11/6/2021 3:15:00 AM 8.11 46.598 0.612 8.82 5.86 11.55
11/6/2021 3:30:00 AM 8.07 46.526 0.377 8.84 5.94 11.55
11/6/2021 3:45:00 AM 8.03 46.454 0.285 8.82 5.92 11.55
11/6/2021 4:00:00 AM 7.98 46.364 0.284 8.82 6.4 11.55
11/6/2021 4:15:00 AM 7.95 46.31 0.298 8.81 6.23 11.54
11/6/2021 4:30:00 AM 7.91 46.238 0.303 8.81 5.81 11.55
11/6/2021 4:45:00 AM 7.87 46.166 0.612 8.82 5.5 11.55
11/6/2021 5:00:00 AM 7.83 46.094 0.411 8.8 6 11.56
11/6/2021 5:15:00 AM 7.79 46.022 0.308 8.81 6.73 11.56
11/6/2021 5:30:00 AM 7.75 45.95 0.397 8.78 6.15 11.57
11/6/2021 5:45:00 AM 7.71 45.878 0.3 8.78 5.99 11.58
11/6/2021 6:00:00 AM 7.67 45.806 0.226 8.8 5.78 11.58
11/6/2021 6:15:00 AM 7.62 45.716 0.612 8.78 5.86 11.59
11/6/2021 6:30:00 AM 7.58 45.644 0.359 8.78 5.85 11.59
11/6/2021 6:45:00 AM 7.54 45.572 0.406 8.78 6.51 11.61
11/6/2021 7:00:00 AM 7.5 45.5 0.61 8.82 6.3 11.62
11/6/2021 7:15:00 AM 7.45 45.41 0.415 8.79 6.43 11.62
11/6/2021 7:30:00 AM 7.41 45.338 0.292 8.78 5.92 11.65
11/6/2021 7:45:00 AM 7.37 45.266 0.291 8.8 5.86 11.66
11/6/2021 8:00:00 AM 7.34 45.212 0.37 8.75 6.06 11.65
11/6/2021 8:15:00 AM 7.3 45.14 0.358 8.78 6.26 11.63
11/6/2021 8:30:00 AM 7.27 45.086 0.34 8.79 6.12 11.69
11/6/2021 8:45:00 AM 7.24 45.032 0.33 8.81 6.56 11.73
11/6/2021 9:00:00 AM 7.22 44.996 0.363 8.78 6.11 11.77
11/6/2021 9:15:00 AM 7.21 44.978 0.218 8.78 6.53 11.79
11/6/2021 9:30:00 AM 7.21 44.978 0.356 8.8 6.33 11.81
11/6/2021 9:45:00 AM 7.2 44.96 0.359 8.79 6.29 11.83
11/6/2021 10:00:00 AM 7.2 44.96 0.334 8.78 6.05 11.86
11/6/2021 10:15:00 AM 7.21 44.978 0.338 8.81 6.27 11.87
11/6/2021 10:30:00 AM 7.22 44.996 0.342 8.82 5.85 11.88
11/6/2021 10:45:00 AM 7.23 45.014 0.303 8.78 5.81 11.9
11/6/2021 11:00:00 AM 7.25 45.05 0.318 8.78 6.14 11.9
11/6/2021 11:15:00 AM 7.26 45.068 0.275 8.82 6.24 11.91
11/6/2021 11:30:00 AM 7.28 45.104 0.264 8.83 6.01 11.92
11/6/2021 11:45:00 AM 7.3 45.14 0.239 8.82 5.8 11.92
11/6/2021 12:00:00 PM 7.32 45.176 0.335 8.83 5.84 11.92
11/6/2021 12:15:00 PM 7.33 45.194 0.288 8.81 5.29 11.92
11/6/2021 12:30:00 PM 7.34 45.212 0.339 8.81 5.7 11.91
11/6/2021 12:45:00 PM 7.35 45.23 0.343 8.83 5.76 11.92
11/6/2021 1:00:00 PM 7.37 45.266 0.6 8.83 6.46 11.92
11/6/2021 1:15:00 PM 7.4 45.32 0.399 8.84 5.37 11.89
11/6/2021 1:30:00 PM 7.4 45.32 0.362 8.83 5.72 11.92
11/6/2021 1:45:00 PM 7.42 45.356 0.379 8.81 6.24 11.92
11/6/2021 2:00:00 PM 7.44 45.392 0.279 8.85 5.74 11.93
11/6/2021 2:15:00 PM 7.47 45.446 0.362 8.83 5.17 11.93
11/6/2021 2:30:00 PM 7.51 45.518 0.605 8.83 5.42 11.92
11/6/2021 2:45:00 PM 7.54 45.572 0.397 8.83 5.11 11.91
11/6/2021 3:00:00 PM 7.58 45.644 0.297 8.85 5.45 11.91
11/6/2021 3:15:00 PM 7.64 45.752 0.607 8.85 5.26 11.86
11/6/2021 3:30:00 PM 7.69 45.842 0.372 8.82 5.52 11.85
11/6/2021 3:45:00 PM 7.75 45.95 0.259 8.85 5.47 11.87
11/6/2021 4:00:00 PM 7.81 46.058 0.283 8.84 5.07 11.83
11/6/2021 4:15:00 PM 7.87 46.166 0.29 8.86 5.15 11.86
11/6/2021 4:30:00 PM 7.92 46.256 0.268 8.86 5.02 11.87
11/6/2021 4:45:00 PM 7.97 46.346 0.361 8.86 4.84 11.86
11/6/2021 5:00:00 PM 8 46.4 0.346 8.85 5.36 11.86
11/6/2021 5:15:00 PM 8.02 46.436 0.387 8.87 5.25 11.86
11/6/2021 5:30:00 PM 8.04 46.472 0.373 8.87 4.85 11.86
11/6/2021 5:45:00 PM 8.05 46.49 0.365 8.87 5.31 11.86
11/6/2021 6:00:00 PM 8.05 46.49 0.376 8.86 6.29 11.86
11/6/2021 6:15:00 PM 8.05 46.49 0.283 8.89 6.24 11.86
11/6/2021 6:30:00 PM 8.04 46.472 0.263 8.89 5.96 11.87
11/6/2021 6:45:00 PM 8.04 46.472 0.373 8.89 1398.54 11.86
11/6/2021 7:00:00 PM 8.04 46.472 0.628 8.89 5.22 11.87
11/6/2021 7:15:00 PM 8.05 46.49 0.627 8.88 5.22 11.85
11/6/2021 7:30:00 PM 8.06 46.508 0.314 8.87 5.14 11.84
11/6/2021 7:45:00 PM 8.08 46.544 0.322 8.89 5.47 11.84
11/6/2021 8:00:00 PM 8.11 46.598 0.397 8.87 5.12 11.85
11/6/2021 8:15:00 PM 8.14 46.652 0.401 8.88 5.06 11.84
11/6/2021 8:30:00 PM 8.17 46.706 0.341 8.9 5.28 11.83
11/6/2021 8:45:00 PM 8.2 46.76 0.323 8.9 5.36 11.84
11/6/2021 9:00:00 PM 8.22 46.796 0.322 8.91 5.11 11.8
11/6/2021 9:15:00 PM 8.24 46.832 0.636 8.9 3.78 11.79
11/6/2021 9:30:00 PM 8.26 46.868 0.338 8.87 5.28 11.8
11/6/2021 9:45:00 PM 8.27 46.886 0.576 8.89 5.33 11.79
11/6/2021 10:00:00 PM 8.29 46.922 0.369 8.9 6.13 11.77
11/6/2021 10:15:00 PM 8.3 46.94 0.399 8.88 5.71 11.75
11/6/2021 10:30:00 PM 8.31 46.958 0.385 8.9 5.5 11.75
11/6/2021 10:45:00 PM 8.32 46.976 0.4 8.88 5.57 11.74
11/6/2021 11:00:00 PM 8.32 46.976 0.381 8.89 5.49 11.71
11/6/2021 11:15:00 PM 8.32 46.976 0.274 8.9 5.57 11.7
11/6/2021 11:30:00 PM 8.32 46.976 0.297 8.88 5.71 11.7
11/6/2021 11:45:00 PM 8.31 46.958 0.27 8.89 5.76 11.69
11/7/2021 12:00:00 AM 8.3 46.94 0.372 8.88 5.61 11.66
11/7/2021 12:15:00 AM 8.29 46.922 0.339 8.88 5.54 11.65
11/7/2021 12:30:00 AM 8.28 46.904 0.341 8.88 5.92 11.65
11/7/2021 12:45:00 AM 8.26 46.868 0.365 8.88 6.05 11.63
11/7/2021 1:00:00 AM 8.25 46.85 0.323 8.87 5.72 11.62
11/7/2021 1:15:00 AM 8.23 46.814 0.329 8.84 5.9 11.61
11/7/2021 1:30:00 AM 8.21 46.778 0.38 8.85 12.17 11.59
11/7/2021 1:45:00 AM 8.19 46.742 0.374 8.85 5.63 11.58
11/7/2021 2:00:00 AM 8.16 46.688 0.382 8.83 5.51 11.57
11/7/2021 2:15:00 AM 8.14 46.652 0.435 8.85 6.34 11.56
11/7/2021 2:30:00 AM 8.11 46.598 0.382 8.83 5.84 11.54
11/7/2021 2:45:00 AM 8.07 46.526 0.426 8.84 6.01 11.54
11/7/2021 3:00:00 AM 8.04 46.472 0.312 8.82 5.38 11.54
11/7/2021 3:15:00 AM 7.86 46.148 0.358 8.81 5.73 11.52
11/7/2021 3:30:00 AM 7.82 46.076 0.274 8.82 6.62 11.52
11/7/2021 3:45:00 AM 7.78 46.004 0.561 8.81 6.11 11.53
11/7/2021 4:00:00 AM 7.75 45.95 0.621 8.82 6.07 11.52
11/7/2021 4:15:00 AM 7.71 45.878 0.454 8.82 5.55 11.52
11/7/2021 4:30:00 AM 7.67 45.806 0.292 8.81 5.95 11.51
11/7/2021 4:45:00 AM 7.63 45.734 0.619 8.79 5.98 11.51
11/7/2021 5:00:00 AM 7.59 45.662 0.363 8.8 6.14 11.53
11/7/2021 5:15:00 AM 7.55 45.59 0.616 8.81 6.17 11.54
11/7/2021 5:30:00 AM 7.51 45.518 0.403 8.79 6.08 11.55
11/7/2021 5:45:00 AM 7.47 45.446 0.37 8.77 5.94 11.56
11/7/2021 6:00:00 AM 7.43 45.374 0.399 8.78 6.38 11.57
11/7/2021 6:15:00 AM 7.39 45.302 0.282 8.8 6.16 11.57
11/7/2021 6:30:00 AM 7.35 45.23 0.402 8.79 6.16 11.57
11/7/2021 6:45:00 AM 7.31 45.158 0.273 8.8 6.38 11.6
11/7/2021 7:00:00 AM 7.27 45.086 0.617 8.8 6.04 11.6
11/7/2021 7:15:00 AM 7.23 45.014 0.364 8.78 6.06 11.62
11/7/2021 7:30:00 AM 7.2 44.96 0.414 8.79 6.05 11.63
11/7/2021 7:45:00 AM 7.16 44.888 0.368 8.8 6.2 11.66
11/7/2021 8:00:00 AM 7.14 44.852 0.374 8.8 6.28 11.67
11/7/2021 8:15:00 AM 7.11 44.798 0.377 8.77 5.9 11.7
11/7/2021 8:30:00 AM 7.1 44.78 0.4 8.78 7.03 11.75
11/7/2021 8:45:00 AM 7.1 44.78 0.356 8.78 6.31 11.8
11/7/2021 9:00:00 AM 7.1 44.78 0.319 8.78 5.98 11.81
11/7/2021 9:15:00 AM 7.11 44.798 0.374 8.85 6.17 11.83
11/7/2021 9:30:00 AM 7.13 44.834 0.373 8.79 5.83 11.84
11/7/2021 9:45:00 AM 7.14 44.852 0.405 8.82 5.86 11.85
11/7/2021 10:00:00 AM 7.16 44.888 0.283 8.82 6.21 11.84
11/7/2021 10:15:00 AM 7.18 44.924 0.275 8.83 5.91 11.86
11/7/2021 10:30:00 AM 7.19 44.942 0.181 8.81 5.88 11.85
11/7/2021 10:45:00 AM 7.22 44.996 0.365 8.81 5.55 11.86
11/7/2021 11:00:00 AM 7.23 45.014 0.329 8.81 5.52 11.87
11/7/2021 11:15:00 AM 7.24 45.032 0.393 8.83 6.05 11.86
11/7/2021 11:30:00 AM 7.26 45.068 0.283 8.83 5.68 11.86
11/7/2021 11:45:00 AM 7.28 45.104 0.362 8.83 5.58 11.85
11/7/2021 12:00:00 PM 7.26 45.068 0.281 8.84 5.87 11.86
11/7/2021 12:15:00 PM 7.29 45.122 0.341 8.81 5.76 11.86
11/7/2021 12:30:00 PM 7.3 45.14 0.366 8.85 5.37 11.86
11/7/2021 12:45:00 PM 7.32 45.176 0.406 8.83 5.62 11.88
11/7/2021 1:00:00 PM 7.33 45.194 0.378 8.81 5.52 11.88
11/7/2021 1:15:00 PM 7.37 45.266 0.404 8.84 5.62 11.88
11/7/2021 1:30:00 PM 7.39 45.302 0.342 8.83 5.82 11.87
11/7/2021 1:45:00 PM 7.43 45.374 0.292 8.84 5.7 11.86
11/7/2021 2:00:00 PM 7.48 45.464 0.373 8.8 5.97 11.84
11/7/2021 2:15:00 PM 7.52 45.536 0.319 8.83 5.58 11.84
11/7/2021 2:30:00 PM 7.57 45.626 0.318 8.84 5.19 11.83
11/7/2021 2:45:00 PM 7.62 45.716 0.289 8.85 5.55 11.83
11/7/2021 3:00:00 PM 7.66 45.788 0.335 8.86 6.69 11.83
11/7/2021 3:15:00 PM 7.72 45.896 0.351 8.86 5.21 11.85
11/7/2021 3:30:00 PM 7.76 45.968 0.55 8.88 5.38 11.83
11/7/2021 3:45:00 PM 7.8 46.04 0.36 8.86 5.48 11.85
11/7/2021 4:00:00 PM 7.83 46.094 0.294 8.87 5.28 11.84
11/7/2021 4:15:00 PM 7.85 46.13 0.392 8.87 5.73 11.84
11/7/2021 4:30:00 PM 7.87 46.166 0.287 8.87 5.8 11.84
11/7/2021 4:45:00 PM 7.88 46.184 0.298 8.89 5.83 11.84
11/7/2021 5:00:00 PM 7.9 46.22 0.372 8.82 6.08 11.83
11/7/2021 5:15:00 PM 7.9 46.22 0.614 8.88 5.57 11.84
11/7/2021 5:30:00 PM 7.91 46.238 0.617 8.87 5.82 11.84
11/7/2021 5:45:00 PM 7.92 46.256 0.357 8.88 5.86 11.86
11/7/2021 6:00:00 PM 7.93 46.274 0.383 8.85 5.87 11.85
11/7/2021 6:15:00 PM 7.94 46.292 0.375 8.88 5.86 11.86
11/7/2021 6:30:00 PM 7.96 46.328 0.324 8.87 11.76 11.83
11/7/2021 6:45:00 PM 7.99 46.382 0.277 8.9 6.93 11.83
11/7/2021 7:00:00 PM 8.02 46.436 0.375 8.89 5.76 11.84
11/7/2021 7:15:00 PM 8.05 46.49 0.231 8.89 6.23 11.84
11/7/2021 7:30:00 PM 8.09 46.562 0.331 8.88 5.84 11.85
11/7/2021 7:45:00 PM 8.12 46.616 0.286 8.91 5.5 11.82
11/7/2021 8:00:00 PM 8.15 46.67 0.373 8.89 6.21 11.82
11/7/2021 8:15:00 PM 8.17 46.706 0.359 8.9 5.91 11.83
11/7/2021 8:30:00 PM 8.19 46.742 0.411 8.91 5.69 11.82
11/7/2021 8:45:00 PM 8.22 46.796 0.319 8.9 5.48 11.78
11/7/2021 9:00:00 PM 8.24 46.832 0.311 8.92 5.47 11.77
11/7/2021 9:15:00 PM 8.25 46.85 0.343 8.9 5.93 11.76
11/7/2021 9:30:00 PM 8.27 46.886 0.359 8.91 5.79 11.72
11/7/2021 9:45:00 PM 8.28 46.904 0.382 8.91 5.63 11.74
11/7/2021 10:00:00 PM 8.28 46.904 0.401 8.89 6.35 11.74
11/7/2021 10:15:00 PM 8.29 46.922 0.549 8.9 5.74 11.73
11/7/2021 10:30:00 PM 8.29 46.922 0.39 8.89 6.36 11.72
11/7/2021 10:45:00 PM 8.29 46.922 0.414 8.93 5.78 11.69
11/7/2021 11:00:00 PM 8.29 46.922 0.351 8.89 6.07 11.68
11/7/2021 11:15:00 PM 8.29 46.922 0.414 8.89 5.56 11.66
11/7/2021 11:30:00 PM 8.29 46.922 0.388 8.88 6.32 11.65
11/7/2021 11:45:00 PM 8.29 46.922 0.34 8.89 5.98 11.63
11/8/2021 12:00:00 AM 8.29 46.922 0.339 8.89 6.58 11.61
11/8/2021 12:15:00 AM 8.28 46.904 0.395 8.86 6.19 11.59
11/8/2021 12:30:00 AM 8.27 46.886 0.394 8.87 5.88 11.58
11/8/2021 12:45:00 AM 8.26 46.868 0.397 8.85 6.32 11.55
11/8/2021 1:00:00 AM 8.24 46.832 0.342 8.85 6.34 11.53
11/8/2021 1:15:00 AM 8.23 46.814 0.399 8.85 7.07 11.53
11/8/2021 1:30:00 AM 8.21 46.778 0.396 8.85 6.37 11.5
11/8/2021 1:45:00 AM 8.19 46.742 0.323 8.84 6.03 11.49
11/8/2021 2:00:00 AM 8.17 46.706 0.394 8.84 6.35 11.48
11/8/2021 2:15:00 AM 8.15 46.67 0.409 8.85 6.93 11.46
11/8/2021 2:30:00 AM 8.13 46.634 0.562 8.82 6.5 11.45
11/8/2021 2:45:00 AM 8.11 46.598 0.384 8.82 6.5 11.46
11/8/2021 3:00:00 AM 8.08 46.544 0.377 8.83 6.79 11.44
11/8/2021 3:15:00 AM 8.06 46.508 0.425 8.83 7.1 11.44
11/8/2021 3:30:00 AM 8.04 46.472 0.408 8.8 6.41 11.43
11/8/2021 3:45:00 AM 8.02 46.436 0.339 8.83 6.6 11.43
11/8/2021 4:00:00 AM 7.99 46.382 0.562 8.83 6.43 11.42
11/8/2021 4:15:00 AM 7.97 46.346 0.316 8.81 6.57 11.43
11/8/2021 4:30:00 AM 7.94 46.292 0.334 8.82 6.32 11.43
11/8/2021 4:45:00 AM 7.92 46.256 0.374 8.81 6.37 11.42
11/8/2021 5:00:00 AM 7.89 46.202 0.389 8.79 5.86 11.42
11/8/2021 5:15:00 AM 7.86 46.148 0.315 8.79 6.28 11.42
11/8/2021 5:30:00 AM 7.84 46.112 0.254 8.8 6.32 11.43
11/8/2021 5:45:00 AM 7.81 46.058 0.362 8.81 6.11 11.42
11/8/2021 6:00:00 AM 7.79 46.022 0.388 8.77 6.3 11.42
11/8/2021 6:15:00 AM 7.76 45.968 0.562 8.78 7.02 11.42
11/8/2021 6:30:00 AM 7.73 45.914 0.328 8.78 6.24 11.42
11/8/2021 6:45:00 AM 7.71 45.878 0.305 8.8 6.51 11.43
11/8/2021 7:00:00 AM 7.68 45.824 0.372 8.82 6.17 11.44
11/8/2021 7:15:00 AM 7.66 45.788 0.374 8.79 6.33 11.46
11/8/2021 7:30:00 AM 7.65 45.77 0.562 8.82 6.63 11.47
11/8/2021 7:45:00 AM 7.64 45.752 0.285 8.79 6 11.49
11/8/2021 8:00:00 AM 7.64 45.752 0.317 8.78 6.43 11.52
11/8/2021 8:15:00 AM 7.65 45.77 0.363 8.81 6.62 11.54
11/8/2021 8:30:00 AM 7.66 45.788 0.364 8.82 6.27 11.57
11/8/2021 8:45:00 AM 7.68 45.824 0.621 8.82 6.47 11.57
11/8/2021 9:00:00 AM 7.69 45.842 0.402 8.8 8.17 11.57
11/8/2021 9:15:00 AM 7.71 45.878 0.236 8.81 6.41 11.63
11/8/2021 9:30:00 AM 7.74 45.932 0.333 8.78 6.94 11.64
11/8/2021 9:45:00 AM 7.76 45.968 0.243 8.82 10.54 11.64
11/8/2021 10:00:00 AM 7.79 46.022 0.413 8.81 7.56 11.61
11/8/2021 10:15:00 AM 7.82 46.076 0.323 8.81 6.47 11.66
11/8/2021 10:30:00 AM 7.84 46.112 0.558 8.83 6.98 11.66
11/8/2021 10:45:00 AM 7.87 46.166 0.283 8.82 25.49 11.66
11/8/2021 11:00:00 AM 7.89 46.202 0.358 8.81 6.66 11.64
11/8/2021 11:15:00 AM 7.93 46.274 0.353 8.81 6.53 11.65
11/8/2021 11:30:00 AM 7.96 46.328 0.404 8.83 6.08 11.66
11/8/2021 11:45:00 AM 7.97 46.346 0.303 8.83 6.14 11.65
11/8/2021 12:00:00 PM 8.01 46.418 0.382 8.82 6.44 11.64
11/8/2021 12:15:00 PM 8.04 46.472 0.35 8.82 6.36 11.65
11/8/2021 12:30:00 PM 8.07 46.526 0.366 8.83 6.17 11.64
11/8/2021 12:45:00 PM 8.11 46.598 0.4 8.83 5.91 11.65
11/8/2021 1:00:00 PM 8.14 46.652 0.615 8.83 5.57 11.61
11/8/2021 1:15:00 PM 8.18 46.724 0.291 8.84 6.33 11.63
11/8/2021 1:30:00 PM 8.21 46.778 0.365 8.84 5.56 11.64
11/8/2021 1:45:00 PM 8.26 46.868 0.326 8.84 4.77 11.61
11/8/2021 2:00:00 PM 8.31 46.958 0.387 8.82 6.22 11.61
11/8/2021 2:15:00 PM 8.36 47.048 0.327 8.85 6.1 11.58
11/8/2021 2:30:00 PM 8.43 47.174 0.272 8.85 5.68 11.55
11/8/2021 2:45:00 PM 8.49 47.282 0.404 8.85 6.2 11.55
11/8/2021 3:00:00 PM 8.56 47.408 0.352 8.84 5.29 11.55
11/8/2021 3:15:00 PM 8.63 47.534 0.352 8.85 6.2 11.54
11/8/2021 3:30:00 PM 8.7 47.66 0.294 8.83 6.25 11.54
11/8/2021 3:45:00 PM 8.77 47.786 0.37 8.83 6.52 11.54
11/8/2021 4:00:00 PM 8.82 47.876 0.371 8.87 5.97 11.55
11/8/2021 4:15:00 PM 8.86 47.948 0.609 8.89 5.38 11.53
11/8/2021 4:30:00 PM 8.9 48.02 0.609 8.87 6.02 11.54
11/8/2021 4:45:00 PM 8.91 48.038 0.401 8.88 5.17 11.54
11/8/2021 5:00:00 PM 8.92 48.056 0.551 8.87 5.15 11.54
11/8/2021 5:15:00 PM 8.92 48.056 0.387 8.88 6.2 11.55
11/8/2021 5:30:00 PM 8.91 48.038 0.361 8.88 5.65 11.57
11/8/2021 5:45:00 PM 8.91 48.038 0.553 8.89 6.06 11.58
11/8/2021 6:00:00 PM 8.92 48.056 0.389 8.87 5.85 11.59
11/8/2021 6:15:00 PM 8.93 48.074 0.373 8.89 4.93 11.58
11/8/2021 6:30:00 PM 8.95 48.11 0.384 8.87 5.38 11.57
11/8/2021 6:45:00 PM 8.97 48.146 0.321 8.89 5.18 11.58
11/8/2021 7:00:00 PM 9.01 48.218 0.333 8.9 6.3 11.57
11/8/2021 7:15:00 PM 9.05 48.29 0.368 8.92 5.51 11.58
11/8/2021 7:30:00 PM 9.09 48.362 0.326 8.95 5.46 11.58
11/8/2021 7:45:00 PM 9.14 48.452 0.363 8.93 5.5 11.55
11/8/2021 8:00:00 PM 9.18 48.524 0.397 8.9 5.65 11.55
11/8/2021 8:15:00 PM 9.22 48.596 0.324 8.9 5.82 11.51
11/8/2021 8:30:00 PM 9.27 48.686 0.545 8.9 5.8 11.52
11/8/2021 8:45:00 PM 9.3 48.74 0.564 8.92 5.53 11.49
11/8/2021 9:00:00 PM 9.34 48.812 0.547 8.95 5.62 11.49
11/8/2021 9:15:00 PM 9.37 48.866 0.332 8.91 5.25 11.46
11/8/2021 9:30:00 PM 9.4 48.92 0.315 8.9 5.43 11.46
11/8/2021 9:45:00 PM 9.43 48.974 0.565 8.91 5.78 11.42
11/8/2021 10:00:00 PM 9.45 49.01 0.385 8.89 6.04 11.41
11/8/2021 10:15:00 PM 9.47 49.046 0.322 8.92 5.54 11.39
11/8/2021 10:30:00 PM 9.49 49.082 0.252 8.91 5.41 11.38
11/8/2021 10:45:00 PM 9.5 49.1 0.371 8.9 5.67 11.35
11/8/2021 11:00:00 PM 9.51 49.118 0.384 8.89 5.69 11.33
11/8/2021 11:15:00 PM 9.52 49.136 0.382 8.89 5.69 11.31
11/8/2021 11:30:00 PM 9.53 49.154 0.346 8.9 5.7 11.29
11/8/2021 11:45:00 PM 9.53 49.154 0.337 8.91 5.9 11.28
11/9/2021 12:00:00 AM 9.53 49.154 0.375 8.89 5.46 11.25
11/9/2021 12:15:00 AM 9.52 49.136 0.375 8.88 5.88 11.23
11/9/2021 12:30:00 AM 9.51 49.118 0.626 8.89 5.79 11.21
11/9/2021 12:45:00 AM 9.5 49.1 0.547 8.87 6.2 11.18
11/9/2021 1:00:00 AM 9.49 49.082 0.303 8.87 5.98 11.17
11/9/2021 1:15:00 AM 9.48 49.064 0.546 8.86 8.75 11.14
11/9/2021 1:30:00 AM 9.46 49.028 0.38 8.84 6.06 11.13
11/9/2021 1:45:00 AM 9.44 48.992 0.564 8.85 5.49 11.12
11/9/2021 2:00:00 AM 9.42 48.956 0.304 8.84 6.17 11.11
11/9/2021 2:15:00 AM 9.39 48.902 0.563 8.84 5.81 11.09
11/9/2021 2:30:00 AM 9.37 48.866 0.381 8.83 5.95 11.08
11/9/2021 2:45:00 AM 9.34 48.812 0.563 8.83 5.8 11.04
11/9/2021 3:00:00 AM 9.32 48.776 0.315 8.82 6.19 11.06
11/9/2021 3:15:00 AM 9.29 48.722 0.328 8.79 6.56 11.04
11/9/2021 3:30:00 AM 9.26 48.668 0.38 8.81 6.21 11.05
11/9/2021 3:45:00 AM 9.24 48.632 0.319 8.81 5.93 11.04
11/9/2021 4:00:00 AM 9.21 48.578 0.371 8.81 6.69 11.03
11/9/2021 4:15:00 AM 9.18 48.524 0.398 8.79 5.96 11.01
11/9/2021 4:30:00 AM 9.15 48.47 0.362 8.8 5.98 11.02
11/9/2021 4:45:00 AM 9.12 48.416 0.394 8.8 6.32 11.02
11/9/2021 5:00:00 AM 9.09 48.362 0.371 8.79 6.25 11.03
11/9/2021 5:15:00 AM 9.06 48.308 0.29 8.79 6.39 11.02
11/9/2021 5:30:00 AM 9.03 48.254 0.381 8.79 6 11.03
11/9/2021 5:45:00 AM 9 48.2 0.337 8.77 5.9 11.02
11/9/2021 6:00:00 AM 8.97 48.146 0.413 8.78 6.04 11.03
11/9/2021 6:15:00 AM 8.93 48.074 0.371 8.78 6.41 11.03
11/9/2021 6:30:00 AM 8.91 48.038 0.325 8.78 6.24 11.02
11/9/2021 6:45:00 AM 8.87 47.966 0.563 8.78 13.83 11.03
11/9/2021 7:00:00 AM 8.84 47.912 0.303 8.77 7.52 11.05
11/9/2021 7:15:00 AM 8.81 47.858 0.313 8.76 5.97 11.07
11/9/2021 7:30:00 AM 8.79 47.822 0.321 8.76 5.98 11.1
11/9/2021 7:45:00 AM 8.78 47.804 0.295 8.77 7.15 11.12
11/9/2021 8:00:00 AM 8.77 47.786 0.296 8.78 6.48 11.16
11/9/2021 8:15:00 AM 8.77 47.786 0.297 8.78 6.32 11.17
11/9/2021 8:30:00 AM 8.77 47.786 0.393 8.79 6.34 11.2
11/9/2021 8:45:00 AM 8.77 47.786 0.388 8.77 6.64 11.23
11/9/2021 9:00:00 AM 8.77 47.786 0.271 8.8 6.33 11.25
11/9/2021 9:15:00 AM 8.78 47.804 0.418 8.79 6.1 11.27
11/9/2021 9:30:00 AM 8.8 47.84 0.563 8.82 5.7 11.29
11/9/2021 9:45:00 AM 8.81 47.858 0.422 8.8 7.64 11.3
11/9/2021 10:00:00 AM 8.84 47.912 0.326 8.78 6.67 11.31
11/9/2021 10:15:00 AM 8.86 47.948 0.341 8.78 7.43 11.3
11/9/2021 10:30:00 AM 8.88 47.984 0.316 8.8 6.36 11.31
11/9/2021 10:45:00 AM 8.91 48.038 0.304 8.81 6.48 11.32
11/9/2021 11:00:00 AM 8.92 48.056 0.32 8.8 6.62 11.32
11/9/2021 11:15:00 AM 8.94 48.092 0.32 8.78 6.52 11.32
11/9/2021 11:30:00 AM 8.95 48.11 0.37 8.81 6.36 11.31
11/9/2021 11:45:00 AM 8.98 48.164 0.402 8.79 6.57 11.32
11/9/2021 12:00:00 PM 8.99 48.182 0.304 8.8 5.84 11.33
11/9/2021 12:15:00 PM 9.01 48.218 0.32 8.83 6.24 11.32
11/9/2021 12:30:00 PM 9.03 48.254 0.24 8.81 5.96 11.32
11/9/2021 12:45:00 PM 9.05 48.29 0.303 8.81 5.96 11.34
11/9/2021 1:00:00 PM 9.06 48.308 0.305 8.81 6.22 11.32
11/9/2021 1:15:00 PM 9.09 48.362 0.276 8.83 6.2 11.32
11/9/2021 1:30:00 PM 9.12 48.416 0.376 8.82 6.01 11.31
11/9/2021 1:45:00 PM 9.15 48.47 0.365 8.8 6 11.31
11/9/2021 2:00:00 PM 9.17 48.506 0.278 8.83 5.98 11.3
11/9/2021 2:15:00 PM 9.2 48.56 0.308 8.8 5.69 11.29
11/9/2021 2:30:00 PM 9.25 48.65 0.605 8.83 6.22 11.29
11/9/2021 2:45:00 PM 9.3 48.74 0.326 8.84 6.38 11.26
11/9/2021 3:00:00 PM 9.35 48.83 0.357 8.83 6.27 11.27
11/9/2021 3:15:00 PM 9.4 48.92 0.375 8.81 6.49 11.25
11/9/2021 3:30:00 PM 9.45 49.01 0.363 8.83 7.17 11.25
11/9/2021 3:45:00 PM 9.52 49.136 0.315 8.81 5.91 11.26
11/9/2021 4:00:00 PM 9.57 49.226 0.304 8.83 5.94 11.25
11/9/2021 4:15:00 PM 9.62 49.316 0.36 8.85 5.97 11.25
11/9/2021 4:30:00 PM 9.66 49.388 0.356 8.85 5.84 11.25
11/9/2021 4:45:00 PM 9.68 49.424 0.391 8.83 5.85 11.25
11/9/2021 5:00:00 PM 9.69 49.442 0.353 8.86 5.62 11.26
11/9/2021 5:15:00 PM 9.69 49.442 0.468 8.88 6.44 11.25
11/9/2021 5:30:00 PM 9.69 49.442 0.451 8.9 3.76 11.28
11/9/2021 5:45:00 PM 9.68 49.424 0.444 8.9 3.69 11.29
11/9/2021 6:00:00 PM 9.69 49.442 0.444 8.91 3.85 11.29
11/9/2021 6:15:00 PM 9.7 49.46 0.437 8.91 3.85 11.31
11/9/2021 6:30:00 PM 9.71 49.478 0.43 8.91 3.86 11.31
11/9/2021 6:45:00 PM 9.74 49.532 0.426 8.91 3.84 11.3
11/9/2021 7:00:00 PM 9.77 49.586 0.418 8.92 3.84 11.29
11/9/2021 7:15:00 PM 9.81 49.658 0.401 8.92 3.8 11.3
11/9/2021 7:30:00 PM 9.85 49.73 0.384 8.92 3.77 11.3
11/9/2021 7:45:00 PM 9.91 49.838 0.375 8.92 3.95 11.26
11/9/2021 8:00:00 PM 9.97 49.946 0.368 8.93 3.95 11.3
11/9/2021 8:15:00 PM 10.02 50.036 0.361 8.84 3.73 11.29
11/9/2021 8:30:00 PM 10.06 50.108 0.351 8.94 3.88 11.27
11/9/2021 8:45:00 PM 10.11 50.198 0.347 8.94 3.91 11.26
11/9/2021 9:00:00 PM 10.16 50.288 0.344 8.94 3.94 11.24
11/9/2021 9:15:00 PM 10.2 50.36 0.323 8.85 4.01 11.24
11/9/2021 9:30:00 PM 10.24 50.432 0.169 8.75 19.7 11.21
11/9/2021 9:45:00 PM 10.28 50.504 0.399 8.91 7.11 11.2
11/9/2021 10:00:00 PM 10.32 50.576 0.372 8.89 7.33 11.18
11/9/2021 10:15:00 PM 10.35 50.63 0.378 8.91 6.39 11.14
11/9/2021 10:30:00 PM 10.38 50.684 0.562 8.88 6.2 11.11
11/9/2021 10:45:00 PM 10.41 50.738 0.418 8.88 6.03 11.1
11/9/2021 11:00:00 PM 10.43 50.774 0.563 8.88 6.06 11.07
11/9/2021 11:15:00 PM 10.44 50.792 0.38 8.9 5.72 11.05
11/9/2021 11:30:00 PM 10.46 50.828 0.421 8.9 5.89 11.02
11/9/2021 11:45:00 PM 10.47 50.846 0.388 8.89 5.92 11
11/10/2021 12:00:00 AM 10.49 50.882 0.4 8.91 6.16 10.96
11/10/2021 12:15:00 AM 10.5 50.9 0.378 8.89 5.91 10.94
11/10/2021 12:30:00 AM 10.51 50.918 0.37 8.88 6.42 10.9
11/10/2021 12:45:00 AM 10.52 50.936 0.34 8.82 6.22 10.88
11/10/2021 1:00:00 AM 10.52 50.936 0.402 8.86 7.48 10.85
11/10/2021 1:15:00 AM 10.52 50.936 0.342 8.85 6.47 10.82
11/10/2021 1:30:00 AM 10.52 50.936 0.41 8.84 6.84 10.81
11/10/2021 1:45:00 AM 10.52 50.936 0.413 8.82 8.3 10.78
11/10/2021 2:00:00 AM 10.52 50.936 0.56 8.83 7.86 10.75
11/10/2021 2:15:00 AM 10.52 50.936 0.558 8.84 7.25 10.73
11/10/2021 2:30:00 AM 10.51 50.918 0.42 8.83 6.75 10.71
11/10/2021 2:45:00 AM 10.51 50.918 0.402 8.81 6.33 10.69
11/10/2021 3:00:00 AM 10.5 50.9 0.387 8.82 6.19 10.68
11/10/2021 3:15:00 AM 10.49 50.882 0.398 8.78 5.82 10.67
11/10/2021 3:30:00 AM 10.49 50.882 0.389 8.81 6.77 10.66
11/10/2021 3:45:00 AM 10.48 50.864 0.367 8.81 5.99 10.61
11/10/2021 4:00:00 AM 10.47 50.846 0.421 8.79 6.19 10.59
11/10/2021 4:15:00 AM 10.46 50.828 0.401 8.78 6.6 10.61
11/10/2021 4:30:00 AM 10.45 50.81 0.391 8.79 6.28 10.6
11/10/2021 4:45:00 AM 10.44 50.792 0.401 8.79 7.78 10.59
11/10/2021 5:00:00 AM 10.43 50.774 0.362 8.78 6.45 10.57
11/10/2021 5:15:00 AM 10.42 50.756 0.371 8.78 6.59 10.58
11/10/2021 5:30:00 AM 10.4 50.72 0.394 8.79 6.55 10.57
11/10/2021 5:45:00 AM 10.39 50.702 0.385 8.77 6.36 10.57
11/10/2021 6:00:00 AM 10.37 50.666 0.327 8.73 6.17 10.57
11/10/2021 6:15:00 AM 10.35 50.63 0.393 8.76 6.51 10.56
11/10/2021 6:30:00 AM 10.33 50.594 0.361 8.76 6.25 10.55
11/10/2021 6:45:00 AM 10.31 50.558 0.389 8.75 6.73 10.56
11/10/2021 7:00:00 AM 10.28 50.504 0.329 8.76 5.98 10.57
11/10/2021 7:15:00 AM 10.27 50.486 0.383 8.76 6.39 10.58
11/10/2021 7:30:00 AM 10.26 50.468 0.286 8.76 5.77 10.6
11/10/2021 7:45:00 AM 10.25 50.45 0.39 8.76 6.39 10.63
11/10/2021 8:00:00 AM 10.26 50.468 0.39 8.79 6.13 10.66
11/10/2021 8:15:00 AM 10.26 50.468 0.35 8.75 8.44 10.68
11/10/2021 8:30:00 AM 10.28 50.504 0.394 8.76 6.62 10.72
11/10/2021 8:45:00 AM 10.3 50.54 0.39 8.75 6.19 10.74
11/10/2021 9:00:00 AM 10.32 50.576 0.411 8.81 6.37 10.75
11/10/2021 9:15:00 AM 10.33 50.594 0.403 8.79 6.93 10.74
11/10/2021 9:30:00 AM 10.36 50.648 0.395 8.81 7.85 10.78
11/10/2021 9:45:00 AM 10.38 50.684 0.324 8.81 6.23 10.81
11/10/2021 10:00:00 AM 10.42 50.756 0.349 8.79 6.02 10.85
11/10/2021 10:15:00 AM 10.49 50.882 0.34 8.78 6.92 10.86
11/10/2021 10:30:00 AM 10.49 50.882 0.281 8.78 6.33 10.84
11/10/2021 10:45:00 AM 10.5 50.9 0.397 8.8 6.66 10.85
11/10/2021 11:00:00 AM 10.54 50.972 0.319 8.77 6.15 10.85
11/10/2021 11:15:00 AM 10.57 51.026 0.405 8.8 5.78 10.86
11/10/2021 11:30:00 AM 10.59 51.062 0.395 8.79 6.3 10.86
11/10/2021 11:45:00 AM 10.61 51.098 0.368 8.81 5.95 10.85
11/10/2021 12:00:00 PM 10.64 51.152 0.401 8.81 7.11 10.86
11/10/2021 12:15:00 PM 10.67 51.206 0.39 8.81 5.72 10.86
11/10/2021 12:30:00 PM 10.7 51.26 0.37 8.81 5.66 10.85
11/10/2021 12:45:00 PM 10.72 51.296 0.382 8.83 5.66 10.86
11/10/2021 1:00:00 PM 10.71 51.278 0.389 8.82 9.58 10.85
11/10/2021 1:15:00 PM 10.74 51.332 0.535 8.82 5.61 10.83
11/10/2021 1:30:00 PM 10.77 51.386 0.553 8.8 5.85 10.82
11/10/2021 1:45:00 PM 10.77 51.386 0.262 8.81 6.3 10.82
11/10/2021 2:00:00 PM 10.8 51.44 0.413 8.81 6.04 10.79
11/10/2021 2:15:00 PM 10.83 51.494 0.364 8.78 5.61 10.77
11/10/2021 2:30:00 PM 10.86 51.548 0.408 8.8 6.09 10.76
11/10/2021 2:45:00 PM 10.88 51.584 0.343 8.82 5.94 10.75
11/10/2021 3:00:00 PM 10.93 51.674 0.366 8.81 5.92 10.75
11/10/2021 3:15:00 PM 10.98 51.764 0.549 8.84 5.49 10.74
11/10/2021 3:30:00 PM 11.01 51.818 0.408 8.81 5.76 10.74
11/10/2021 3:45:00 PM 11.04 51.872 0.368 8.79 5.73 10.74
11/10/2021 4:00:00 PM 11.08 51.944 0.409 8.82 6.25 10.75
11/10/2021 4:15:00 PM 11.12 52.016 0.342 8.82 5.9 10.75
11/10/2021 4:30:00 PM 11.14 52.052 0.384 8.86 6.44 10.67
11/10/2021 4:45:00 PM 11.16 52.088 0.34 8.84 6.15 10.76
11/10/2021 5:00:00 PM 11.17 52.106 0.387 8.83 5.65 10.77
11/10/2021 5:15:00 PM 11.17 52.106 0.547 8.84 6.14 10.8
11/10/2021 5:30:00 PM 11.16 52.088 0.411 8.85 5.9 10.83
11/10/2021 5:45:00 PM 11.14 52.052 0.321 8.86 5.81 10.81
11/10/2021 6:00:00 PM 11.12 52.016 0.342 8.85 6.16 10.85
11/10/2021 6:15:00 PM 11.11 51.998 0.305 8.86 5.7 10.86
11/10/2021 6:30:00 PM 11.1 51.98 0.334 8.85 5.65 10.86
11/10/2021 6:45:00 PM 11.09 51.962 0.335 8.87 5.59 10.85
11/10/2021 7:00:00 PM 11.09 51.962 0.551 8.87 5.68 10.87
11/10/2021 7:15:00 PM 11.1 51.98 0.345 8.88 5.57 10.89
11/10/2021 7:30:00 PM 11.12 52.016 0.535 8.87 6.38 10.91
11/10/2021 7:45:00 PM 11.14 52.052 0.39 8.86 6.22 10.92
11/10/2021 8:00:00 PM 11.17 52.106 0.374 8.87 5.33 10.91
11/10/2021 8:15:00 PM 11.19 52.142 0.376 8.89 5.55 10.93
11/10/2021 8:30:00 PM 11.21 52.178 0.342 8.91 6.17 10.93
11/10/2021 8:45:00 PM 11.24 52.232 0.37 8.9 6.03 10.92
11/10/2021 9:00:00 PM 11.26 52.268 0.347 8.9 5.86 10.91
11/10/2021 9:15:00 PM 11.27 52.286 0.357 8.88 6.71 10.91
11/10/2021 9:30:00 PM 11.29 52.322 0.38 8.85 5.99 10.91
11/10/2021 9:45:00 PM 11.3 52.34 0.544 8.92 5.62 10.9
11/10/2021 10:00:00 PM 11.3 52.34 0.396 8.92 6.4 10.9
11/10/2021 10:15:00 PM 11.31 52.358 0.545 8.91 6.54 10.88
11/10/2021 10:30:00 PM 11.31 52.358 0.324 8.92 6.04 10.86
11/10/2021 10:45:00 PM 11.3 52.34 0.412 8.9 6.19 10.85
11/10/2021 11:00:00 PM 11.3 52.34 0.547 8.91 6.13 10.83
11/10/2021 11:15:00 PM 11.29 52.322 0.275 8.91 6.88 10.81
11/10/2021 11:30:00 PM 11.28 52.304 0.409 8.91 6.29 10.8
11/10/2021 11:45:00 PM 11.27 52.286 0.322 8.8 6.05 10.77
11/11/2021 12:00:00 AM 11.25 52.25 0.377 8.89 6.54 10.76
11/11/2021 12:15:00 AM 11.24 52.232 0.41 8.88 6.07 10.74
11/11/2021 12:30:00 AM 11.21 52.178 0.359 8.87 6.48 10.73
11/11/2021 12:45:00 AM 11.19 52.142 0.548 8.87 6.1 10.71
11/11/2021 1:00:00 AM 11.18 52.124 0.361 8.85 5.64 10.68
11/11/2021 1:15:00 AM 11.16 52.088 0.548 8.86 5.84 10.66
11/11/2021 1:30:00 AM 11.13 52.034 0.387 8.83 5.81 10.64
11/11/2021 1:45:00 AM 11.1 51.98 0.394 8.86 6.62 10.63
11/11/2021 2:00:00 AM 11.06 51.908 0.325 8.87 6.02 10.62
11/11/2021 2:15:00 AM 11.02 51.836 0.276 8.84 5.98 10.6
11/11/2021 2:30:00 AM 10.99 51.782 0.401 8.85 5.76 10.59
11/11/2021 2:45:00 AM 10.96 51.728 0.358 8.82 5.26 10.58
11/11/2021 3:00:00 AM 10.92 51.656 0.4 8.83 5.65 10.57
11/11/2021 3:15:00 AM 10.88 51.584 0.382 8.82 5.75 10.54
11/11/2021 3:30:00 AM 10.85 51.53 0.374 8.82 6.42 10.54
11/11/2021 3:45:00 AM 10.81 51.458 0.291 8.8 5.59 10.53
11/11/2021 4:00:00 AM 10.77 51.386 0.355 8.81 5.99 10.53
11/11/2021 4:15:00 AM 10.73 51.314 0.376 8.78 6.36 10.51
11/11/2021 4:30:00 AM 10.7 51.26 0.378 8.81 6.4 10.51
11/11/2021 4:45:00 AM 10.66 51.188 0.327 8.8 6 10.5
11/11/2021 5:00:00 AM 10.62 51.116 0.351 8.78 6.25 10.52
11/11/2021 5:15:00 AM 10.58 51.044 0.384 8.75 5.5 10.51
11/11/2021 5:30:00 AM 10.54 50.972 0.275 8.79 6.09 10.51
11/11/2021 5:45:00 AM 10.5 50.9 0.547 8.8 5.9 10.51
11/11/2021 6:00:00 AM 10.45 50.81 0.359 8.8 5.97 10.51
11/11/2021 6:15:00 AM 10.41 50.738 0.318 8.77 5.48 10.51
11/11/2021 6:30:00 AM 10.37 50.666 0.282 8.76 5.57 10.51
11/11/2021 6:45:00 AM 10.33 50.594 0.306 8.75 5.55 10.52
11/11/2021 7:00:00 AM 10.29 50.522 0.322 8.71 5.18 10.51
11/11/2021 7:15:00 AM 10.25 50.45 0.405 8.78 5.8 10.55
11/11/2021 7:30:00 AM 10.22 50.396 0.392 8.73 4.97 10.57
11/11/2021 7:45:00 AM 10.2 50.36 0.405 8.8 5.4 10.6
11/11/2021 8:00:00 AM 10.18 50.324 0.332 8.76 5.42 10.63
11/11/2021 8:15:00 AM 10.18 50.324 0.267 8.77 5.47 10.69
11/11/2021 8:30:00 AM 10.17 50.306 0.4 8.79 6.07 10.72
11/11/2021 8:45:00 AM 10.16 50.288 0.385 8.76 6.92 10.73
11/11/2021 9:00:00 AM 10.15 50.27 0.363 8.78 7.54 10.75
11/11/2021 9:15:00 AM 10.15 50.27 0.391 8.8 5.66 10.78
11/11/2021 9:30:00 AM 10.16 50.288 0.24 8.78 6.81 10.8
11/11/2021 9:45:00 AM 10.16 50.288 0.361 8.78 5.71 10.8
11/11/2021 10:00:00 AM 10.17 50.306 0.319 8.74 5.09 10.84
11/11/2021 10:15:00 AM 10.19 50.342 0.379 8.8 5.78 10.85
11/11/2021 10:30:00 AM 10.2 50.36 0.406 8.81 5.95 10.86
11/11/2021 10:45:00 AM 10.21 50.378 0.394 8.83 5.58 10.84
11/11/2021 11:00:00 AM 10.21 50.378 0.388 8.8 5.04 10.84
11/11/2021 11:15:00 AM 10.22 50.396 0.404 8.83 5.4 10.84
11/11/2021 11:30:00 AM 10.23 50.414 0.345 8.8 6.51 10.85
11/11/2021 11:45:00 AM 10.25 50.45 0.364 8.81 5.96 10.88
11/11/2021 12:00:00 PM 10.26 50.468 0.556 8.79 5.4 10.85
11/11/2021 12:15:00 PM 10.26 50.468 0.322 8.8 5.43 10.86
11/11/2021 12:30:00 PM 10.25 50.45 0.28 8.81 5.59 10.84
11/11/2021 12:45:00 PM 10.25 50.45 0.398 8.83 5.82 10.84
11/11/2021 1:00:00 PM 10.27 50.486 0.352 8.81 5.76 10.87
11/11/2021 1:15:00 PM 10.28 50.504 0.263 8.81 5.77 10.86
11/11/2021 1:30:00 PM 10.28 50.504 0.365 8.78 5.47 10.8
11/11/2021 1:45:00 PM 10.29 50.522 0.267 8.8 5.62 10.79
11/11/2021 2:00:00 PM 10.31 50.558 0.38 8.79 6.25 10.84
11/11/2021 2:15:00 PM 10.34 50.612 0.314 8.8 5.72 10.87
11/11/2021 2:30:00 PM 10.36 50.648 0.416 8.82 5.79 10.87
11/11/2021 2:45:00 PM 10.38 50.684 0.399 8.82 6.7 10.89
11/11/2021 3:00:00 PM 10.4 50.72 0.382 8.81 16.07 10.88
11/11/2021 3:15:00 PM 10.41 50.738 0.349 8.83 6.41 10.85
11/11/2021 3:30:00 PM 10.41 50.738 0.288 8.8 6.17 10.8
11/11/2021 3:45:00 PM 10.42 50.756 0.348 8.84 7.23 10.77
11/11/2021 4:00:00 PM 10.43 50.774 0.329 8.83 6.12 10.8
11/11/2021 4:15:00 PM 10.44 50.792 0.569 8.83 6.23 10.78
11/11/2021 4:30:00 PM 10.45 50.81 0.55 8.82 5.99 10.77
11/11/2021 4:45:00 PM 10.46 50.828 0.314 8.82 6.84 10.8
11/11/2021 5:00:00 PM 10.47 50.846 0.385 8.83 6.08 10.8
11/11/2021 5:15:00 PM 10.48 50.864 0.376 8.84 5.88 10.81
11/11/2021 5:30:00 PM 10.5 50.9 0.324 8.84 6.44 10.84
11/11/2021 5:45:00 PM 10.53 50.954 0.566 8.88 6.92 10.85
11/11/2021 6:00:00 PM 10.55 50.99 0.357 8.85 6 10.88
11/11/2021 6:15:00 PM 10.57 51.026 0.249 8.86 5.41 10.91
11/11/2021 6:30:00 PM 10.6 51.08 0.396 8.86 7.12 10.89
11/11/2021 6:45:00 PM 10.63 51.134 0.562 8.88 6.61 10.93
11/11/2021 7:00:00 PM 10.65 51.17 0.545 8.87 5.63 10.93
11/11/2021 7:15:00 PM 10.67 51.206 0.354 8.88 5.67 10.96
11/11/2021 7:30:00 PM 10.7 51.26 0.406 8.89 5.94 10.98
11/11/2021 7:45:00 PM 10.74 51.332 0.28 8.89 6.15 10.98
11/11/2021 8:00:00 PM 10.78 51.404 0.338 8.88 5.98 10.98
11/11/2021 8:15:00 PM 10.81 51.458 0.271 8.9 8.7 11
11/11/2021 8:30:00 PM 10.85 51.53 0.391 8.9 6.27 11.02
11/11/2021 8:45:00 PM 10.89 51.602 0.356 8.89 5.74 11.03
11/11/2021 9:00:00 PM 10.93 51.674 0.243 8.92 5.57 11.01
11/11/2021 9:15:00 PM 10.98 51.764 0.415 8.91 6.16 11.01
11/11/2021 9:30:00 PM 11.03 51.854 0.568 8.92 5.44 11.01
11/11/2021 9:45:00 PM 11.09 51.962 0.359 8.93 6.6 10.98
11/11/2021 10:00:00 PM 11.13 52.034 0.347 8.94 7.4 11
11/11/2021 10:15:00 PM 11.16 52.088 0.57 8.95 5.3 10.97
11/11/2021 10:30:00 PM 11.19 52.142 0.553 8.94 5.81 10.95
11/11/2021 10:45:00 PM 11.21 52.178 0.403 8.94 7.78 10.94
11/11/2021 11:00:00 PM 11.23 52.214 0.387 8.93 5.78 10.92
11/11/2021 11:15:00 PM 11.26 52.268 0.361 8.93 5.99 10.9
11/11/2021 11:30:00 PM 11.28 52.304 0.373 8.91 5.4 10.85
11/11/2021 11:45:00 PM 11.3 52.34 0.401 8.93 5.95 10.85
11/12/2021 12:00:00 AM 11.32 52.376 0.557 8.95 5.32 10.79
11/12/2021 12:15:00 AM 11.33 52.394 0.558 8.94 5.6 10.74
11/12/2021 12:30:00 AM 11.35 52.43 0.397 8.91 5.88 10.63
11/12/2021 12:45:00 AM 11.37 52.466 0.412 8.9 6.01 10.56
11/12/2021 1:00:00 AM 11.39 52.502 0.373 8.88 5.23 10.54
11/12/2021 1:15:00 AM 11.41 52.538 0.408 8.89 5.65 10.4
11/12/2021 1:30:00 AM 11.44 52.592 0.309 8.88 5.37 10.45
11/12/2021 1:45:00 AM 11.46 52.628 0.375 8.87 6.53 10.27
11/12/2021 2:00:00 AM 11.48 52.664 0.371 8.84 5.51 10.22
11/12/2021 2:15:00 AM 11.5 52.7 0.342 8.86 5.86 10.28
11/12/2021 2:30:00 AM 11.52 52.736 0.555 8.86 10.75 10.27
11/12/2021 2:45:00 AM 11.54 52.772 0.56 8.86 7.21 10.37
11/12/2021 3:00:00 AM 11.55 52.79 0.357 8.84 6.28 10.29
11/12/2021 3:15:00 AM 11.57 52.826 0.403 8.84 5.63 10.29
11/12/2021 3:30:00 AM 11.59 52.862 0.353 8.81 5.86 10.27
11/12/2021 3:45:00 AM 11.61 52.898 0.56 8.79 6.07 10.24
11/12/2021 4:00:00 AM 11.63 52.934 0.41 8.82 5.58 10.06
11/12/2021 4:15:00 AM 11.64 52.952 0.398 8.8 5.97 10.01
11/12/2021 4:30:00 AM 11.66 52.988 0.31 8.79 6.05 9.93
11/12/2021 4:45:00 AM 11.68 53.024 0.304 8.77 5.23 9.89
11/12/2021 5:00:00 AM 11.69 53.042 0.345 8.78 5.73 9.9
11/12/2021 5:15:00 AM 11.72 53.096 0.361 8.77 5.44 9.72
11/12/2021 5:30:00 AM 11.75 53.15 0.287 8.76 5.36 9.74
11/12/2021 5:45:00 AM 11.77 53.186 0.374 8.76 5.7 9.83
11/12/2021 6:00:00 AM 11.77 53.186 0.35 8.75 5.56 9.66
11/12/2021 6:15:00 AM 11.78 53.204 0.365 8.75 5.92 9.74
11/12/2021 6:30:00 AM 11.78 53.204 0.354 8.75 5.31 9.72
11/12/2021 6:45:00 AM 11.82 53.276 0.408 8.73 6.15 9.63
11/12/2021 7:00:00 AM 11.84 53.312 0.273 8.73 6.27 9.82
11/12/2021 7:15:00 AM 11.82 53.276 0.407 8.74 6.29 9.88
11/12/2021 7:30:00 AM 11.82 53.276 0.362 8.72 6.25 9.83
11/12/2021 7:45:00 AM 11.82 53.276 0.363 8.74 6.01 9.76
11/12/2021 8:00:00 AM 11.83 53.294 0.364 8.72 5.71 9.97
11/12/2021 8:15:00 AM 11.84 53.312 0.406 8.74 6.32 10.04
11/12/2021 8:30:00 AM 11.85 53.33 0.322 8.73 7.25 9.94
11/12/2021 8:45:00 AM 11.86 53.348 0.404 8.72 7.61 9.87
11/12/2021 9:00:00 AM 11.87 53.366 0.344 8.72 6.8 9.8
11/12/2021 9:15:00 AM 11.89 53.402 0.546 8.71 6.65 9.85
11/12/2021 9:30:00 AM 11.91 53.438 0.546 8.71 5.36 9.81
11/12/2021 9:45:00 AM 11.93 53.474 0.407 8.71 5.84 9.81
11/12/2021 10:00:00 AM 11.95 53.51 0.283 8.68 6.15 9.85
11/12/2021 10:15:00 AM 12 53.6 0.389 8.69 5.99 9.89
11/12/2021 10:30:00 AM 12.06 53.708 0.382 8.67 6.61 9.91
11/12/2021 10:45:00 AM 12.14 53.852 0.379 8.69 8.4 9.99
11/12/2021 11:00:00 AM 12.17 53.906 0.282 8.69 24.96 9.99
11/12/2021 11:15:00 AM 12.23 54.014 0.551 8.7 17.35 10.05
11/12/2021 11:30:00 AM 12.31 54.158 0.547 8.68 6.03 9.99
11/12/2021 11:45:00 AM 12.44 54.392 0.339 8.68 10.54 10.13
11/12/2021 12:00:00 PM 12.58 54.644 0.324 8.65 10.12 10.09
11/12/2021 12:15:00 PM 12.71 54.878 0.334 8.63 12.33 10.05
11/12/2021 12:30:00 PM 12.76 54.968 0.328 8.63 17.49 10.1
11/12/2021 12:45:00 PM 12.78 55.004 0.317 8.66 12.51 10.12
11/12/2021 1:00:00 PM 12.8 55.04 0.353 8.64 13.84 10.2
11/12/2021 1:15:00 PM 12.84 55.112 0.349 8.59 17.45 10.21
11/12/2021 1:30:00 PM 12.88 55.184 0.303 8.65 15.71 10.22
11/12/2021 1:45:00 PM 12.87 55.166 0.349 8.64 18.59 10.25
11/12/2021 2:00:00 PM 12.83 55.094 0.318 8.65 20.38 10.27
11/12/2021 2:15:00 PM 12.78 55.004 0.343 8.67 18.97 10.28
11/12/2021 2:30:00 PM 12.73 54.914 0.289 8.67 26.89 10.25
11/12/2021 2:45:00 PM 12.73 54.914 0.237 8.63 27.36 10.2
11/12/2021 3:00:00 PM 12.79 55.022 0.304 8.62 26.61 10.15
11/12/2021 3:15:00 PM 12.88 55.184 0.263 8.55 31.09 10.1
11/12/2021 3:30:00 PM 12.97 55.346 0.275 8.46 34.71 10.06
11/12/2021 3:45:00 PM 13.02 55.436 0.313 8.52 49.77 10.03
11/12/2021 4:00:00 PM 13.03 55.454 0.228 8.45 38.84 10.02
11/12/2021 4:15:00 PM 13.01 55.418 0.243 8.42 47.63 10.01
11/12/2021 4:30:00 PM 12.96 55.328 0.248 8.42 48.23 10.02
11/12/2021 4:45:00 PM 12.9 55.22 0.237 8.42 52.43 10.03
11/12/2021 5:00:00 PM 12.83 55.094 0.211 8.42 67.2 10.04
11/12/2021 5:15:00 PM 12.78 55.004 0.229 8.44 57.38 10.06
11/12/2021 5:30:00 PM 12.74 54.932 0.226 8.42 72.63 10.07
11/12/2021 5:45:00 PM 12.71 54.878 0.235 8.38 69.16 10.05
11/12/2021 6:00:00 PM 12.7 54.86 0.21 8.39 81.96 10.05
11/12/2021 6:15:00 PM 12.68 54.824 0.206 8.37 57.47 10.04
11/12/2021 6:30:00 PM 12.67 54.806 0.228 8.36 63.52 10.02
11/12/2021 6:45:00 PM 12.66 54.788 0.224 8.38 90.9 9.99
11/12/2021 7:00:00 PM 12.64 54.752 0.211 8.28 76.62 9.97
11/12/2021 7:15:00 PM 12.63 54.734 0.208 8.37 66.91 9.95
11/12/2021 7:30:00 PM 12.61 54.698 0.233 8.38 53.68 9.93
11/12/2021 7:45:00 PM 12.58 54.644 0.205 8.35 77.14 9.92
11/12/2021 8:00:00 PM 12.56 54.608 0.235 8.36 56.27 9.91
11/12/2021 8:15:00 PM 12.53 54.554 0.213 8.36 56.82 9.9
11/12/2021 8:30:00 PM 12.5 54.5 0.227 8.37 78.04 9.9
11/12/2021 8:45:00 PM 12.48 54.464 0.227 8.36 61.12 9.89
11/12/2021 9:00:00 PM 12.45 54.41 0.236 8.35 68.24 9.87
11/12/2021 9:15:00 PM 12.43 54.374 0.295 8.35 57.98 9.86
11/12/2021 9:30:00 PM 12.41 54.338 0.243 8.28 67.06 9.86
11/12/2021 9:45:00 PM 12.38 54.284 0.231 8.33 58.53 9.85
11/12/2021 10:00:00 PM 12.36 54.248 0.237 8.31 70.97 9.85
11/12/2021 10:15:00 PM 12.33 54.194 0.225 8.34 50.1 9.84
11/12/2021 10:30:00 PM 12.31 54.158 0.196 8.34 65.64 9.83
11/12/2021 10:45:00 PM 12.28 54.104 0.222 8.34 61.96 9.83
11/12/2021 11:00:00 PM 12.24 54.032 0.228 8.33 54.12 9.85
11/12/2021 11:15:00 PM 12.21 53.978 0.219 8.29 55.8 9.87
11/12/2021 11:30:00 PM 12.17 53.906 0.219 8.29 65.89 9.87
11/12/2021 11:45:00 PM 12.13 53.834 0.227 8.33 48.4 9.87
11/13/2021 12:00:00 AM 12.1 53.78 0.197 8.33 52.54 9.89
11/13/2021 12:15:00 AM 12.06 53.708 0.246 8.27 53 9.91
11/13/2021 12:30:00 AM 12.02 53.636 0.297 8.33 42.33 9.92
11/13/2021 12:45:00 AM 11.98 53.564 0.298 8.36 49.32 9.9
11/13/2021 1:00:00 AM 11.94 53.492 0.241 8.33 48.76 9.93
11/13/2021 1:15:00 AM 11.9 53.42 0.231 8.37 43.64 9.96
11/13/2021 1:30:00 AM 11.86 53.348 0.236 8.34 55.47 9.96
11/13/2021 1:45:00 AM 11.81 53.258 0.235 8.38 47.38 9.98
11/13/2021 2:00:00 AM 11.77 53.186 0.301 8.34 38.78 9.98
11/13/2021 2:15:00 AM 11.73 53.114 0.303 8.36 36.94 9.98
11/13/2021 2:30:00 AM 11.68 53.024 0.244 8.34 31.6 9.99
11/13/2021 2:45:00 AM 11.64 52.952 0.211 8.36 35.39 9.99
11/13/2021 3:00:00 AM 11.6 52.88 0.225 8.36 37.69 10
11/13/2021 3:15:00 AM 11.55 52.79 0.222 8.36 33.78 10.03
11/13/2021 3:30:00 AM 11.51 52.718 0.245 8.38 35.2 10.05
11/13/2021 3:45:00 AM 11.46 52.628 0.312 8.38 31.94 10.05
11/13/2021 4:00:00 AM 11.42 52.556 0.312 8.37 31.75 10.07
11/13/2021 4:15:00 AM 11.37 52.466 0.264 8.39 31.46 10.08
11/13/2021 4:30:00 AM 11.33 52.394 0.248 8.38 35.6 10.1
11/13/2021 4:45:00 AM 11.29 52.322 0.27 8.4 30.37 10.1
11/13/2021 5:00:00 AM 11.24 52.232 0.247 8.38 31.17 10.12
11/13/2021 5:15:00 AM 11.2 52.16 0.317 8.27 29.17 10.11
11/13/2021 5:30:00 AM 11.16 52.088 0.215 8.39 28.24 10.13
11/13/2021 5:45:00 AM 11.12 52.016 0.25 8.36 26.7 10.16
11/13/2021 6:00:00 AM 11.09 51.962 0.26 8.38 28.32 10.18
11/13/2021 6:15:00 AM 11.05 51.89 0.256 8.39 27.73 10.17
11/13/2021 6:30:00 AM 11.02 51.836 0.266 8.4 26.07 10.2
11/13/2021 6:45:00 AM 10.98 51.764 0.317 8.43 24.98 10.2
11/13/2021 7:00:00 AM 10.95 51.71 0.205 8.42 25.72 10.21
11/13/2021 7:15:00 AM 10.92 51.656 0.317 8.43 24.57 10.21
11/13/2021 7:30:00 AM 10.89 51.602 0.266 8.36 24.97 10.22
11/13/2021 7:45:00 AM 10.87 51.566 0.269 8.43 27.13 10.24
11/13/2021 8:00:00 AM 10.84 51.512 0.254 8.4 23.41 10.27
11/13/2021 8:15:00 AM 10.82 51.476 0.321 8.42 25.94 10.28
11/13/2021 8:30:00 AM 10.8 51.44 0.251 8.44 22.03 10.28
11/13/2021 8:45:00 AM 10.79 51.422 0.242 8.43 20.89 10.31
11/13/2021 9:00:00 AM 10.78 51.404 0.26 8.35 21.36 10.3
11/13/2021 9:15:00 AM 10.77 51.386 0.325 8.44 20.93 10.31
11/13/2021 9:30:00 AM 10.76 51.368 0.269 8.38 20.6 10.34
11/13/2021 9:45:00 AM 10.75 51.35 0.218 8.46 19.54 10.34
11/13/2021 10:00:00 AM 10.73 51.314 0.276 8.38 19.43 10.34
11/13/2021 10:15:00 AM 10.73 51.314 0.181 8.39 20.43 10.34
11/13/2021 10:30:00 AM 10.72 51.296 0.279 8.44 19.58 10.35
11/13/2021 10:45:00 AM 10.72 51.296 0.229 8.48 18.96 10.33
11/13/2021 11:00:00 AM 10.71 51.278 0.285 8.44 39.67 10.37
11/13/2021 11:15:00 AM 10.71 51.278 0.281 8.43 17.84 10.34
11/13/2021 11:30:00 AM 10.72 51.296 0.285 8.52 17.31 10.41
11/13/2021 11:45:00 AM 10.72 51.296 0.22 8.47 16.86 10.39
11/13/2021 12:00:00 PM 10.69 51.242 0.258 8.46 17 10.38
11/13/2021 12:15:00 PM 10.67 51.206 0.235 8.48 16.46 10.41
11/13/2021 12:30:00 PM 10.66 51.188 0.29 8.48 15.68 10.42
11/13/2021 12:45:00 PM 10.65 51.17 0.242 8.47 16.33 10.44
11/13/2021 1:00:00 PM 10.65 51.17 0.278 8.45 16 10.47
11/13/2021 1:15:00 PM 10.64 51.152 0.238 8.51 14.59 10.49
11/13/2021 1:30:00 PM 10.66 51.188 0.296 8.5 16.24 10.52
11/13/2021 1:45:00 PM 10.69 51.242 0.244 8.51 14.59 10.51
11/13/2021 2:00:00 PM 10.69 51.242 0.301 8.54 14.14 10.51
11/13/2021 2:15:00 PM 10.7 51.26 0.348 8.53 14.65 10.48
11/13/2021 2:30:00 PM 10.69 51.242 0.3 8.5 13.39 10.49
11/13/2021 2:45:00 PM 10.68 51.224 0.281 8.54 14.51 10.5
11/13/2021 3:00:00 PM 10.68 51.224 0.292 8.53 15.31 10.51
11/13/2021 3:15:00 PM 10.68 51.224 0.288 8.46 29.72 10.52
11/13/2021 3:30:00 PM 10.66 51.188 0.267 8.54 12.89 10.54
11/13/2021 3:45:00 PM 10.62 51.116 0.294 8.51 13.06 10.54
11/13/2021 4:00:00 PM 10.58 51.044 0.257 8.57 15.7 10.53
11/13/2021 4:15:00 PM 10.56 51.008 0.293 8.49 11.71 10.54
11/13/2021 4:30:00 PM 10.52 50.936 0.286 8.55 13.87 10.55
11/13/2021 4:45:00 PM 10.48 50.864 0.279 8.56 13.38 10.54
11/13/2021 5:00:00 PM 10.43 50.774 0.212 8.53 12.25 10.58
11/13/2021 5:15:00 PM 10.37 50.666 0.361 8.6 12.55 10.6
11/13/2021 5:30:00 PM 10.33 50.594 0.278 8.57 12.79 10.62
11/13/2021 5:45:00 PM 10.3 50.54 0.363 8.55 11.83 10.64
11/13/2021 6:00:00 PM 10.27 50.486 0.362 8.59 12.71 10.65
11/13/2021 6:15:00 PM 10.24 50.432 0.314 8.56 12.45 10.67
11/13/2021 6:30:00 PM 10.21 50.378 0.298 8.59 12.77 10.67
11/13/2021 6:45:00 PM 10.18 50.324 0.32 8.58 10.53 10.68
11/13/2021 7:00:00 PM 10.14 50.252 0.28 8.56 10.64 10.72
11/13/2021 7:15:00 PM 10.11 50.198 0.274 8.6 9.71 10.69
11/13/2021 7:30:00 PM 10.06 50.108 0.237 8.6 12.15 10.74
11/13/2021 7:45:00 PM 10.01 50.018 0.318 8.59 11.33 10.76
11/13/2021 8:00:00 PM 9.96 49.928 0.298 8.59 12.53 10.77
11/13/2021 8:15:00 PM 9.9 49.82 0.305 8.61 10.11 10.78
11/13/2021 8:30:00 PM 9.84 49.712 0.295 8.59 12.62 10.8
11/13/2021 8:45:00 PM 9.78 49.604 0.373 8.61 12.99 10.8
11/13/2021 9:00:00 PM 9.72 49.496 0.26 8.61 11.83 10.81
11/13/2021 9:15:00 PM 9.66 49.388 0.375 8.6 12.4 10.82
11/13/2021 9:30:00 PM 9.61 49.298 0.306 8.59 11.16 10.86
11/13/2021 9:45:00 PM 9.55 49.19 0.304 8.61 12.28 10.86
11/13/2021 10:00:00 PM 9.49 49.082 0.229 8.61 12.06 10.87
11/13/2021 10:15:00 PM 9.44 48.992 0.288 8.59 10.15 10.86
11/13/2021 10:30:00 PM 9.39 48.902 0.295 8.63 9.89 10.88
11/13/2021 10:45:00 PM 9.34 48.812 0.3 8.61 11.86 10.9
11/13/2021 11:00:00 PM 9.29 48.722 0.289 8.57 11.76 10.91
11/13/2021 11:15:00 PM 9.24 48.632 0.25 8.63 12.83 10.9
11/13/2021 11:30:00 PM 9.19 48.542 0.309 8.55 11.92 10.94
11/13/2021 11:45:00 PM 9.14 48.452 0.381 8.63 11.1 10.92
11/14/2021 12:00:00 AM 9.09 48.362 0.251 8.62 11.07 10.95
11/14/2021 12:15:00 AM 9.04 48.272 0.306 8.63 11.15 10.96
11/14/2021 12:30:00 AM 8.99 48.182 0.284 8.63 11.2 10.95
11/14/2021 12:45:00 AM 8.94 48.092 0.31 8.58 11.32 10.98
11/14/2021 1:00:00 AM 8.89 48.002 0.286 8.61 11.02 11
11/14/2021 1:15:00 AM 8.84 47.912 0.309 8.55 11.47 11.01
11/14/2021 1:30:00 AM 8.79 47.822 0.322 8.56 11.15 11.02
11/14/2021 1:45:00 AM 8.75 47.75 0.26 8.61 11.6 11.04
11/14/2021 2:00:00 AM 8.71 47.678 0.327 8.59 11.08 11.05
11/14/2021 2:15:00 AM 8.67 47.606 0.302 8.63 11.03 11.05
11/14/2021 2:30:00 AM 8.63 47.534 0.29 8.55 138.83 11.08
11/14/2021 2:45:00 AM 8.59 47.462 0.272 8.63 10.93 11.1
11/14/2021 3:00:00 AM 8.55 47.39 0.326 8.67 10.84 11.1
11/14/2021 3:15:00 AM 8.52 47.336 0.329 8.58 11.11 11.11
11/14/2021 3:30:00 AM 8.49 47.282 0.389 8.65 10.92 11.12
11/14/2021 3:45:00 AM 8.45 47.21 0.278 8.61 10.12 11.14
11/14/2021 4:00:00 AM 8.42 47.156 0.314 8.62 11.03 11.15
11/14/2021 4:15:00 AM 8.39 47.102 0.324 8.57 10.7 11.14
11/14/2021 4:30:00 AM 8.36 47.048 0.266 8.65 10.6 11.15
11/14/2021 4:45:00 AM 8.33 46.994 0.321 8.59 11.56 11.18
11/14/2021 5:00:00 AM 8.3 46.94 0.32 8.65 10.26 11.19
11/14/2021 5:15:00 AM 8.27 46.886 0.315 8.64 10.7 11.18
11/14/2021 5:30:00 AM 8.25 46.85 0.337 8.64 10.82 11.2
11/14/2021 5:45:00 AM 8.22 46.796 0.327 8.65 10.26 11.21
11/14/2021 6:00:00 AM 8.2 46.76 0.35 8.65 10.57 11.21
11/14/2021 6:15:00 AM 8.17 46.706 0.333 8.61 10.52 11.23
11/14/2021 6:30:00 AM 8.15 46.67 0.338 8.66 10.83 11.23
11/14/2021 6:45:00 AM 8.12 46.616 0.321 8.63 8.57 11.23
11/14/2021 7:00:00 AM 8.1 46.58 0.345 8.66 11.21 11.25
11/14/2021 7:15:00 AM 8.07 46.526 0.348 8.67 10.19 11.25
11/14/2021 7:30:00 AM 8.05 46.49 0.335 8.65 10.36 11.27
11/14/2021 7:45:00 AM 8.03 46.454 0.325 8.67 10.27 11.28
11/14/2021 8:00:00 AM 8.01 46.418 0.338 8.65 9.93 11.28
11/14/2021 8:15:00 AM 7.99 46.382 0.339 8.6 11.12 11.3
11/14/2021 8:30:00 AM 7.99 46.382 0.357 8.67 9.76 11.32
11/14/2021 8:45:00 AM 8 46.4 0.297 8.65 10.19 11.34
11/14/2021 9:00:00 AM 8 46.4 0.354 8.63 10.14 11.37
11/14/2021 9:15:00 AM 7.99 46.382 0.318 8.67 10.01 11.37
11/14/2021 9:30:00 AM 7.99 46.382 0.348 8.68 10.25 11.38
11/14/2021 9:45:00 AM 7.97 46.346 0.308 8.66 9.43 11.38
11/14/2021 10:00:00 AM 7.97 46.346 0.372 8.67 10.11 11.4
11/14/2021 10:15:00 AM 7.93 46.274 0.341 8.68 9.96 11.39
11/14/2021 10:30:00 AM 7.94 46.292 0.419 8.67 9.76 11.41
11/14/2021 10:45:00 AM 7.96 46.328 0.352 8.67 9.53 11.43
11/14/2021 11:00:00 AM 7.96 46.328 0.332 8.67 9.81 11.44
11/14/2021 11:15:00 AM 7.96 46.328 0.417 8.7 9.3 11.44
11/14/2021 11:30:00 AM 7.96 46.328 0.361 8.71 9.37 11.44
11/14/2021 11:45:00 AM 7.96 46.328 0.33 8.69 9.06 11.43
11/14/2021 12:00:00 PM 7.97 46.346 0.42 8.69 10.13 11.45
11/14/2021 12:15:00 PM 8 46.4 0.3 8.69 10.13 11.48
11/14/2021 12:30:00 PM 8.02 46.436 0.364 8.7 9.33 11.49
11/14/2021 12:45:00 PM 8.04 46.472 0.323 8.67 9.03 11.49
11/14/2021 1:00:00 PM 8.08 46.544 0.419 8.71 8.51 11.49
11/14/2021 1:15:00 PM 8.15 46.67 0.419 8.75 8.57 11.51
11/14/2021 1:30:00 PM 8.17 46.706 0.279 8.73 8.92 11.5
11/14/2021 1:45:00 PM 8.19 46.742 0.291 8.73 9.11 11.49
11/14/2021 2:00:00 PM 8.21 46.778 0.324 8.71 8.6 11.52
11/14/2021 2:15:00 PM 8.22 46.796 0.355 8.73 8.4 11.51
11/14/2021 2:30:00 PM 8.25 46.85 0.361 8.76 8.67 11.48
11/14/2021 2:45:00 PM 8.28 46.904 0.33 8.76 8.62 11.53
11/14/2021 3:00:00 PM 8.3 46.94 0.355 8.73 9.11 11.5
11/14/2021 3:15:00 PM 8.32 46.976 0.355 8.76 8.74 11.53
11/14/2021 3:30:00 PM 8.35 47.03 0.335 8.77 8.83 11.53
11/14/2021 3:45:00 PM 8.36 47.048 0.362 8.77 8.91 11.5
11/14/2021 4:00:00 PM 8.37 47.066 0.3 8.68 9.23 11.54
11/14/2021 4:15:00 PM 8.39 47.102 0.314 8.74 8.5 11.53
11/14/2021 4:30:00 PM 8.4 47.12 0.296 8.77 8.92 11.53
11/14/2021 4:45:00 PM 8.42 47.156 0.317 8.79 8.56 11.55
11/14/2021 5:00:00 PM 8.43 47.174 0.339 8.77 8.44 11.54
11/14/2021 5:15:00 PM 8.44 47.192 0.339 8.78 8.15 11.55
11/14/2021 5:30:00 PM 8.46 47.228 0.267 8.79 8.86 11.53
11/14/2021 5:45:00 PM 8.46 47.228 0.348 8.73 9.06 11.53
11/14/2021 6:00:00 PM 8.46 47.228 0.334 8.79 8.77 11.56
11/14/2021 6:15:00 PM 8.46 47.228 0.312 8.72 8.76 11.55
11/14/2021 6:30:00 PM 8.47 47.246 0.321 8.77 8.14 11.54
11/14/2021 6:45:00 PM 8.47 47.246 0.327 8.78 8.46 11.54
11/14/2021 7:00:00 PM 8.48 47.264 0.323 8.76 8.4 11.52
11/14/2021 7:15:00 PM 8.48 47.264 0.361 8.82 8.63 11.53
11/14/2021 7:30:00 PM 8.48 47.264 0.336 8.79 8.15 11.52
11/14/2021 7:45:00 PM 8.47 47.246 0.352 8.79 8.09 11.53
11/14/2021 8:00:00 PM 8.47 47.246 0.314 8.78 8.22 11.48
11/14/2021 8:15:00 PM 8.47 47.246 0.293 8.81 8.26 11.47
11/14/2021 8:30:00 PM 8.47 47.246 0.318 8.77 8.43 11.5
11/14/2021 8:45:00 PM 8.47 47.246 0.335 8.81 8.39 11.48
11/14/2021 9:00:00 PM 8.46 47.228 0.277 8.79 8.51 11.42
11/14/2021 9:15:00 PM 8.46 47.228 0.363 8.78 8.42 11.44
11/14/2021 9:30:00 PM 8.46 47.228 0.24 8.76 8.44 11.38
11/14/2021 9:45:00 PM 8.45 47.21 0.369 8.77 8.76 11.39
11/14/2021 10:00:00 PM 8.45 47.21 0.364 8.72 8.65 11.36
11/14/2021 10:15:00 PM 8.44 47.192 0.346 8.77 8.84 11.37
11/14/2021 10:30:00 PM 8.43 47.174 0.352 8.73 8.24 11.35
11/14/2021 10:45:00 PM 8.42 47.156 0.362 8.74 9.01 11.33
11/14/2021 11:00:00 PM 8.41 47.138 0.367 8.77 8.42 11.32
11/14/2021 11:15:00 PM 8.4 47.12 0.328 8.76 8.48 11.31
11/14/2021 11:30:00 PM 8.38 47.084 0.363 8.7 8.29 11.26
11/14/2021 11:45:00 PM 8.36 47.048 0.366 8.72 8.29 11.29
11/15/2021 12:00:00 AM 8.33 46.994 0.359 8.71 7.78 11.27
11/15/2021 12:15:00 AM 8.31 46.958 0.327 8.74 8.37 11.23
11/15/2021 12:30:00 AM 8.29 46.922 0.278 8.73 8.39 11.25
11/15/2021 12:45:00 AM 8.27 46.886 0.347 8.7 7.74 11.23
11/15/2021 1:00:00 AM 8.25 46.85 0.339 8.73 8.07 11.24
11/15/2021 1:15:00 AM 8.24 46.832 0.292 8.73 7.95 11.24
11/15/2021 1:30:00 AM 8.22 46.796 0.306 8.71 8.37 11.21
11/15/2021 1:45:00 AM 8.21 46.778 0.354 8.7 8.23 11.2
11/15/2021 2:00:00 AM 8.19 46.742 0.351 8.71 8.86 11.17
11/15/2021 2:15:00 AM 8.18 46.724 0.319 8.69 8.08 11.17
11/15/2021 2:30:00 AM 8.17 46.706 0.367 8.7 8.07 11.17
11/15/2021 2:45:00 AM 8.16 46.688 0.336 8.72 8.55 11.13
11/15/2021 3:00:00 AM 8.15 46.67 0.341 8.69 7.74 11.19
11/15/2021 3:15:00 AM 8.14 46.652 0.304 8.7 8.41 11.17
11/15/2021 3:30:00 AM 8.12 46.616 0.319 8.7 9.11 11.15
11/15/2021 3:45:00 AM 8.11 46.598 0.35 8.7 8.21 11.16
11/15/2021 4:00:00 AM 8.1 46.58 0.433 8.72 8.22 11.17
11/15/2021 4:15:00 AM 8.07 46.526 0.349 8.71 8.53 11.16
11/15/2021 4:30:00 AM 8.05 46.49 0.434 8.74 7.8 11.16
11/15/2021 4:45:00 AM 8.03 46.454 0.367 8.71 8.73 11.16
11/15/2021 5:00:00 AM 8 46.4 0.38 8.72 7.77 11.19
11/15/2021 5:15:00 AM 7.98 46.364 0.38 8.73 8.96 11.17
11/15/2021 5:30:00 AM 7.96 46.328 0.382 8.71 8.65 11.19
11/15/2021 5:45:00 AM 7.95 46.31 0.436 8.69 8.32 11.2
11/15/2021 6:00:00 AM 7.93 46.274 0.374 8.71 8.27 11.19
11/15/2021 6:15:00 AM 7.93 46.274 0.434 8.73 8.36 11.15
11/15/2021 6:30:00 AM 7.92 46.256 0.437 8.72 7.63 11.19
11/15/2021 6:45:00 AM 7.91 46.238 0.338 8.72 8.65 11.21
11/15/2021 7:00:00 AM 7.91 46.238 0.339 8.71 8.04 11.22
11/15/2021 7:15:00 AM 7.9 46.22 0.376 8.71 8.08 11.24
11/15/2021 7:30:00 AM 7.9 46.22 0.44 8.7 8.07 11.24
11/15/2021 7:45:00 AM 7.9 46.22 0.364 8.68 8.95 11.25
11/15/2021 8:00:00 AM 7.9 46.22 0.351 8.71 8.12 11.26
11/15/2021 8:15:00 AM 7.91 46.238 0.369 8.68 8.42 11.29
11/15/2021 8:30:00 AM 7.92 46.256 0.366 8.7 7.8 11.29
11/15/2021 8:45:00 AM 7.92 46.256 0.307 8.73